<?xml version="1.0" encoding="UTF-8" standalone="no" ?>
<gpx xmlns="http://www.topografix.com/GPX/1/1" xmlns:xsi="http://www.w3.org/2001/XMLSchema-instance" xsi:schemaLocation="http://www.topografix.com/GPX/1/1 http://www.topografix.com/GPX/1/1/gpx.xsd" version="1.1" creator="VisuGPX - https://www.visugpx.com">
  <metadata>
    <name>Boucle Mégevette Onnion</name>
  </metadata>
  <trk>
    <name><![CDATA[2025-08-25 Mégevette-Onnion]]></name>
    <trkseg>
      <trkpt lat="46.19428" lon="6.49663">
        <ele>873.359375</ele>
        <time>2025-08-25T08:53:08Z</time>
      </trkpt>
      <trkpt lat="46.1943" lon="6.49661">
        <ele>873.53125</ele>
        <time>2025-08-25T08:53:17Z</time>
      </trkpt>
      <trkpt lat="46.1943" lon="6.49661">
        <ele>873.55859375</ele>
        <time>2025-08-25T08:53:18Z</time>
      </trkpt>
      <trkpt lat="46.1943" lon="6.49661">
        <ele>873.609375</ele>
        <time>2025-08-25T08:53:22Z</time>
      </trkpt>
      <trkpt lat="46.19428" lon="6.49661">
        <ele>873.41796875</ele>
        <time>2025-08-25T08:53:54Z</time>
      </trkpt>
      <trkpt lat="46.19428" lon="6.4966">
        <ele>873.4921875</ele>
        <time>2025-08-25T08:54:26Z</time>
      </trkpt>
      <trkpt lat="46.19428" lon="6.4966">
        <ele>873.49609375</ele>
        <time>2025-08-25T08:54:49Z</time>
      </trkpt>
      <trkpt lat="46.19429" lon="6.49661">
        <ele>873.5</ele>
        <time>2025-08-25T08:55:15Z</time>
      </trkpt>
      <trkpt lat="46.19432" lon="6.49661">
        <ele>873.73828125</ele>
        <time>2025-08-25T08:55:33Z</time>
      </trkpt>
      <trkpt lat="46.19441" lon="6.4965">
        <ele>875.41015625</ele>
        <time>2025-08-25T08:55:48Z</time>
      </trkpt>
      <trkpt lat="46.19442" lon="6.49649">
        <ele>875.51171875</ele>
        <time>2025-08-25T08:55:54Z</time>
      </trkpt>
      <trkpt lat="46.19455" lon="6.49645">
        <ele>876.63671875</ele>
        <time>2025-08-25T08:56:02Z</time>
      </trkpt>
      <trkpt lat="46.19462" lon="6.49626">
        <ele>878.58984375</ele>
        <time>2025-08-25T08:56:08Z</time>
      </trkpt>
      <trkpt lat="46.19462" lon="6.49597">
        <ele>881.70703125</ele>
        <time>2025-08-25T08:56:16Z</time>
      </trkpt>
      <trkpt lat="46.1946" lon="6.49595">
        <ele>881.90625</ele>
        <time>2025-08-25T08:56:17Z</time>
      </trkpt>
      <trkpt lat="46.19456" lon="6.49593">
        <ele>882.00390625</ele>
        <time>2025-08-25T08:56:18Z</time>
      </trkpt>
      <trkpt lat="46.19453" lon="6.49591">
        <ele>882.0546875</ele>
        <time>2025-08-25T08:56:19Z</time>
      </trkpt>
      <trkpt lat="46.1945" lon="6.49589">
        <ele>882.11328125</ele>
        <time>2025-08-25T08:56:20Z</time>
      </trkpt>
      <trkpt lat="46.19394" lon="6.49556">
        <ele>880.0390625</ele>
        <time>2025-08-25T08:56:34Z</time>
      </trkpt>
      <trkpt lat="46.19313" lon="6.49488">
        <ele>877.8828125</ele>
        <time>2025-08-25T08:56:50Z</time>
      </trkpt>
      <trkpt lat="46.19242" lon="6.49449">
        <ele>877.88671875</ele>
        <time>2025-08-25T08:57:03Z</time>
      </trkpt>
      <trkpt lat="46.19174" lon="6.49402">
        <ele>876.64453125</ele>
        <time>2025-08-25T08:57:17Z</time>
      </trkpt>
      <trkpt lat="46.19099" lon="6.4933">
        <ele>878.24609375</ele>
        <time>2025-08-25T08:57:33Z</time>
      </trkpt>
      <trkpt lat="46.19031" lon="6.49286">
        <ele>879.00390625</ele>
        <time>2025-08-25T08:57:46Z</time>
      </trkpt>
      <trkpt lat="46.18988" lon="6.49265">
        <ele>880.75390625</ele>
        <time>2025-08-25T08:57:53Z</time>
      </trkpt>
      <trkpt lat="46.18983" lon="6.49265">
        <ele>880.921875</ele>
        <time>2025-08-25T08:57:54Z</time>
      </trkpt>
      <trkpt lat="46.18968" lon="6.49265">
        <ele>881.29296875</ele>
        <time>2025-08-25T08:57:57Z</time>
      </trkpt>
      <trkpt lat="46.18895" lon="6.49258">
        <ele>879.94921875</ele>
        <time>2025-08-25T08:58:11Z</time>
      </trkpt>
      <trkpt lat="46.18875" lon="6.49253">
        <ele>880.2890625</ele>
        <time>2025-08-25T08:58:15Z</time>
      </trkpt>
      <trkpt lat="46.18851" lon="6.49249">
        <ele>880.67578125</ele>
        <time>2025-08-25T08:58:19Z</time>
      </trkpt>
      <trkpt lat="46.18784" lon="6.49263">
        <ele>883.8203125</ele>
        <time>2025-08-25T08:58:32Z</time>
      </trkpt>
      <trkpt lat="46.18716" lon="6.49274">
        <ele>888.3359375</ele>
        <time>2025-08-25T08:58:49Z</time>
      </trkpt>
      <trkpt lat="46.18684" lon="6.4928">
        <ele>893.11328125</ele>
        <time>2025-08-25T08:58:58Z</time>
      </trkpt>
      <trkpt lat="46.18663" lon="6.49283">
        <ele>897.3046875</ele>
        <time>2025-08-25T08:59:05Z</time>
      </trkpt>
      <trkpt lat="46.18644" lon="6.49285">
        <ele>901.4765625</ele>
        <time>2025-08-25T08:59:14Z</time>
      </trkpt>
      <trkpt lat="46.1863" lon="6.49286">
        <ele>905.1484375</ele>
        <time>2025-08-25T08:59:20Z</time>
      </trkpt>
      <trkpt lat="46.18623" lon="6.49287">
        <ele>907.953125</ele>
        <time>2025-08-25T08:59:23Z</time>
      </trkpt>
      <trkpt lat="46.18621" lon="6.49289">
        <ele>908.33984375</ele>
        <time>2025-08-25T08:59:24Z</time>
      </trkpt>
      <trkpt lat="46.1862" lon="6.49292">
        <ele>908.4921875</ele>
        <time>2025-08-25T08:59:25Z</time>
      </trkpt>
      <trkpt lat="46.18604" lon="6.49315">
        <ele>910.7890625</ele>
        <time>2025-08-25T08:59:34Z</time>
      </trkpt>
      <trkpt lat="46.18588" lon="6.49346">
        <ele>912.22265625</ele>
        <time>2025-08-25T08:59:44Z</time>
      </trkpt>
      <trkpt lat="46.1858" lon="6.49356">
        <ele>914.30859375</ele>
        <time>2025-08-25T08:59:49Z</time>
      </trkpt>
      <trkpt lat="46.18566" lon="6.49378">
        <ele>917.78125</ele>
        <time>2025-08-25T08:59:59Z</time>
      </trkpt>
      <trkpt lat="46.18565" lon="6.4938">
        <ele>918.14453125</ele>
        <time>2025-08-25T09:00:00Z</time>
      </trkpt>
      <trkpt lat="46.18554" lon="6.49391">
        <ele>920.2890625</ele>
        <time>2025-08-25T09:00:06Z</time>
      </trkpt>
      <trkpt lat="46.18548" lon="6.494">
        <ele>921.3671875</ele>
        <time>2025-08-25T09:00:10Z</time>
      </trkpt>
      <trkpt lat="46.18547" lon="6.49403">
        <ele>921.390625</ele>
        <time>2025-08-25T09:00:11Z</time>
      </trkpt>
      <trkpt lat="46.18539" lon="6.49423">
        <ele>922.5703125</ele>
        <time>2025-08-25T09:00:20Z</time>
      </trkpt>
      <trkpt lat="46.18533" lon="6.49434">
        <ele>923.5625</ele>
        <time>2025-08-25T09:00:25Z</time>
      </trkpt>
      <trkpt lat="46.1853" lon="6.49441">
        <ele>923.46875</ele>
        <time>2025-08-25T09:00:27Z</time>
      </trkpt>
      <trkpt lat="46.18529" lon="6.49444">
        <ele>923.38671875</ele>
        <time>2025-08-25T09:00:28Z</time>
      </trkpt>
      <trkpt lat="46.18527" lon="6.4945">
        <ele>923.39453125</ele>
        <time>2025-08-25T09:00:30Z</time>
      </trkpt>
      <trkpt lat="46.18513" lon="6.49475">
        <ele>924.5078125</ele>
        <time>2025-08-25T09:00:40Z</time>
      </trkpt>
      <trkpt lat="46.18503" lon="6.49477">
        <ele>927.06640625</ele>
        <time>2025-08-25T09:00:46Z</time>
      </trkpt>
      <trkpt lat="46.18489" lon="6.49464">
        <ele>933.58203125</ele>
        <time>2025-08-25T09:00:55Z</time>
      </trkpt>
      <trkpt lat="46.18482" lon="6.49462">
        <ele>936.56640625</ele>
        <time>2025-08-25T09:00:58Z</time>
      </trkpt>
      <trkpt lat="46.1848" lon="6.49464">
        <ele>937.30859375</ele>
        <time>2025-08-25T09:01:00Z</time>
      </trkpt>
      <trkpt lat="46.1847" lon="6.49479">
        <ele>939.0078125</ele>
        <time>2025-08-25T09:01:07Z</time>
      </trkpt>
      <trkpt lat="46.18466" lon="6.49484">
        <ele>939.703125</ele>
        <time>2025-08-25T09:01:09Z</time>
      </trkpt>
      <trkpt lat="46.1845" lon="6.49509">
        <ele>942.57421875</ele>
        <time>2025-08-25T09:01:20Z</time>
      </trkpt>
      <trkpt lat="46.18433" lon="6.49534">
        <ele>944.61328125</ele>
        <time>2025-08-25T09:01:31Z</time>
      </trkpt>
      <trkpt lat="46.18416" lon="6.49559">
        <ele>946.9296875</ele>
        <time>2025-08-25T09:01:40Z</time>
      </trkpt>
      <trkpt lat="46.18394" lon="6.49582">
        <ele>949.26171875</ele>
        <time>2025-08-25T09:01:51Z</time>
      </trkpt>
      <trkpt lat="46.18382" lon="6.49593">
        <ele>949.71484375</ele>
        <time>2025-08-25T09:01:56Z</time>
      </trkpt>
      <trkpt lat="46.18343" lon="6.49604">
        <ele>946.6875</ele>
        <time>2025-08-25T09:02:10Z</time>
      </trkpt>
      <trkpt lat="46.18323" lon="6.49606">
        <ele>943.5859375</ele>
        <time>2025-08-25T09:02:14Z</time>
      </trkpt>
      <trkpt lat="46.18317" lon="6.49607">
        <ele>942.33984375</ele>
        <time>2025-08-25T09:02:15Z</time>
      </trkpt>
      <trkpt lat="46.18311" lon="6.49608">
        <ele>941.078125</ele>
        <time>2025-08-25T09:02:16Z</time>
      </trkpt>
      <trkpt lat="46.18286" lon="6.49615">
        <ele>936.2265625</ele>
        <time>2025-08-25T09:02:20Z</time>
      </trkpt>
      <trkpt lat="46.18267" lon="6.49619">
        <ele>933.0546875</ele>
        <time>2025-08-25T09:02:23Z</time>
      </trkpt>
      <trkpt lat="46.18261" lon="6.49619">
        <ele>932</ele>
        <time>2025-08-25T09:02:24Z</time>
      </trkpt>
      <trkpt lat="46.18257" lon="6.49618">
        <ele>930.88671875</ele>
        <time>2025-08-25T09:02:25Z</time>
      </trkpt>
      <trkpt lat="46.18252" lon="6.49615">
        <ele>929.7265625</ele>
        <time>2025-08-25T09:02:26Z</time>
      </trkpt>
      <trkpt lat="46.18249" lon="6.49612">
        <ele>928.61328125</ele>
        <time>2025-08-25T09:02:27Z</time>
      </trkpt>
      <trkpt lat="46.18232" lon="6.49603">
        <ele>923.234375</ele>
        <time>2025-08-25T09:02:33Z</time>
      </trkpt>
      <trkpt lat="46.18227" lon="6.49601">
        <ele>922.23046875</ele>
        <time>2025-08-25T09:02:42Z</time>
      </trkpt>
      <trkpt lat="46.18218" lon="6.49598">
        <ele>920.09765625</ele>
        <time>2025-08-25T09:02:46Z</time>
      </trkpt>
      <trkpt lat="46.18213" lon="6.49597">
        <ele>918.90234375</ele>
        <time>2025-08-25T09:02:47Z</time>
      </trkpt>
      <trkpt lat="46.18208" lon="6.49597">
        <ele>917.3515625</ele>
        <time>2025-08-25T09:02:48Z</time>
      </trkpt>
      <trkpt lat="46.18201" lon="6.49597">
        <ele>915.42578125</ele>
        <time>2025-08-25T09:02:49Z</time>
      </trkpt>
      <trkpt lat="46.18194" lon="6.49599">
        <ele>913.30078125</ele>
        <time>2025-08-25T09:02:50Z</time>
      </trkpt>
      <trkpt lat="46.18187" lon="6.496">
        <ele>911.1875</ele>
        <time>2025-08-25T09:02:51Z</time>
      </trkpt>
      <trkpt lat="46.1818" lon="6.49599">
        <ele>909.23828125</ele>
        <time>2025-08-25T09:02:52Z</time>
      </trkpt>
      <trkpt lat="46.18164" lon="6.49595">
        <ele>905.45703125</ele>
        <time>2025-08-25T09:02:54Z</time>
      </trkpt>
      <trkpt lat="46.18155" lon="6.49592">
        <ele>903.98828125</ele>
        <time>2025-08-25T09:02:55Z</time>
      </trkpt>
      <trkpt lat="46.18146" lon="6.49587">
        <ele>903.3515625</ele>
        <time>2025-08-25T09:02:56Z</time>
      </trkpt>
      <trkpt lat="46.18138" lon="6.49582">
        <ele>902.8828125</ele>
        <time>2025-08-25T09:02:57Z</time>
      </trkpt>
      <trkpt lat="46.1813" lon="6.4958">
        <ele>902.01171875</ele>
        <time>2025-08-25T09:02:58Z</time>
      </trkpt>
      <trkpt lat="46.18123" lon="6.4958">
        <ele>900.5234375</ele>
        <time>2025-08-25T09:02:59Z</time>
      </trkpt>
      <trkpt lat="46.18115" lon="6.49583">
        <ele>898.3984375</ele>
        <time>2025-08-25T09:03:00Z</time>
      </trkpt>
      <trkpt lat="46.18109" lon="6.49587">
        <ele>895.84765625</ele>
        <time>2025-08-25T09:03:01Z</time>
      </trkpt>
      <trkpt lat="46.18105" lon="6.49592">
        <ele>893.4140625</ele>
        <time>2025-08-25T09:03:02Z</time>
      </trkpt>
      <trkpt lat="46.18101" lon="6.49597">
        <ele>890.38671875</ele>
        <time>2025-08-25T09:03:03Z</time>
      </trkpt>
      <trkpt lat="46.18098" lon="6.49603">
        <ele>886.92578125</ele>
        <time>2025-08-25T09:03:04Z</time>
      </trkpt>
      <trkpt lat="46.18096" lon="6.49609">
        <ele>883.625</ele>
        <time>2025-08-25T09:03:05Z</time>
      </trkpt>
      <trkpt lat="46.18094" lon="6.49615">
        <ele>880.61328125</ele>
        <time>2025-08-25T09:03:06Z</time>
      </trkpt>
      <trkpt lat="46.18092" lon="6.4962">
        <ele>877.765625</ele>
        <time>2025-08-25T09:03:07Z</time>
      </trkpt>
      <trkpt lat="46.1809" lon="6.49624">
        <ele>875.4296875</ele>
        <time>2025-08-25T09:03:08Z</time>
      </trkpt>
      <trkpt lat="46.18088" lon="6.49625">
        <ele>873.37109375</ele>
        <time>2025-08-25T09:03:09Z</time>
      </trkpt>
      <trkpt lat="46.18084" lon="6.49625">
        <ele>871.26953125</ele>
        <time>2025-08-25T09:03:10Z</time>
      </trkpt>
      <trkpt lat="46.18078" lon="6.49624">
        <ele>869.00390625</ele>
        <time>2025-08-25T09:03:11Z</time>
      </trkpt>
      <trkpt lat="46.18072" lon="6.49621">
        <ele>866.87109375</ele>
        <time>2025-08-25T09:03:12Z</time>
      </trkpt>
      <trkpt lat="46.18067" lon="6.49618">
        <ele>865.10546875</ele>
        <time>2025-08-25T09:03:13Z</time>
      </trkpt>
      <trkpt lat="46.18061" lon="6.49613">
        <ele>864.01171875</ele>
        <time>2025-08-25T09:03:14Z</time>
      </trkpt>
      <trkpt lat="46.18057" lon="6.49608">
        <ele>863.8125</ele>
        <time>2025-08-25T09:03:15Z</time>
      </trkpt>
      <trkpt lat="46.18053" lon="6.496">
        <ele>864.359375</ele>
        <time>2025-08-25T09:03:16Z</time>
      </trkpt>
      <trkpt lat="46.18048" lon="6.49592">
        <ele>865.09375</ele>
        <time>2025-08-25T09:03:17Z</time>
      </trkpt>
      <trkpt lat="46.18032" lon="6.49567">
        <ele>864.54296875</ele>
        <time>2025-08-25T09:03:20Z</time>
      </trkpt>
      <trkpt lat="46.18021" lon="6.4955">
        <ele>864.28515625</ele>
        <time>2025-08-25T09:03:22Z</time>
      </trkpt>
      <trkpt lat="46.1801" lon="6.49531">
        <ele>865.3984375</ele>
        <time>2025-08-25T09:03:24Z</time>
      </trkpt>
      <trkpt lat="46.18004" lon="6.49522">
        <ele>865.50390625</ele>
        <time>2025-08-25T09:03:25Z</time>
      </trkpt>
      <trkpt lat="46.17988" lon="6.49499">
        <ele>862.68359375</ele>
        <time>2025-08-25T09:03:28Z</time>
      </trkpt>
      <trkpt lat="46.17977" lon="6.49486">
        <ele>860.1875</ele>
        <time>2025-08-25T09:03:30Z</time>
      </trkpt>
      <trkpt lat="46.17972" lon="6.49479">
        <ele>858.953125</ele>
        <time>2025-08-25T09:03:31Z</time>
      </trkpt>
      <trkpt lat="46.17967" lon="6.49472">
        <ele>857.66015625</ele>
        <time>2025-08-25T09:03:32Z</time>
      </trkpt>
      <trkpt lat="46.17953" lon="6.49451">
        <ele>855.12890625</ele>
        <time>2025-08-25T09:03:35Z</time>
      </trkpt>
      <trkpt lat="46.17949" lon="6.49444">
        <ele>854.40234375</ele>
        <time>2025-08-25T09:03:36Z</time>
      </trkpt>
      <trkpt lat="46.17944" lon="6.49437">
        <ele>853.6328125</ele>
        <time>2025-08-25T09:03:37Z</time>
      </trkpt>
      <trkpt lat="46.17934" lon="6.49422">
        <ele>851.44921875</ele>
        <time>2025-08-25T09:03:39Z</time>
      </trkpt>
      <trkpt lat="46.17923" lon="6.49409">
        <ele>849.26171875</ele>
        <time>2025-08-25T09:03:41Z</time>
      </trkpt>
      <trkpt lat="46.17906" lon="6.49395">
        <ele>845.45703125</ele>
        <time>2025-08-25T09:03:44Z</time>
      </trkpt>
      <trkpt lat="46.17901" lon="6.49394">
        <ele>844.5546875</ele>
        <time>2025-08-25T09:03:45Z</time>
      </trkpt>
      <trkpt lat="46.17898" lon="6.49395">
        <ele>843.7578125</ele>
        <time>2025-08-25T09:03:46Z</time>
      </trkpt>
      <trkpt lat="46.17895" lon="6.49398">
        <ele>842.82421875</ele>
        <time>2025-08-25T09:03:47Z</time>
      </trkpt>
      <trkpt lat="46.17891" lon="6.49405">
        <ele>841.6484375</ele>
        <time>2025-08-25T09:03:48Z</time>
      </trkpt>
      <trkpt lat="46.17888" lon="6.49412">
        <ele>840.37890625</ele>
        <time>2025-08-25T09:03:49Z</time>
      </trkpt>
      <trkpt lat="46.17884" lon="6.4942">
        <ele>839.17578125</ele>
        <time>2025-08-25T09:03:50Z</time>
      </trkpt>
      <trkpt lat="46.17879" lon="6.49427">
        <ele>837.92578125</ele>
        <time>2025-08-25T09:03:51Z</time>
      </trkpt>
      <trkpt lat="46.17874" lon="6.49432">
        <ele>836.5390625</ele>
        <time>2025-08-25T09:03:52Z</time>
      </trkpt>
      <trkpt lat="46.17869" lon="6.49435">
        <ele>835.1875</ele>
        <time>2025-08-25T09:03:53Z</time>
      </trkpt>
      <trkpt lat="46.17864" lon="6.49436">
        <ele>833.75390625</ele>
        <time>2025-08-25T09:03:54Z</time>
      </trkpt>
      <trkpt lat="46.17858" lon="6.49436">
        <ele>832.203125</ele>
        <time>2025-08-25T09:03:55Z</time>
      </trkpt>
      <trkpt lat="46.17851" lon="6.49436">
        <ele>830.69140625</ele>
        <time>2025-08-25T09:03:56Z</time>
      </trkpt>
      <trkpt lat="46.17845" lon="6.49434">
        <ele>829.23828125</ele>
        <time>2025-08-25T09:03:57Z</time>
      </trkpt>
      <trkpt lat="46.17838" lon="6.49431">
        <ele>827.859375</ele>
        <time>2025-08-25T09:03:58Z</time>
      </trkpt>
      <trkpt lat="46.17831" lon="6.49428">
        <ele>826.47265625</ele>
        <time>2025-08-25T09:03:59Z</time>
      </trkpt>
      <trkpt lat="46.17824" lon="6.49424">
        <ele>825.2265625</ele>
        <time>2025-08-25T09:04:00Z</time>
      </trkpt>
      <trkpt lat="46.17819" lon="6.49419">
        <ele>824.03125</ele>
        <time>2025-08-25T09:04:01Z</time>
      </trkpt>
      <trkpt lat="46.17813" lon="6.49413">
        <ele>823.203125</ele>
        <time>2025-08-25T09:04:02Z</time>
      </trkpt>
      <trkpt lat="46.17794" lon="6.49393">
        <ele>819.84375</ele>
        <time>2025-08-25T09:04:07Z</time>
      </trkpt>
      <trkpt lat="46.17788" lon="6.49386">
        <ele>818.84765625</ele>
        <time>2025-08-25T09:04:09Z</time>
      </trkpt>
      <trkpt lat="46.17785" lon="6.49381">
        <ele>818.5625</ele>
        <time>2025-08-25T09:04:10Z</time>
      </trkpt>
      <trkpt lat="46.17783" lon="6.49375">
        <ele>818.4375</ele>
        <time>2025-08-25T09:04:11Z</time>
      </trkpt>
      <trkpt lat="46.17781" lon="6.49368">
        <ele>818.53515625</ele>
        <time>2025-08-25T09:04:12Z</time>
      </trkpt>
      <trkpt lat="46.17779" lon="6.49359">
        <ele>818.76171875</ele>
        <time>2025-08-25T09:04:13Z</time>
      </trkpt>
      <trkpt lat="46.17755" lon="6.49276">
        <ele>818.71484375</ele>
        <time>2025-08-25T09:04:22Z</time>
      </trkpt>
      <trkpt lat="46.17742" lon="6.49177">
        <ele>816.65625</ele>
        <time>2025-08-25T09:04:31Z</time>
      </trkpt>
      <trkpt lat="46.1773" lon="6.49132">
        <ele>815.734375</ele>
        <time>2025-08-25T09:04:35Z</time>
      </trkpt>
      <trkpt lat="46.17717" lon="6.49088">
        <ele>812.7734375</ele>
        <time>2025-08-25T09:04:39Z</time>
      </trkpt>
      <trkpt lat="46.17702" lon="6.49034">
        <ele>810.109375</ele>
        <time>2025-08-25T09:04:44Z</time>
      </trkpt>
      <trkpt lat="46.17682" lon="6.4898">
        <ele>806.5078125</ele>
        <time>2025-08-25T09:04:49Z</time>
      </trkpt>
      <trkpt lat="46.17677" lon="6.48971">
        <ele>805.71484375</ele>
        <time>2025-08-25T09:04:50Z</time>
      </trkpt>
      <trkpt lat="46.1767" lon="6.48963">
        <ele>804.51171875</ele>
        <time>2025-08-25T09:04:51Z</time>
      </trkpt>
      <trkpt lat="46.17628" lon="6.48915">
        <ele>796.61328125</ele>
        <time>2025-08-25T09:04:57Z</time>
      </trkpt>
      <trkpt lat="46.17603" lon="6.48877">
        <ele>793.5078125</ele>
        <time>2025-08-25T09:05:01Z</time>
      </trkpt>
      <trkpt lat="46.17598" lon="6.48866">
        <ele>792.94921875</ele>
        <time>2025-08-25T09:05:02Z</time>
      </trkpt>
      <trkpt lat="46.17594" lon="6.48854">
        <ele>792.3984375</ele>
        <time>2025-08-25T09:05:03Z</time>
      </trkpt>
      <trkpt lat="46.1759" lon="6.48842">
        <ele>792.640625</ele>
        <time>2025-08-25T09:05:04Z</time>
      </trkpt>
      <trkpt lat="46.17587" lon="6.48829">
        <ele>793.4140625</ele>
        <time>2025-08-25T09:05:05Z</time>
      </trkpt>
      <trkpt lat="46.17586" lon="6.48815">
        <ele>794.71875</ele>
        <time>2025-08-25T09:05:06Z</time>
      </trkpt>
      <trkpt lat="46.17584" lon="6.48801">
        <ele>795.8671875</ele>
        <time>2025-08-25T09:05:07Z</time>
      </trkpt>
      <trkpt lat="46.17581" lon="6.48774">
        <ele>798.1015625</ele>
        <time>2025-08-25T09:05:09Z</time>
      </trkpt>
      <trkpt lat="46.17561" lon="6.48698">
        <ele>797.83203125</ele>
        <time>2025-08-25T09:05:15Z</time>
      </trkpt>
      <trkpt lat="46.1754" lon="6.48639">
        <ele>795.80859375</ele>
        <time>2025-08-25T09:05:20Z</time>
      </trkpt>
      <trkpt lat="46.17534" lon="6.48629">
        <ele>795.203125</ele>
        <time>2025-08-25T09:05:21Z</time>
      </trkpt>
      <trkpt lat="46.17528" lon="6.4862">
        <ele>794.15234375</ele>
        <time>2025-08-25T09:05:22Z</time>
      </trkpt>
      <trkpt lat="46.17521" lon="6.48611">
        <ele>793.0078125</ele>
        <time>2025-08-25T09:05:23Z</time>
      </trkpt>
      <trkpt lat="46.17514" lon="6.48603">
        <ele>791.97265625</ele>
        <time>2025-08-25T09:05:24Z</time>
      </trkpt>
      <trkpt lat="46.17487" lon="6.48575">
        <ele>789.828125</ele>
        <time>2025-08-25T09:05:28Z</time>
      </trkpt>
      <trkpt lat="46.17484" lon="6.48565">
        <ele>790.28515625</ele>
        <time>2025-08-25T09:05:29Z</time>
      </trkpt>
      <trkpt lat="46.17483" lon="6.48555">
        <ele>790.93359375</ele>
        <time>2025-08-25T09:05:30Z</time>
      </trkpt>
      <trkpt lat="46.17483" lon="6.48545">
        <ele>791.6484375</ele>
        <time>2025-08-25T09:05:31Z</time>
      </trkpt>
      <trkpt lat="46.17483" lon="6.48535">
        <ele>792.3671875</ele>
        <time>2025-08-25T09:05:32Z</time>
      </trkpt>
      <trkpt lat="46.17483" lon="6.48517">
        <ele>793.67578125</ele>
        <time>2025-08-25T09:05:34Z</time>
      </trkpt>
      <trkpt lat="46.17484" lon="6.48509">
        <ele>794.3203125</ele>
        <time>2025-08-25T09:05:35Z</time>
      </trkpt>
      <trkpt lat="46.17485" lon="6.48502">
        <ele>794.953125</ele>
        <time>2025-08-25T09:05:36Z</time>
      </trkpt>
      <trkpt lat="46.17487" lon="6.48495">
        <ele>795.58203125</ele>
        <time>2025-08-25T09:05:37Z</time>
      </trkpt>
      <trkpt lat="46.1749" lon="6.48488">
        <ele>796.0390625</ele>
        <time>2025-08-25T09:05:38Z</time>
      </trkpt>
      <trkpt lat="46.17493" lon="6.48482">
        <ele>796.52734375</ele>
        <time>2025-08-25T09:05:39Z</time>
      </trkpt>
      <trkpt lat="46.17496" lon="6.48475">
        <ele>797.18359375</ele>
        <time>2025-08-25T09:05:40Z</time>
      </trkpt>
      <trkpt lat="46.17525" lon="6.48379">
        <ele>802.86328125</ele>
        <time>2025-08-25T09:05:54Z</time>
      </trkpt>
      <trkpt lat="46.17525" lon="6.48372">
        <ele>802.94921875</ele>
        <time>2025-08-25T09:05:55Z</time>
      </trkpt>
      <trkpt lat="46.17525" lon="6.48366">
        <ele>802.9921875</ele>
        <time>2025-08-25T09:05:56Z</time>
      </trkpt>
      <trkpt lat="46.17525" lon="6.48353">
        <ele>802.94921875</ele>
        <time>2025-08-25T09:05:58Z</time>
      </trkpt>
      <trkpt lat="46.17524" lon="6.48348">
        <ele>803.0546875</ele>
        <time>2025-08-25T09:05:59Z</time>
      </trkpt>
      <trkpt lat="46.17523" lon="6.48342">
        <ele>803.0390625</ele>
        <time>2025-08-25T09:06:00Z</time>
      </trkpt>
      <trkpt lat="46.17514" lon="6.48304">
        <ele>802.953125</ele>
        <time>2025-08-25T09:06:07Z</time>
      </trkpt>
      <trkpt lat="46.17514" lon="6.48269">
        <ele>805.265625</ele>
        <time>2025-08-25T09:06:14Z</time>
      </trkpt>
      <trkpt lat="46.17522" lon="6.48233">
        <ele>809.125</ele>
        <time>2025-08-25T09:06:23Z</time>
      </trkpt>
      <trkpt lat="46.17513" lon="6.48188">
        <ele>811.6953125</ele>
        <time>2025-08-25T09:06:33Z</time>
      </trkpt>
      <trkpt lat="46.17502" lon="6.48138">
        <ele>815.2890625</ele>
        <time>2025-08-25T09:06:43Z</time>
      </trkpt>
      <trkpt lat="46.17496" lon="6.481">
        <ele>817</ele>
        <time>2025-08-25T09:06:51Z</time>
      </trkpt>
      <trkpt lat="46.17495" lon="6.48095">
        <ele>817.1953125</ele>
        <time>2025-08-25T09:06:52Z</time>
      </trkpt>
      <trkpt lat="46.17492" lon="6.48041">
        <ele>820.53125</ele>
        <time>2025-08-25T09:07:03Z</time>
      </trkpt>
      <trkpt lat="46.1748" lon="6.47995">
        <ele>823.1953125</ele>
        <time>2025-08-25T09:07:13Z</time>
      </trkpt>
      <trkpt lat="46.17475" lon="6.47985">
        <ele>823.49609375</ele>
        <time>2025-08-25T09:07:16Z</time>
      </trkpt>
      <trkpt lat="46.17474" lon="6.47986">
        <ele>823.26171875</ele>
        <time>2025-08-25T09:07:17Z</time>
      </trkpt>
      <trkpt lat="46.17475" lon="6.47992">
        <ele>822.75</ele>
        <time>2025-08-25T09:07:19Z</time>
      </trkpt>
      <trkpt lat="46.17479" lon="6.48001">
        <ele>822.2734375</ele>
        <time>2025-08-25T09:07:32Z</time>
      </trkpt>
      <trkpt lat="46.1748" lon="6.48001">
        <ele>822.48828125</ele>
        <time>2025-08-25T09:08:06Z</time>
      </trkpt>
      <trkpt lat="46.17478" lon="6.48002">
        <ele>822.06640625</ele>
        <time>2025-08-25T09:08:36Z</time>
      </trkpt>
      <trkpt lat="46.17479" lon="6.48003">
        <ele>822.125</ele>
        <time>2025-08-25T09:09:07Z</time>
      </trkpt>
      <trkpt lat="46.1748" lon="6.48001">
        <ele>822.47265625</ele>
        <time>2025-08-25T09:09:33Z</time>
      </trkpt>
      <trkpt lat="46.17481" lon="6.47994">
        <ele>823.421875</ele>
        <time>2025-08-25T09:09:38Z</time>
      </trkpt>
      <trkpt lat="46.17479" lon="6.47991">
        <ele>823.45703125</ele>
        <time>2025-08-25T09:09:39Z</time>
      </trkpt>
      <trkpt lat="46.17477" lon="6.47988">
        <ele>823.50390625</ele>
        <time>2025-08-25T09:09:40Z</time>
      </trkpt>
      <trkpt lat="46.17475" lon="6.47984">
        <ele>823.625</ele>
        <time>2025-08-25T09:09:41Z</time>
      </trkpt>
      <trkpt lat="46.17473" lon="6.4798">
        <ele>823.80859375</ele>
        <time>2025-08-25T09:09:42Z</time>
      </trkpt>
      <trkpt lat="46.17454" lon="6.4794">
        <ele>825.4296875</ele>
        <time>2025-08-25T09:09:51Z</time>
      </trkpt>
      <trkpt lat="46.17434" lon="6.4789">
        <ele>828.171875</ele>
        <time>2025-08-25T09:10:02Z</time>
      </trkpt>
      <trkpt lat="46.17419" lon="6.47854">
        <ele>831.078125</ele>
        <time>2025-08-25T09:10:10Z</time>
      </trkpt>
      <trkpt lat="46.17416" lon="6.47811">
        <ele>835.99609375</ele>
        <time>2025-08-25T09:10:18Z</time>
      </trkpt>
      <trkpt lat="46.17416" lon="6.47805">
        <ele>836.59375</ele>
        <time>2025-08-25T09:10:19Z</time>
      </trkpt>
      <trkpt lat="46.17419" lon="6.47762">
        <ele>841.9765625</ele>
        <time>2025-08-25T09:10:27Z</time>
      </trkpt>
      <trkpt lat="46.17433" lon="6.47712">
        <ele>848.5703125</ele>
        <time>2025-08-25T09:10:37Z</time>
      </trkpt>
      <trkpt lat="46.17438" lon="6.47665">
        <ele>851.8671875</ele>
        <time>2025-08-25T09:10:46Z</time>
      </trkpt>
      <trkpt lat="46.17442" lon="6.47645">
        <ele>854.13671875</ele>
        <time>2025-08-25T09:10:50Z</time>
      </trkpt>
      <trkpt lat="46.17446" lon="6.47643">
        <ele>854.9296875</ele>
        <time>2025-08-25T09:10:51Z</time>
      </trkpt>
      <trkpt lat="46.1745" lon="6.47643">
        <ele>855.66796875</ele>
        <time>2025-08-25T09:10:52Z</time>
      </trkpt>
      <trkpt lat="46.17454" lon="6.47646">
        <ele>856.1953125</ele>
        <time>2025-08-25T09:10:53Z</time>
      </trkpt>
      <trkpt lat="46.17456" lon="6.4765">
        <ele>856.3515625</ele>
        <time>2025-08-25T09:10:54Z</time>
      </trkpt>
      <trkpt lat="46.17458" lon="6.47655">
        <ele>856.28125</ele>
        <time>2025-08-25T09:10:55Z</time>
      </trkpt>
      <trkpt lat="46.17459" lon="6.4766">
        <ele>856.12890625</ele>
        <time>2025-08-25T09:10:56Z</time>
      </trkpt>
      <trkpt lat="46.1746" lon="6.47665">
        <ele>856</ele>
        <time>2025-08-25T09:10:57Z</time>
      </trkpt>
      <trkpt lat="46.17482" lon="6.47709">
        <ele>856.91015625</ele>
        <time>2025-08-25T09:11:08Z</time>
      </trkpt>
      <trkpt lat="46.17511" lon="6.4775">
        <ele>858.015625</ele>
        <time>2025-08-25T09:11:20Z</time>
      </trkpt>
      <trkpt lat="46.17542" lon="6.47783">
        <ele>859.8046875</ele>
        <time>2025-08-25T09:11:32Z</time>
      </trkpt>
      <trkpt lat="46.1757" lon="6.47809">
        <ele>862.08203125</ele>
        <time>2025-08-25T09:11:42Z</time>
      </trkpt>
      <trkpt lat="46.17599" lon="6.47833">
        <ele>864.65234375</ele>
        <time>2025-08-25T09:11:52Z</time>
      </trkpt>
      <trkpt lat="46.17631" lon="6.47856">
        <ele>869.10546875</ele>
        <time>2025-08-25T09:12:03Z</time>
      </trkpt>
      <trkpt lat="46.17651" lon="6.47896">
        <ele>873.984375</ele>
        <time>2025-08-25T09:12:14Z</time>
      </trkpt>
      <trkpt lat="46.17649" lon="6.47904">
        <ele>873.125</ele>
        <time>2025-08-25T09:12:23Z</time>
      </trkpt>
      <trkpt lat="46.17648" lon="6.47904">
        <ele>872.78515625</ele>
        <time>2025-08-25T09:12:58Z</time>
      </trkpt>
      <trkpt lat="46.17644" lon="6.47897">
        <ele>871.27734375</ele>
        <time>2025-08-25T09:13:33Z</time>
      </trkpt>
      <trkpt lat="46.1764" lon="6.47904">
        <ele>869.78515625</ele>
        <time>2025-08-25T09:14:07Z</time>
      </trkpt>
      <trkpt lat="46.17647" lon="6.47901">
        <ele>872.38671875</ele>
        <time>2025-08-25T09:14:23Z</time>
      </trkpt>
      <trkpt lat="46.17648" lon="6.47898">
        <ele>872.7734375</ele>
        <time>2025-08-25T09:14:24Z</time>
      </trkpt>
      <trkpt lat="46.17648" lon="6.47893">
        <ele>873.11328125</ele>
        <time>2025-08-25T09:14:25Z</time>
      </trkpt>
      <trkpt lat="46.17648" lon="6.47873">
        <ele>873.5234375</ele>
        <time>2025-08-25T09:14:28Z</time>
      </trkpt>
      <trkpt lat="46.17647" lon="6.47865">
        <ele>873.62890625</ele>
        <time>2025-08-25T09:14:29Z</time>
      </trkpt>
      <trkpt lat="46.17647" lon="6.47857">
        <ele>874.11328125</ele>
        <time>2025-08-25T09:14:30Z</time>
      </trkpt>
      <trkpt lat="46.17648" lon="6.47849">
        <ele>874.8359375</ele>
        <time>2025-08-25T09:14:31Z</time>
      </trkpt>
      <trkpt lat="46.17649" lon="6.47841">
        <ele>875.51171875</ele>
        <time>2025-08-25T09:14:32Z</time>
      </trkpt>
      <trkpt lat="46.17648" lon="6.47833">
        <ele>875.71875</ele>
        <time>2025-08-25T09:14:33Z</time>
      </trkpt>
      <trkpt lat="46.17646" lon="6.47827">
        <ele>875.46875</ele>
        <time>2025-08-25T09:14:34Z</time>
      </trkpt>
      <trkpt lat="46.17643" lon="6.47821">
        <ele>875.15234375</ele>
        <time>2025-08-25T09:14:35Z</time>
      </trkpt>
      <trkpt lat="46.1764" lon="6.47816">
        <ele>874.71484375</ele>
        <time>2025-08-25T09:14:36Z</time>
      </trkpt>
      <trkpt lat="46.17637" lon="6.47811">
        <ele>874.37109375</ele>
        <time>2025-08-25T09:14:37Z</time>
      </trkpt>
      <trkpt lat="46.17634" lon="6.47804">
        <ele>874.1953125</ele>
        <time>2025-08-25T09:14:38Z</time>
      </trkpt>
      <trkpt lat="46.17631" lon="6.47799">
        <ele>874.234375</ele>
        <time>2025-08-25T09:14:39Z</time>
      </trkpt>
      <trkpt lat="46.17629" lon="6.47793">
        <ele>874.7265625</ele>
        <time>2025-08-25T09:14:40Z</time>
      </trkpt>
      <trkpt lat="46.17626" lon="6.47781">
        <ele>875.765625</ele>
        <time>2025-08-25T09:14:42Z</time>
      </trkpt>
      <trkpt lat="46.17616" lon="6.47731">
        <ele>880.46484375</ele>
        <time>2025-08-25T09:14:51Z</time>
      </trkpt>
      <trkpt lat="46.17616" lon="6.47686">
        <ele>886.0703125</ele>
        <time>2025-08-25T09:15:00Z</time>
      </trkpt>
      <trkpt lat="46.17614" lon="6.47644">
        <ele>890.6328125</ele>
        <time>2025-08-25T09:15:08Z</time>
      </trkpt>
      <trkpt lat="46.17614" lon="6.47628">
        <ele>892.203125</ele>
        <time>2025-08-25T09:15:11Z</time>
      </trkpt>
      <trkpt lat="46.17605" lon="6.47579">
        <ele>896.265625</ele>
        <time>2025-08-25T09:15:21Z</time>
      </trkpt>
      <trkpt lat="46.17586" lon="6.47525">
        <ele>896.3984375</ele>
        <time>2025-08-25T09:15:32Z</time>
      </trkpt>
      <trkpt lat="46.17586" lon="6.4752">
        <ele>896.95703125</ele>
        <time>2025-08-25T09:15:33Z</time>
      </trkpt>
      <trkpt lat="46.17586" lon="6.47495">
        <ele>900.15234375</ele>
        <time>2025-08-25T09:15:38Z</time>
      </trkpt>
      <trkpt lat="46.17591" lon="6.47448">
        <ele>904.83984375</ele>
        <time>2025-08-25T09:15:48Z</time>
      </trkpt>
      <trkpt lat="46.17605" lon="6.47407">
        <ele>910.74609375</ele>
        <time>2025-08-25T09:15:57Z</time>
      </trkpt>
      <trkpt lat="46.17608" lon="6.47357">
        <ele>914.0546875</ele>
        <time>2025-08-25T09:16:07Z</time>
      </trkpt>
      <trkpt lat="46.17609" lon="6.47347">
        <ele>914.55859375</ele>
        <time>2025-08-25T09:16:09Z</time>
      </trkpt>
      <trkpt lat="46.17613" lon="6.47323">
        <ele>916.3125</ele>
        <time>2025-08-25T09:16:14Z</time>
      </trkpt>
      <trkpt lat="46.17632" lon="6.47286">
        <ele>920.6640625</ele>
        <time>2025-08-25T09:16:23Z</time>
      </trkpt>
      <trkpt lat="46.17633" lon="6.47282">
        <ele>921.1171875</ele>
        <time>2025-08-25T09:16:24Z</time>
      </trkpt>
      <trkpt lat="46.17634" lon="6.47237">
        <ele>924.2109375</ele>
        <time>2025-08-25T09:16:33Z</time>
      </trkpt>
      <trkpt lat="46.17625" lon="6.47188">
        <ele>927.17578125</ele>
        <time>2025-08-25T09:16:43Z</time>
      </trkpt>
      <trkpt lat="46.17619" lon="6.47143">
        <ele>929.5390625</ele>
        <time>2025-08-25T09:16:52Z</time>
      </trkpt>
      <trkpt lat="46.17619" lon="6.47134">
        <ele>930.28515625</ele>
        <time>2025-08-25T09:16:54Z</time>
      </trkpt>
      <trkpt lat="46.17619" lon="6.47109">
        <ele>932.44140625</ele>
        <time>2025-08-25T09:16:59Z</time>
      </trkpt>
      <trkpt lat="46.17614" lon="6.47091">
        <ele>934.515625</ele>
        <time>2025-08-25T09:17:03Z</time>
      </trkpt>
      <trkpt lat="46.17579" lon="6.47049">
        <ele>936.73828125</ele>
        <time>2025-08-25T09:17:16Z</time>
      </trkpt>
      <trkpt lat="46.17558" lon="6.47024">
        <ele>939.7890625</ele>
        <time>2025-08-25T09:17:24Z</time>
      </trkpt>
      <trkpt lat="46.1753" lon="6.46995">
        <ele>941.5078125</ele>
        <time>2025-08-25T09:17:34Z</time>
      </trkpt>
      <trkpt lat="46.17512" lon="6.46965">
        <ele>944.015625</ele>
        <time>2025-08-25T09:17:42Z</time>
      </trkpt>
      <trkpt lat="46.17496" lon="6.46918">
        <ele>948.55859375</ele>
        <time>2025-08-25T09:17:52Z</time>
      </trkpt>
      <trkpt lat="46.17486" lon="6.46904">
        <ele>949.7734375</ele>
        <time>2025-08-25T09:17:56Z</time>
      </trkpt>
      <trkpt lat="46.17457" lon="6.46878">
        <ele>950.51171875</ele>
        <time>2025-08-25T09:18:06Z</time>
      </trkpt>
      <trkpt lat="46.17445" lon="6.46821">
        <ele>955.22265625</ele>
        <time>2025-08-25T09:18:18Z</time>
      </trkpt>
      <trkpt lat="46.17444" lon="6.46811">
        <ele>956.25390625</ele>
        <time>2025-08-25T09:18:20Z</time>
      </trkpt>
      <trkpt lat="46.17438" lon="6.46759">
        <ele>960.2265625</ele>
        <time>2025-08-25T09:18:30Z</time>
      </trkpt>
      <trkpt lat="46.17437" lon="6.46754">
        <ele>960.4453125</ele>
        <time>2025-08-25T09:18:31Z</time>
      </trkpt>
      <trkpt lat="46.17432" lon="6.46705">
        <ele>962.87890625</ele>
        <time>2025-08-25T09:18:41Z</time>
      </trkpt>
      <trkpt lat="46.1745" lon="6.46684">
        <ele>968.53125</ele>
        <time>2025-08-25T09:18:48Z</time>
      </trkpt>
      <trkpt lat="46.17476" lon="6.46707">
        <ele>971.78515625</ele>
        <time>2025-08-25T09:18:56Z</time>
      </trkpt>
      <trkpt lat="46.17519" lon="6.46761">
        <ele>973.234375</ele>
        <time>2025-08-25T09:19:12Z</time>
      </trkpt>
      <trkpt lat="46.17558" lon="6.46792">
        <ele>974.05859375</ele>
        <time>2025-08-25T09:19:21Z</time>
      </trkpt>
      <trkpt lat="46.17562" lon="6.46798">
        <ele>973.91015625</ele>
        <time>2025-08-25T09:19:22Z</time>
      </trkpt>
      <trkpt lat="46.17566" lon="6.46805">
        <ele>973.6015625</ele>
        <time>2025-08-25T09:19:23Z</time>
      </trkpt>
      <trkpt lat="46.1757" lon="6.46813">
        <ele>973.1796875</ele>
        <time>2025-08-25T09:19:24Z</time>
      </trkpt>
      <trkpt lat="46.17587" lon="6.46849">
        <ele>971.5078125</ele>
        <time>2025-08-25T09:19:29Z</time>
      </trkpt>
      <trkpt lat="46.17591" lon="6.46855">
        <ele>971.4609375</ele>
        <time>2025-08-25T09:19:30Z</time>
      </trkpt>
      <trkpt lat="46.1761" lon="6.46881">
        <ele>972.23046875</ele>
        <time>2025-08-25T09:19:35Z</time>
      </trkpt>
      <trkpt lat="46.17613" lon="6.46885">
        <ele>972.6875</ele>
        <time>2025-08-25T09:19:36Z</time>
      </trkpt>
      <trkpt lat="46.17617" lon="6.46889">
        <ele>973.09375</ele>
        <time>2025-08-25T09:19:37Z</time>
      </trkpt>
      <trkpt lat="46.17636" lon="6.4691">
        <ele>975.0625</ele>
        <time>2025-08-25T09:19:43Z</time>
      </trkpt>
      <trkpt lat="46.17639" lon="6.46914">
        <ele>975.44140625</ele>
        <time>2025-08-25T09:19:44Z</time>
      </trkpt>
      <trkpt lat="46.17648" lon="6.46925">
        <ele>976.87109375</ele>
        <time>2025-08-25T09:19:47Z</time>
      </trkpt>
      <trkpt lat="46.17658" lon="6.46935">
        <ele>978.46484375</ele>
        <time>2025-08-25T09:19:50Z</time>
      </trkpt>
      <trkpt lat="46.17662" lon="6.46938">
        <ele>978.8203125</ele>
        <time>2025-08-25T09:19:51Z</time>
      </trkpt>
      <trkpt lat="46.17671" lon="6.46949">
        <ele>979.78515625</ele>
        <time>2025-08-25T09:19:54Z</time>
      </trkpt>
      <trkpt lat="46.17701" lon="6.46965">
        <ele>984.01171875</ele>
        <time>2025-08-25T09:20:02Z</time>
      </trkpt>
      <trkpt lat="46.17706" lon="6.46966">
        <ele>984.53125</ele>
        <time>2025-08-25T09:20:03Z</time>
      </trkpt>
      <trkpt lat="46.1775" lon="6.46979">
        <ele>989.1328125</ele>
        <time>2025-08-25T09:20:14Z</time>
      </trkpt>
      <trkpt lat="46.17765" lon="6.46985">
        <ele>989.6328125</ele>
        <time>2025-08-25T09:20:18Z</time>
      </trkpt>
      <trkpt lat="46.17769" lon="6.46987">
        <ele>989.5859375</ele>
        <time>2025-08-25T09:20:19Z</time>
      </trkpt>
      <trkpt lat="46.17773" lon="6.46989">
        <ele>989.73046875</ele>
        <time>2025-08-25T09:20:20Z</time>
      </trkpt>
      <trkpt lat="46.17777" lon="6.46991">
        <ele>990.05859375</ele>
        <time>2025-08-25T09:20:21Z</time>
      </trkpt>
      <trkpt lat="46.17782" lon="6.46993">
        <ele>990.4609375</ele>
        <time>2025-08-25T09:20:22Z</time>
      </trkpt>
      <trkpt lat="46.17808" lon="6.47005">
        <ele>993.1328125</ele>
        <time>2025-08-25T09:20:28Z</time>
      </trkpt>
      <trkpt lat="46.17812" lon="6.47009">
        <ele>993.30078125</ele>
        <time>2025-08-25T09:20:29Z</time>
      </trkpt>
      <trkpt lat="46.17815" lon="6.47013">
        <ele>993.34765625</ele>
        <time>2025-08-25T09:20:30Z</time>
      </trkpt>
      <trkpt lat="46.17818" lon="6.47017">
        <ele>993.25390625</ele>
        <time>2025-08-25T09:20:31Z</time>
      </trkpt>
      <trkpt lat="46.17821" lon="6.47022">
        <ele>993.0546875</ele>
        <time>2025-08-25T09:20:32Z</time>
      </trkpt>
      <trkpt lat="46.17823" lon="6.47028">
        <ele>992.98828125</ele>
        <time>2025-08-25T09:20:33Z</time>
      </trkpt>
      <trkpt lat="46.17825" lon="6.47032">
        <ele>992.9375</ele>
        <time>2025-08-25T09:20:34Z</time>
      </trkpt>
      <trkpt lat="46.17827" lon="6.47037">
        <ele>992.875</ele>
        <time>2025-08-25T09:20:35Z</time>
      </trkpt>
      <trkpt lat="46.1784" lon="6.47067">
        <ele>992.765625</ele>
        <time>2025-08-25T09:20:41Z</time>
      </trkpt>
      <trkpt lat="46.17843" lon="6.47071">
        <ele>993.00390625</ele>
        <time>2025-08-25T09:20:42Z</time>
      </trkpt>
      <trkpt lat="46.17846" lon="6.47076">
        <ele>993.32421875</ele>
        <time>2025-08-25T09:20:43Z</time>
      </trkpt>
      <trkpt lat="46.17849" lon="6.4708">
        <ele>993.82421875</ele>
        <time>2025-08-25T09:20:44Z</time>
      </trkpt>
      <trkpt lat="46.17852" lon="6.47084">
        <ele>994.4453125</ele>
        <time>2025-08-25T09:20:45Z</time>
      </trkpt>
      <trkpt lat="46.17856" lon="6.47087">
        <ele>994.99609375</ele>
        <time>2025-08-25T09:20:46Z</time>
      </trkpt>
      <trkpt lat="46.1786" lon="6.4709">
        <ele>995.50390625</ele>
        <time>2025-08-25T09:20:47Z</time>
      </trkpt>
      <trkpt lat="46.17902" lon="6.47118">
        <ele>1001.42578125</ele>
        <time>2025-08-25T09:20:58Z</time>
      </trkpt>
      <trkpt lat="46.17906" lon="6.4712">
        <ele>1002.00390625</ele>
        <time>2025-08-25T09:20:59Z</time>
      </trkpt>
      <trkpt lat="46.1794" lon="6.47131">
        <ele>1006.55078125</ele>
        <time>2025-08-25T09:21:07Z</time>
      </trkpt>
      <trkpt lat="46.17965" lon="6.47135">
        <ele>1009.0078125</ele>
        <time>2025-08-25T09:21:13Z</time>
      </trkpt>
      <trkpt lat="46.18011" lon="6.47144">
        <ele>1014.0546875</ele>
        <time>2025-08-25T09:21:24Z</time>
      </trkpt>
      <trkpt lat="46.18026" lon="6.47149">
        <ele>1016.27734375</ele>
        <time>2025-08-25T09:21:28Z</time>
      </trkpt>
      <trkpt lat="46.1803" lon="6.47151">
        <ele>1017.09375</ele>
        <time>2025-08-25T09:21:29Z</time>
      </trkpt>
      <trkpt lat="46.18034" lon="6.47154">
        <ele>1017.890625</ele>
        <time>2025-08-25T09:21:30Z</time>
      </trkpt>
      <trkpt lat="46.18038" lon="6.47158">
        <ele>1018.609375</ele>
        <time>2025-08-25T09:21:31Z</time>
      </trkpt>
      <trkpt lat="46.1804" lon="6.47163">
        <ele>1019.30078125</ele>
        <time>2025-08-25T09:21:32Z</time>
      </trkpt>
      <trkpt lat="46.18043" lon="6.47168">
        <ele>1020</ele>
        <time>2025-08-25T09:21:33Z</time>
      </trkpt>
      <trkpt lat="46.18044" lon="6.47173">
        <ele>1020.63671875</ele>
        <time>2025-08-25T09:21:34Z</time>
      </trkpt>
      <trkpt lat="46.18046" lon="6.47178">
        <ele>1021.11328125</ele>
        <time>2025-08-25T09:21:35Z</time>
      </trkpt>
      <trkpt lat="46.18046" lon="6.47184">
        <ele>1021.46484375</ele>
        <time>2025-08-25T09:21:36Z</time>
      </trkpt>
      <trkpt lat="46.18047" lon="6.47195">
        <ele>1022.0234375</ele>
        <time>2025-08-25T09:21:38Z</time>
      </trkpt>
      <trkpt lat="46.18047" lon="6.472">
        <ele>1022.1484375</ele>
        <time>2025-08-25T09:21:39Z</time>
      </trkpt>
      <trkpt lat="46.18046" lon="6.47206">
        <ele>1022.19921875</ele>
        <time>2025-08-25T09:21:40Z</time>
      </trkpt>
      <trkpt lat="46.18046" lon="6.47211">
        <ele>1022.14453125</ele>
        <time>2025-08-25T09:21:41Z</time>
      </trkpt>
      <trkpt lat="46.18045" lon="6.47216">
        <ele>1022.01953125</ele>
        <time>2025-08-25T09:21:42Z</time>
      </trkpt>
      <trkpt lat="46.18044" lon="6.47221">
        <ele>1022.12109375</ele>
        <time>2025-08-25T09:21:43Z</time>
      </trkpt>
      <trkpt lat="46.18038" lon="6.47264">
        <ele>1024.0078125</ele>
        <time>2025-08-25T09:21:52Z</time>
      </trkpt>
      <trkpt lat="46.18027" lon="6.47319">
        <ele>1028.19140625</ele>
        <time>2025-08-25T09:22:04Z</time>
      </trkpt>
      <trkpt lat="46.18015" lon="6.47366">
        <ele>1032.50390625</ele>
        <time>2025-08-25T09:22:14Z</time>
      </trkpt>
      <trkpt lat="46.18006" lon="6.47393">
        <ele>1034.80859375</ele>
        <time>2025-08-25T09:22:20Z</time>
      </trkpt>
      <trkpt lat="46.17991" lon="6.47429">
        <ele>1036.03125</ele>
        <time>2025-08-25T09:22:29Z</time>
      </trkpt>
      <trkpt lat="46.17976" lon="6.47465">
        <ele>1034.70703125</ele>
        <time>2025-08-25T09:22:37Z</time>
      </trkpt>
      <trkpt lat="46.17966" lon="6.47502">
        <ele>1034.9453125</ele>
        <time>2025-08-25T09:22:45Z</time>
      </trkpt>
      <trkpt lat="46.17967" lon="6.47529">
        <ele>1037.8984375</ele>
        <time>2025-08-25T09:22:50Z</time>
      </trkpt>
      <trkpt lat="46.17977" lon="6.47578">
        <ele>1045.5859375</ele>
        <time>2025-08-25T09:23:00Z</time>
      </trkpt>
      <trkpt lat="46.17981" lon="6.47603">
        <ele>1050.234375</ele>
        <time>2025-08-25T09:23:05Z</time>
      </trkpt>
      <trkpt lat="46.1799" lon="6.47644">
        <ele>1058.86328125</ele>
        <time>2025-08-25T09:23:14Z</time>
      </trkpt>
      <trkpt lat="46.17989" lon="6.47685">
        <ele>1068.50390625</ele>
        <time>2025-08-25T09:23:23Z</time>
      </trkpt>
      <trkpt lat="46.17968" lon="6.47717">
        <ele>1072.60546875</ele>
        <time>2025-08-25T09:23:32Z</time>
      </trkpt>
      <trkpt lat="46.17943" lon="6.47729">
        <ele>1071.2578125</ele>
        <time>2025-08-25T09:23:41Z</time>
      </trkpt>
      <trkpt lat="46.17919" lon="6.47733">
        <ele>1067.2890625</ele>
        <time>2025-08-25T09:23:50Z</time>
      </trkpt>
      <trkpt lat="46.17898" lon="6.4777">
        <ele>1066.42578125</ele>
        <time>2025-08-25T09:24:02Z</time>
      </trkpt>
      <trkpt lat="46.17897" lon="6.47813">
        <ele>1065.6171875</ele>
        <time>2025-08-25T09:24:14Z</time>
      </trkpt>
      <trkpt lat="46.17902" lon="6.47854">
        <ele>1062.66796875</ele>
        <time>2025-08-25T09:24:19Z</time>
      </trkpt>
      <trkpt lat="46.17903" lon="6.47871">
        <ele>1061.37109375</ele>
        <time>2025-08-25T09:24:21Z</time>
      </trkpt>
      <trkpt lat="46.17904" lon="6.47889">
        <ele>1059.83203125</ele>
        <time>2025-08-25T09:24:28Z</time>
      </trkpt>
      <trkpt lat="46.17904" lon="6.47889">
        <ele>1059.8125</ele>
        <time>2025-08-25T09:24:55Z</time>
      </trkpt>
      <trkpt lat="46.179" lon="6.47893">
        <ele>1058.94140625</ele>
        <time>2025-08-25T09:25:25Z</time>
      </trkpt>
      <trkpt lat="46.179" lon="6.47897">
        <ele>1058.33984375</ele>
        <time>2025-08-25T09:25:26Z</time>
      </trkpt>
      <trkpt lat="46.17899" lon="6.47903">
        <ele>1057.5</ele>
        <time>2025-08-25T09:25:27Z</time>
      </trkpt>
      <trkpt lat="46.17896" lon="6.47926">
        <ele>1054.1796875</ele>
        <time>2025-08-25T09:25:30Z</time>
      </trkpt>
      <trkpt lat="46.17891" lon="6.47961">
        <ele>1048.625</ele>
        <time>2025-08-25T09:25:33Z</time>
      </trkpt>
      <trkpt lat="46.17886" lon="6.47979">
        <ele>1044.63671875</ele>
        <time>2025-08-25T09:25:36Z</time>
      </trkpt>
      <trkpt lat="46.17883" lon="6.47978">
        <ele>1044.33203125</ele>
        <time>2025-08-25T09:25:37Z</time>
      </trkpt>
      <trkpt lat="46.17881" lon="6.47975">
        <ele>1044.51171875</ele>
        <time>2025-08-25T09:25:38Z</time>
      </trkpt>
      <trkpt lat="46.1788" lon="6.4797">
        <ele>1045.1640625</ele>
        <time>2025-08-25T09:25:39Z</time>
      </trkpt>
      <trkpt lat="46.17879" lon="6.47965">
        <ele>1045.85546875</ele>
        <time>2025-08-25T09:25:40Z</time>
      </trkpt>
      <trkpt lat="46.17877" lon="6.47959">
        <ele>1046.2109375</ele>
        <time>2025-08-25T09:25:41Z</time>
      </trkpt>
      <trkpt lat="46.17874" lon="6.47954">
        <ele>1046.390625</ele>
        <time>2025-08-25T09:25:42Z</time>
      </trkpt>
      <trkpt lat="46.1787" lon="6.4795">
        <ele>1046.22265625</ele>
        <time>2025-08-25T09:25:43Z</time>
      </trkpt>
      <trkpt lat="46.17865" lon="6.47946">
        <ele>1045.6015625</ele>
        <time>2025-08-25T09:25:44Z</time>
      </trkpt>
      <trkpt lat="46.17859" lon="6.47944">
        <ele>1044.671875</ele>
        <time>2025-08-25T09:25:45Z</time>
      </trkpt>
      <trkpt lat="46.17853" lon="6.47945">
        <ele>1043.4296875</ele>
        <time>2025-08-25T09:25:46Z</time>
      </trkpt>
      <trkpt lat="46.17849" lon="6.47948">
        <ele>1042.13671875</ele>
        <time>2025-08-25T09:25:47Z</time>
      </trkpt>
      <trkpt lat="46.17846" lon="6.47955">
        <ele>1041.078125</ele>
        <time>2025-08-25T09:25:48Z</time>
      </trkpt>
      <trkpt lat="46.17846" lon="6.47961">
        <ele>1040.3984375</ele>
        <time>2025-08-25T09:25:49Z</time>
      </trkpt>
      <trkpt lat="46.17847" lon="6.47969">
        <ele>1039.875</ele>
        <time>2025-08-25T09:25:50Z</time>
      </trkpt>
      <trkpt lat="46.1785" lon="6.47976">
        <ele>1039.27734375</ele>
        <time>2025-08-25T09:25:51Z</time>
      </trkpt>
      <trkpt lat="46.17853" lon="6.47984">
        <ele>1038.5625</ele>
        <time>2025-08-25T09:25:52Z</time>
      </trkpt>
      <trkpt lat="46.17856" lon="6.47993">
        <ele>1037.69140625</ele>
        <time>2025-08-25T09:25:53Z</time>
      </trkpt>
      <trkpt lat="46.17859" lon="6.48003">
        <ele>1036.640625</ele>
        <time>2025-08-25T09:25:54Z</time>
      </trkpt>
      <trkpt lat="46.17866" lon="6.48024">
        <ele>1034.4921875</ele>
        <time>2025-08-25T09:25:56Z</time>
      </trkpt>
      <trkpt lat="46.1787" lon="6.48032">
        <ele>1033.74609375</ele>
        <time>2025-08-25T09:25:57Z</time>
      </trkpt>
      <trkpt lat="46.17872" lon="6.48039">
        <ele>1033.10546875</ele>
        <time>2025-08-25T09:25:58Z</time>
      </trkpt>
      <trkpt lat="46.17873" lon="6.48046">
        <ele>1032.1875</ele>
        <time>2025-08-25T09:25:59Z</time>
      </trkpt>
      <trkpt lat="46.17873" lon="6.48053">
        <ele>1031.00390625</ele>
        <time>2025-08-25T09:26:00Z</time>
      </trkpt>
      <trkpt lat="46.17874" lon="6.4806">
        <ele>1029.7421875</ele>
        <time>2025-08-25T09:26:01Z</time>
      </trkpt>
      <trkpt lat="46.17876" lon="6.48069">
        <ele>1028.65625</ele>
        <time>2025-08-25T09:26:02Z</time>
      </trkpt>
      <trkpt lat="46.1788" lon="6.48077">
        <ele>1027.89453125</ele>
        <time>2025-08-25T09:26:03Z</time>
      </trkpt>
      <trkpt lat="46.17895" lon="6.48103">
        <ele>1024.95703125</ele>
        <time>2025-08-25T09:26:06Z</time>
      </trkpt>
      <trkpt lat="46.17899" lon="6.48112">
        <ele>1024.01953125</ele>
        <time>2025-08-25T09:26:07Z</time>
      </trkpt>
      <trkpt lat="46.17901" lon="6.48121">
        <ele>1023.09375</ele>
        <time>2025-08-25T09:26:08Z</time>
      </trkpt>
      <trkpt lat="46.17903" lon="6.4813">
        <ele>1022.12109375</ele>
        <time>2025-08-25T09:26:09Z</time>
      </trkpt>
      <trkpt lat="46.17905" lon="6.4814">
        <ele>1021.05859375</ele>
        <time>2025-08-25T09:26:10Z</time>
      </trkpt>
      <trkpt lat="46.17906" lon="6.48149">
        <ele>1019.953125</ele>
        <time>2025-08-25T09:26:11Z</time>
      </trkpt>
      <trkpt lat="46.17906" lon="6.48157">
        <ele>1018.765625</ele>
        <time>2025-08-25T09:26:12Z</time>
      </trkpt>
      <trkpt lat="46.17905" lon="6.48164">
        <ele>1017.44140625</ele>
        <time>2025-08-25T09:26:13Z</time>
      </trkpt>
      <trkpt lat="46.17904" lon="6.4817">
        <ele>1015.9765625</ele>
        <time>2025-08-25T09:26:14Z</time>
      </trkpt>
      <trkpt lat="46.17901" lon="6.48175">
        <ele>1014.38671875</ele>
        <time>2025-08-25T09:26:15Z</time>
      </trkpt>
      <trkpt lat="46.17899" lon="6.4818">
        <ele>1012.86328125</ele>
        <time>2025-08-25T09:26:16Z</time>
      </trkpt>
      <trkpt lat="46.17898" lon="6.48184">
        <ele>1011.54296875</ele>
        <time>2025-08-25T09:26:17Z</time>
      </trkpt>
      <trkpt lat="46.17897" lon="6.48189">
        <ele>1010.42578125</ele>
        <time>2025-08-25T09:26:18Z</time>
      </trkpt>
      <trkpt lat="46.17896" lon="6.48194">
        <ele>1009.15234375</ele>
        <time>2025-08-25T09:26:19Z</time>
      </trkpt>
      <trkpt lat="46.17894" lon="6.482">
        <ele>1007.52734375</ele>
        <time>2025-08-25T09:26:20Z</time>
      </trkpt>
      <trkpt lat="46.17889" lon="6.48223">
        <ele>1002.18359375</ele>
        <time>2025-08-25T09:26:23Z</time>
      </trkpt>
      <trkpt lat="46.1789" lon="6.48245">
        <ele>998.38671875</ele>
        <time>2025-08-25T09:26:27Z</time>
      </trkpt>
      <trkpt lat="46.1789" lon="6.4825">
        <ele>998.15234375</ele>
        <time>2025-08-25T09:26:30Z</time>
      </trkpt>
      <trkpt lat="46.17876" lon="6.48242">
        <ele>993.29296875</ele>
        <time>2025-08-25T09:26:39Z</time>
      </trkpt>
      <trkpt lat="46.17868" lon="6.48246">
        <ele>989.0078125</ele>
        <time>2025-08-25T09:26:41Z</time>
      </trkpt>
      <trkpt lat="46.17851" lon="6.48239">
        <ele>981.7109375</ele>
        <time>2025-08-25T09:26:46Z</time>
      </trkpt>
      <trkpt lat="46.17848" lon="6.48229">
        <ele>981.79296875</ele>
        <time>2025-08-25T09:26:49Z</time>
      </trkpt>
      <trkpt lat="46.17847" lon="6.48215">
        <ele>983.33984375</ele>
        <time>2025-08-25T09:26:52Z</time>
      </trkpt>
      <trkpt lat="46.17838" lon="6.48202">
        <ele>980.73046875</ele>
        <time>2025-08-25T09:26:56Z</time>
      </trkpt>
      <trkpt lat="46.17835" lon="6.48203">
        <ele>979.40625</ele>
        <time>2025-08-25T09:26:57Z</time>
      </trkpt>
      <trkpt lat="46.17834" lon="6.48204">
        <ele>978.53125</ele>
        <time>2025-08-25T09:26:58Z</time>
      </trkpt>
      <trkpt lat="46.17833" lon="6.48206">
        <ele>977.9609375</ele>
        <time>2025-08-25T09:26:59Z</time>
      </trkpt>
      <trkpt lat="46.17833" lon="6.48208">
        <ele>977.06640625</ele>
        <time>2025-08-25T09:27:00Z</time>
      </trkpt>
      <trkpt lat="46.17831" lon="6.48212">
        <ele>975.78125</ele>
        <time>2025-08-25T09:27:01Z</time>
      </trkpt>
      <trkpt lat="46.17831" lon="6.48218">
        <ele>974.421875</ele>
        <time>2025-08-25T09:27:02Z</time>
      </trkpt>
      <trkpt lat="46.17829" lon="6.48225">
        <ele>972.61328125</ele>
        <time>2025-08-25T09:27:03Z</time>
      </trkpt>
      <trkpt lat="46.17827" lon="6.48234">
        <ele>970.1640625</ele>
        <time>2025-08-25T09:27:04Z</time>
      </trkpt>
      <trkpt lat="46.17817" lon="6.48269">
        <ele>961.49609375</ele>
        <time>2025-08-25T09:27:09Z</time>
      </trkpt>
      <trkpt lat="46.17816" lon="6.4829">
        <ele>958.43359375</ele>
        <time>2025-08-25T09:27:13Z</time>
      </trkpt>
      <trkpt lat="46.17814" lon="6.48311">
        <ele>954.6484375</ele>
        <time>2025-08-25T09:27:17Z</time>
      </trkpt>
      <trkpt lat="46.17811" lon="6.48333">
        <ele>949.3671875</ele>
        <time>2025-08-25T09:27:26Z</time>
      </trkpt>
      <trkpt lat="46.17808" lon="6.48338">
        <ele>946.78515625</ele>
        <time>2025-08-25T09:27:28Z</time>
      </trkpt>
      <trkpt lat="46.17806" lon="6.4834">
        <ele>945.59375</ele>
        <time>2025-08-25T09:27:29Z</time>
      </trkpt>
      <trkpt lat="46.17803" lon="6.4834">
        <ele>944.48046875</ele>
        <time>2025-08-25T09:27:30Z</time>
      </trkpt>
      <trkpt lat="46.17801" lon="6.48339">
        <ele>943.69140625</ele>
        <time>2025-08-25T09:27:31Z</time>
      </trkpt>
      <trkpt lat="46.17799" lon="6.48337">
        <ele>943.375</ele>
        <time>2025-08-25T09:27:32Z</time>
      </trkpt>
      <trkpt lat="46.17797" lon="6.48333">
        <ele>943.31640625</ele>
        <time>2025-08-25T09:27:33Z</time>
      </trkpt>
      <trkpt lat="46.17795" lon="6.48329">
        <ele>943.21484375</ele>
        <time>2025-08-25T09:27:34Z</time>
      </trkpt>
      <trkpt lat="46.17793" lon="6.48327">
        <ele>942.70703125</ele>
        <time>2025-08-25T09:27:35Z</time>
      </trkpt>
      <trkpt lat="46.1779" lon="6.48326">
        <ele>941.6796875</ele>
        <time>2025-08-25T09:27:36Z</time>
      </trkpt>
      <trkpt lat="46.17788" lon="6.48325">
        <ele>940.5625</ele>
        <time>2025-08-25T09:27:37Z</time>
      </trkpt>
      <trkpt lat="46.17785" lon="6.48324">
        <ele>939.421875</ele>
        <time>2025-08-25T09:27:38Z</time>
      </trkpt>
      <trkpt lat="46.17782" lon="6.48323">
        <ele>938.26171875</ele>
        <time>2025-08-25T09:27:39Z</time>
      </trkpt>
      <trkpt lat="46.1778" lon="6.48321">
        <ele>937.26171875</ele>
        <time>2025-08-25T09:27:40Z</time>
      </trkpt>
      <trkpt lat="46.17777" lon="6.48318">
        <ele>936.265625</ele>
        <time>2025-08-25T09:27:41Z</time>
      </trkpt>
      <trkpt lat="46.17775" lon="6.48316">
        <ele>935.27734375</ele>
        <time>2025-08-25T09:27:42Z</time>
      </trkpt>
      <trkpt lat="46.17773" lon="6.48316">
        <ele>934.30078125</ele>
        <time>2025-08-25T09:27:43Z</time>
      </trkpt>
      <trkpt lat="46.17771" lon="6.48316">
        <ele>933.64453125</ele>
        <time>2025-08-25T09:27:44Z</time>
      </trkpt>
      <trkpt lat="46.1777" lon="6.48318">
        <ele>932.78515625</ele>
        <time>2025-08-25T09:27:45Z</time>
      </trkpt>
      <trkpt lat="46.17768" lon="6.48322">
        <ele>931.42578125</ele>
        <time>2025-08-25T09:27:46Z</time>
      </trkpt>
      <trkpt lat="46.17766" lon="6.48326">
        <ele>930</ele>
        <time>2025-08-25T09:27:47Z</time>
      </trkpt>
      <trkpt lat="46.17765" lon="6.48331">
        <ele>928.0859375</ele>
        <time>2025-08-25T09:27:48Z</time>
      </trkpt>
      <trkpt lat="46.17764" lon="6.48336">
        <ele>926.5703125</ele>
        <time>2025-08-25T09:27:49Z</time>
      </trkpt>
      <trkpt lat="46.17764" lon="6.48341">
        <ele>925.36328125</ele>
        <time>2025-08-25T09:27:50Z</time>
      </trkpt>
      <trkpt lat="46.17764" lon="6.48344">
        <ele>924.29296875</ele>
        <time>2025-08-25T09:27:51Z</time>
      </trkpt>
      <trkpt lat="46.17763" lon="6.48348">
        <ele>923.0390625</ele>
        <time>2025-08-25T09:27:52Z</time>
      </trkpt>
      <trkpt lat="46.17762" lon="6.48351">
        <ele>921.5625</ele>
        <time>2025-08-25T09:27:53Z</time>
      </trkpt>
      <trkpt lat="46.1776" lon="6.48353">
        <ele>920.34375</ele>
        <time>2025-08-25T09:27:54Z</time>
      </trkpt>
      <trkpt lat="46.17759" lon="6.48354">
        <ele>919.46484375</ele>
        <time>2025-08-25T09:27:56Z</time>
      </trkpt>
      <trkpt lat="46.17757" lon="6.48355">
        <ele>917.78515625</ele>
        <time>2025-08-25T09:28:01Z</time>
      </trkpt>
      <trkpt lat="46.17755" lon="6.48353">
        <ele>917.36328125</ele>
        <time>2025-08-25T09:28:02Z</time>
      </trkpt>
      <trkpt lat="46.17753" lon="6.48349">
        <ele>917.05078125</ele>
        <time>2025-08-25T09:28:03Z</time>
      </trkpt>
      <trkpt lat="46.17748" lon="6.48338">
        <ele>916.6796875</ele>
        <time>2025-08-25T09:28:05Z</time>
      </trkpt>
      <trkpt lat="46.17747" lon="6.48332">
        <ele>916.859375</ele>
        <time>2025-08-25T09:28:06Z</time>
      </trkpt>
      <trkpt lat="46.17745" lon="6.48326">
        <ele>917.00390625</ele>
        <time>2025-08-25T09:28:07Z</time>
      </trkpt>
      <trkpt lat="46.17744" lon="6.4832">
        <ele>916.49609375</ele>
        <time>2025-08-25T09:28:08Z</time>
      </trkpt>
      <trkpt lat="46.17742" lon="6.48311">
        <ele>916.19140625</ele>
        <time>2025-08-25T09:28:09Z</time>
      </trkpt>
      <trkpt lat="46.17741" lon="6.48302">
        <ele>916.17578125</ele>
        <time>2025-08-25T09:28:10Z</time>
      </trkpt>
      <trkpt lat="46.17739" lon="6.4828">
        <ele>914.60546875</ele>
        <time>2025-08-25T09:28:13Z</time>
      </trkpt>
      <trkpt lat="46.17739" lon="6.48274">
        <ele>914.02734375</ele>
        <time>2025-08-25T09:28:14Z</time>
      </trkpt>
      <trkpt lat="46.17737" lon="6.48246">
        <ele>911.3046875</ele>
        <time>2025-08-25T09:28:18Z</time>
      </trkpt>
      <trkpt lat="46.17738" lon="6.48227">
        <ele>911.52734375</ele>
        <time>2025-08-25T09:28:21Z</time>
      </trkpt>
      <trkpt lat="46.17739" lon="6.48218">
        <ele>912.03515625</ele>
        <time>2025-08-25T09:28:23Z</time>
      </trkpt>
      <trkpt lat="46.17738" lon="6.48219">
        <ele>911.16796875</ele>
        <time>2025-08-25T09:28:25Z</time>
      </trkpt>
      <trkpt lat="46.17737" lon="6.48221">
        <ele>910.67578125</ele>
        <time>2025-08-25T09:28:26Z</time>
      </trkpt>
      <trkpt lat="46.17735" lon="6.48225">
        <ele>909.7421875</ele>
        <time>2025-08-25T09:28:27Z</time>
      </trkpt>
      <trkpt lat="46.17733" lon="6.4823">
        <ele>908.26953125</ele>
        <time>2025-08-25T09:28:28Z</time>
      </trkpt>
      <trkpt lat="46.1773" lon="6.48236">
        <ele>906.37109375</ele>
        <time>2025-08-25T09:28:29Z</time>
      </trkpt>
      <trkpt lat="46.17727" lon="6.48243">
        <ele>904.63671875</ele>
        <time>2025-08-25T09:28:30Z</time>
      </trkpt>
      <trkpt lat="46.17724" lon="6.4825">
        <ele>903.671875</ele>
        <time>2025-08-25T09:28:31Z</time>
      </trkpt>
      <trkpt lat="46.1772" lon="6.48264">
        <ele>902.15234375</ele>
        <time>2025-08-25T09:28:33Z</time>
      </trkpt>
      <trkpt lat="46.17719" lon="6.48269">
        <ele>901.9765625</ele>
        <time>2025-08-25T09:28:34Z</time>
      </trkpt>
      <trkpt lat="46.17719" lon="6.48274">
        <ele>902.06640625</ele>
        <time>2025-08-25T09:28:35Z</time>
      </trkpt>
      <trkpt lat="46.17719" lon="6.48276">
        <ele>902.24609375</ele>
        <time>2025-08-25T09:28:36Z</time>
      </trkpt>
      <trkpt lat="46.17721" lon="6.48283">
        <ele>903.78125</ele>
        <time>2025-08-25T09:28:52Z</time>
      </trkpt>
      <trkpt lat="46.17721" lon="6.48286">
        <ele>903.43359375</ele>
        <time>2025-08-25T09:28:58Z</time>
      </trkpt>
      <trkpt lat="46.17717" lon="6.48297">
        <ele>901.52734375</ele>
        <time>2025-08-25T09:29:01Z</time>
      </trkpt>
      <trkpt lat="46.17715" lon="6.4831">
        <ele>900.19140625</ele>
        <time>2025-08-25T09:29:03Z</time>
      </trkpt>
      <trkpt lat="46.17712" lon="6.48324">
        <ele>899.01953125</ele>
        <time>2025-08-25T09:29:05Z</time>
      </trkpt>
      <trkpt lat="46.17708" lon="6.48338">
        <ele>895.3515625</ele>
        <time>2025-08-25T09:29:07Z</time>
      </trkpt>
      <trkpt lat="46.17706" lon="6.48344">
        <ele>893.47265625</ele>
        <time>2025-08-25T09:29:08Z</time>
      </trkpt>
      <trkpt lat="46.17703" lon="6.48357">
        <ele>890.06640625</ele>
        <time>2025-08-25T09:29:10Z</time>
      </trkpt>
      <trkpt lat="46.17703" lon="6.48378">
        <ele>886.046875</ele>
        <time>2025-08-25T09:29:14Z</time>
      </trkpt>
      <trkpt lat="46.17706" lon="6.4838">
        <ele>886.9921875</ele>
        <time>2025-08-25T09:29:15Z</time>
      </trkpt>
      <trkpt lat="46.17723" lon="6.4839">
        <ele>893.5234375</ele>
        <time>2025-08-25T09:29:20Z</time>
      </trkpt>
      <trkpt lat="46.17725" lon="6.48394">
        <ele>894.6015625</ele>
        <time>2025-08-25T09:29:21Z</time>
      </trkpt>
      <trkpt lat="46.17728" lon="6.48398">
        <ele>895.79296875</ele>
        <time>2025-08-25T09:29:22Z</time>
      </trkpt>
      <trkpt lat="46.1773" lon="6.48402">
        <ele>896.4921875</ele>
        <time>2025-08-25T09:29:23Z</time>
      </trkpt>
      <trkpt lat="46.1773" lon="6.48406">
        <ele>896.3125</ele>
        <time>2025-08-25T09:29:24Z</time>
      </trkpt>
      <trkpt lat="46.1773" lon="6.4841">
        <ele>895.81640625</ele>
        <time>2025-08-25T09:29:25Z</time>
      </trkpt>
      <trkpt lat="46.1773" lon="6.48415">
        <ele>895.9453125</ele>
        <time>2025-08-25T09:29:26Z</time>
      </trkpt>
      <trkpt lat="46.17731" lon="6.4842">
        <ele>896.30078125</ele>
        <time>2025-08-25T09:29:27Z</time>
      </trkpt>
      <trkpt lat="46.1773" lon="6.48425">
        <ele>895.9375</ele>
        <time>2025-08-25T09:29:28Z</time>
      </trkpt>
      <trkpt lat="46.17726" lon="6.48442">
        <ele>894.29296875</ele>
        <time>2025-08-25T09:29:32Z</time>
      </trkpt>
      <trkpt lat="46.17725" lon="6.48446">
        <ele>893.85546875</ele>
        <time>2025-08-25T09:29:33Z</time>
      </trkpt>
      <trkpt lat="46.17724" lon="6.48449">
        <ele>893.5546875</ele>
        <time>2025-08-25T09:29:34Z</time>
      </trkpt>
      <trkpt lat="46.17715" lon="6.48472">
        <ele>890.109375</ele>
        <time>2025-08-25T09:29:40Z</time>
      </trkpt>
      <trkpt lat="46.17716" lon="6.48478">
        <ele>890.88671875</ele>
        <time>2025-08-25T09:29:41Z</time>
      </trkpt>
      <trkpt lat="46.17717" lon="6.48484">
        <ele>891.66015625</ele>
        <time>2025-08-25T09:29:42Z</time>
      </trkpt>
      <trkpt lat="46.17716" lon="6.48492">
        <ele>891.7109375</ele>
        <time>2025-08-25T09:29:43Z</time>
      </trkpt>
      <trkpt lat="46.17714" lon="6.48499">
        <ele>891.46484375</ele>
        <time>2025-08-25T09:29:44Z</time>
      </trkpt>
      <trkpt lat="46.17713" lon="6.48506">
        <ele>891.05859375</ele>
        <time>2025-08-25T09:29:45Z</time>
      </trkpt>
      <trkpt lat="46.17712" lon="6.48515">
        <ele>891.015625</ele>
        <time>2025-08-25T09:29:46Z</time>
      </trkpt>
      <trkpt lat="46.17711" lon="6.48523">
        <ele>891.3046875</ele>
        <time>2025-08-25T09:29:47Z</time>
      </trkpt>
      <trkpt lat="46.17711" lon="6.48543">
        <ele>892.65625</ele>
        <time>2025-08-25T09:29:50Z</time>
      </trkpt>
      <trkpt lat="46.17711" lon="6.4855">
        <ele>892.75390625</ele>
        <time>2025-08-25T09:29:51Z</time>
      </trkpt>
      <trkpt lat="46.1771" lon="6.48556">
        <ele>892.65625</ele>
        <time>2025-08-25T09:29:52Z</time>
      </trkpt>
      <trkpt lat="46.1771" lon="6.48562">
        <ele>892.9765625</ele>
        <time>2025-08-25T09:29:53Z</time>
      </trkpt>
      <trkpt lat="46.17711" lon="6.48567">
        <ele>893.61328125</ele>
        <time>2025-08-25T09:29:54Z</time>
      </trkpt>
      <trkpt lat="46.17712" lon="6.4857">
        <ele>894.2734375</ele>
        <time>2025-08-25T09:29:55Z</time>
      </trkpt>
      <trkpt lat="46.17712" lon="6.48572">
        <ele>894.65234375</ele>
        <time>2025-08-25T09:29:56Z</time>
      </trkpt>
      <trkpt lat="46.17712" lon="6.48576">
        <ele>894.734375</ele>
        <time>2025-08-25T09:29:57Z</time>
      </trkpt>
      <trkpt lat="46.17713" lon="6.4858">
        <ele>895.0546875</ele>
        <time>2025-08-25T09:29:58Z</time>
      </trkpt>
      <trkpt lat="46.17713" lon="6.48584">
        <ele>895.55859375</ele>
        <time>2025-08-25T09:29:59Z</time>
      </trkpt>
      <trkpt lat="46.17713" lon="6.48589">
        <ele>895.83984375</ele>
        <time>2025-08-25T09:30:01Z</time>
      </trkpt>
      <trkpt lat="46.17713" lon="6.48591">
        <ele>895.4453125</ele>
        <time>2025-08-25T09:30:02Z</time>
      </trkpt>
      <trkpt lat="46.17711" lon="6.48594">
        <ele>894.64453125</ele>
        <time>2025-08-25T09:30:03Z</time>
      </trkpt>
      <trkpt lat="46.17701" lon="6.48613">
        <ele>888.21484375</ele>
        <time>2025-08-25T09:30:08Z</time>
      </trkpt>
      <trkpt lat="46.17701" lon="6.48617">
        <ele>888.19921875</ele>
        <time>2025-08-25T09:30:09Z</time>
      </trkpt>
      <trkpt lat="46.17702" lon="6.48621">
        <ele>888.640625</ele>
        <time>2025-08-25T09:30:10Z</time>
      </trkpt>
      <trkpt lat="46.17704" lon="6.4864">
        <ele>889.2578125</ele>
        <time>2025-08-25T09:30:15Z</time>
      </trkpt>
      <trkpt lat="46.17702" lon="6.48651">
        <ele>887.53125</ele>
        <time>2025-08-25T09:30:18Z</time>
      </trkpt>
      <trkpt lat="46.17701" lon="6.48656">
        <ele>887.19140625</ele>
        <time>2025-08-25T09:30:19Z</time>
      </trkpt>
      <trkpt lat="46.17702" lon="6.4866">
        <ele>887.5</ele>
        <time>2025-08-25T09:30:20Z</time>
      </trkpt>
      <trkpt lat="46.17704" lon="6.48665">
        <ele>888.10546875</ele>
        <time>2025-08-25T09:30:21Z</time>
      </trkpt>
      <trkpt lat="46.17706" lon="6.4867">
        <ele>888.55859375</ele>
        <time>2025-08-25T09:30:22Z</time>
      </trkpt>
      <trkpt lat="46.17707" lon="6.48673">
        <ele>888.70703125</ele>
        <time>2025-08-25T09:30:23Z</time>
      </trkpt>
      <trkpt lat="46.17707" lon="6.48679">
        <ele>888.0234375</ele>
        <time>2025-08-25T09:30:28Z</time>
      </trkpt>
      <trkpt lat="46.17709" lon="6.48712">
        <ele>883.58203125</ele>
        <time>2025-08-25T09:30:33Z</time>
      </trkpt>
      <trkpt lat="46.17709" lon="6.4872">
        <ele>882.16015625</ele>
        <time>2025-08-25T09:30:34Z</time>
      </trkpt>
      <trkpt lat="46.17709" lon="6.48727">
        <ele>880.8515625</ele>
        <time>2025-08-25T09:30:35Z</time>
      </trkpt>
      <trkpt lat="46.17709" lon="6.48733">
        <ele>879.92578125</ele>
        <time>2025-08-25T09:30:36Z</time>
      </trkpt>
      <trkpt lat="46.17709" lon="6.4874">
        <ele>878.78515625</ele>
        <time>2025-08-25T09:30:37Z</time>
      </trkpt>
      <trkpt lat="46.17709" lon="6.48747">
        <ele>877.15234375</ele>
        <time>2025-08-25T09:30:38Z</time>
      </trkpt>
      <trkpt lat="46.17711" lon="6.48764">
        <ele>874.734375</ele>
        <time>2025-08-25T09:30:41Z</time>
      </trkpt>
      <trkpt lat="46.17716" lon="6.48775">
        <ele>875.296875</ele>
        <time>2025-08-25T09:30:44Z</time>
      </trkpt>
      <trkpt lat="46.17721" lon="6.48786">
        <ele>875.62890625</ele>
        <time>2025-08-25T09:30:47Z</time>
      </trkpt>
      <trkpt lat="46.17723" lon="6.48795">
        <ele>874.60546875</ele>
        <time>2025-08-25T09:30:49Z</time>
      </trkpt>
      <trkpt lat="46.17723" lon="6.488">
        <ele>873.69140625</ele>
        <time>2025-08-25T09:30:50Z</time>
      </trkpt>
      <trkpt lat="46.17724" lon="6.48806">
        <ele>872.4453125</ele>
        <time>2025-08-25T09:30:51Z</time>
      </trkpt>
      <trkpt lat="46.17723" lon="6.48812">
        <ele>870.70703125</ele>
        <time>2025-08-25T09:30:52Z</time>
      </trkpt>
      <trkpt lat="46.17723" lon="6.48819">
        <ele>868.80859375</ele>
        <time>2025-08-25T09:30:53Z</time>
      </trkpt>
      <trkpt lat="46.17721" lon="6.48825">
        <ele>866.76171875</ele>
        <time>2025-08-25T09:30:54Z</time>
      </trkpt>
      <trkpt lat="46.17719" lon="6.48831">
        <ele>864.453125</ele>
        <time>2025-08-25T09:30:55Z</time>
      </trkpt>
      <trkpt lat="46.17716" lon="6.48836">
        <ele>861.75</ele>
        <time>2025-08-25T09:30:56Z</time>
      </trkpt>
      <trkpt lat="46.17713" lon="6.48841">
        <ele>858.83984375</ele>
        <time>2025-08-25T09:30:57Z</time>
      </trkpt>
      <trkpt lat="46.17711" lon="6.48846">
        <ele>856.1328125</ele>
        <time>2025-08-25T09:30:58Z</time>
      </trkpt>
      <trkpt lat="46.1771" lon="6.48852">
        <ele>854.21484375</ele>
        <time>2025-08-25T09:30:59Z</time>
      </trkpt>
      <trkpt lat="46.1771" lon="6.48857">
        <ele>853.16796875</ele>
        <time>2025-08-25T09:31:00Z</time>
      </trkpt>
      <trkpt lat="46.17712" lon="6.48861">
        <ele>853.03515625</ele>
        <time>2025-08-25T09:31:01Z</time>
      </trkpt>
      <trkpt lat="46.17714" lon="6.48865">
        <ele>853.234375</ele>
        <time>2025-08-25T09:31:02Z</time>
      </trkpt>
      <trkpt lat="46.17716" lon="6.48867">
        <ele>853.4375</ele>
        <time>2025-08-25T09:31:03Z</time>
      </trkpt>
      <trkpt lat="46.17719" lon="6.4887">
        <ele>854.046875</ele>
        <time>2025-08-25T09:31:04Z</time>
      </trkpt>
      <trkpt lat="46.17721" lon="6.48872">
        <ele>854.71875</ele>
        <time>2025-08-25T09:31:05Z</time>
      </trkpt>
      <trkpt lat="46.17724" lon="6.48875">
        <ele>855.28515625</ele>
        <time>2025-08-25T09:31:06Z</time>
      </trkpt>
      <trkpt lat="46.17726" lon="6.48879">
        <ele>855.4375</ele>
        <time>2025-08-25T09:31:07Z</time>
      </trkpt>
      <trkpt lat="46.17729" lon="6.48884">
        <ele>856.1328125</ele>
        <time>2025-08-25T09:31:09Z</time>
      </trkpt>
      <trkpt lat="46.17722" lon="6.48893">
        <ele>849.70703125</ele>
        <time>2025-08-25T09:31:14Z</time>
      </trkpt>
      <trkpt lat="46.17719" lon="6.48897">
        <ele>846.71875</ele>
        <time>2025-08-25T09:31:23Z</time>
      </trkpt>
      <trkpt lat="46.17713" lon="6.48904">
        <ele>841.16015625</ele>
        <time>2025-08-25T09:31:37Z</time>
      </trkpt>
      <trkpt lat="46.17709" lon="6.48909">
        <ele>836.796875</ele>
        <time>2025-08-25T09:31:46Z</time>
      </trkpt>
      <trkpt lat="46.17707" lon="6.48914">
        <ele>834.1875</ele>
        <time>2025-08-25T09:31:48Z</time>
      </trkpt>
      <trkpt lat="46.17707" lon="6.48917">
        <ele>833.34765625</ele>
        <time>2025-08-25T09:31:49Z</time>
      </trkpt>
      <trkpt lat="46.17707" lon="6.48923">
        <ele>832.4609375</ele>
        <time>2025-08-25T09:31:50Z</time>
      </trkpt>
      <trkpt lat="46.17708" lon="6.48929">
        <ele>831.51171875</ele>
        <time>2025-08-25T09:31:51Z</time>
      </trkpt>
      <trkpt lat="46.17709" lon="6.48935">
        <ele>829.98046875</ele>
        <time>2025-08-25T09:31:52Z</time>
      </trkpt>
      <trkpt lat="46.17708" lon="6.48942">
        <ele>828.171875</ele>
        <time>2025-08-25T09:31:53Z</time>
      </trkpt>
      <trkpt lat="46.17707" lon="6.48958">
        <ele>824.12109375</ele>
        <time>2025-08-25T09:31:57Z</time>
      </trkpt>
      <trkpt lat="46.17713" lon="6.48979">
        <ele>823.32421875</ele>
        <time>2025-08-25T09:32:02Z</time>
      </trkpt>
      <trkpt lat="46.17716" lon="6.48989">
        <ele>822.82421875</ele>
        <time>2025-08-25T09:32:05Z</time>
      </trkpt>
      <trkpt lat="46.17719" lon="6.49001">
        <ele>822.54296875</ele>
        <time>2025-08-25T09:32:08Z</time>
      </trkpt>
      <trkpt lat="46.17725" lon="6.49011">
        <ele>823.8046875</ele>
        <time>2025-08-25T09:32:11Z</time>
      </trkpt>
      <trkpt lat="46.1773" lon="6.49028">
        <ele>823.44921875</ele>
        <time>2025-08-25T09:32:14Z</time>
      </trkpt>
      <trkpt lat="46.17731" lon="6.49038">
        <ele>822.08984375</ele>
        <time>2025-08-25T09:32:15Z</time>
      </trkpt>
      <trkpt lat="46.17733" lon="6.49071">
        <ele>819.921875</ele>
        <time>2025-08-25T09:32:18Z</time>
      </trkpt>
      <trkpt lat="46.17734" lon="6.49081">
        <ele>819.59765625</ele>
        <time>2025-08-25T09:32:19Z</time>
      </trkpt>
      <trkpt lat="46.17733" lon="6.49089">
        <ele>818.98046875</ele>
        <time>2025-08-25T09:32:20Z</time>
      </trkpt>
      <trkpt lat="46.17732" lon="6.49096">
        <ele>818.28515625</ele>
        <time>2025-08-25T09:32:21Z</time>
      </trkpt>
      <trkpt lat="46.17727" lon="6.49123">
        <ele>815.18359375</ele>
        <time>2025-08-25T09:32:26Z</time>
      </trkpt>
      <trkpt lat="46.17727" lon="6.4914">
        <ele>814.2421875</ele>
        <time>2025-08-25T09:32:30Z</time>
      </trkpt>
      <trkpt lat="46.17733" lon="6.49171">
        <ele>814.34375</ele>
        <time>2025-08-25T09:32:42Z</time>
      </trkpt>
      <trkpt lat="46.17748" lon="6.49251">
        <ele>817.81640625</ele>
        <time>2025-08-25T09:32:57Z</time>
      </trkpt>
      <trkpt lat="46.17742" lon="6.49281">
        <ele>814.18359375</ele>
        <time>2025-08-25T09:33:03Z</time>
      </trkpt>
      <trkpt lat="46.1774" lon="6.49288">
        <ele>813.33984375</ele>
        <time>2025-08-25T09:33:04Z</time>
      </trkpt>
      <trkpt lat="46.1774" lon="6.49295">
        <ele>812.6875</ele>
        <time>2025-08-25T09:33:05Z</time>
      </trkpt>
      <trkpt lat="46.1774" lon="6.49302">
        <ele>812.28125</ele>
        <time>2025-08-25T09:33:06Z</time>
      </trkpt>
      <trkpt lat="46.17741" lon="6.49309">
        <ele>811.98828125</ele>
        <time>2025-08-25T09:33:07Z</time>
      </trkpt>
      <trkpt lat="46.17741" lon="6.49315">
        <ele>811.55859375</ele>
        <time>2025-08-25T09:33:08Z</time>
      </trkpt>
      <trkpt lat="46.17739" lon="6.49319">
        <ele>810.7109375</ele>
        <time>2025-08-25T09:33:09Z</time>
      </trkpt>
      <trkpt lat="46.17737" lon="6.49318">
        <ele>809.796875</ele>
        <time>2025-08-25T09:33:10Z</time>
      </trkpt>
      <trkpt lat="46.17734" lon="6.49315">
        <ele>809.25390625</ele>
        <time>2025-08-25T09:33:11Z</time>
      </trkpt>
      <trkpt lat="46.17732" lon="6.49309">
        <ele>809.2734375</ele>
        <time>2025-08-25T09:33:12Z</time>
      </trkpt>
      <trkpt lat="46.17732" lon="6.49301">
        <ele>809.8125</ele>
        <time>2025-08-25T09:33:13Z</time>
      </trkpt>
      <trkpt lat="46.17731" lon="6.49292">
        <ele>810.30859375</ele>
        <time>2025-08-25T09:33:14Z</time>
      </trkpt>
      <trkpt lat="46.1773" lon="6.49283">
        <ele>810.6484375</ele>
        <time>2025-08-25T09:33:15Z</time>
      </trkpt>
      <trkpt lat="46.17728" lon="6.49273">
        <ele>810.76953125</ele>
        <time>2025-08-25T09:33:16Z</time>
      </trkpt>
      <trkpt lat="46.17725" lon="6.49262">
        <ele>810.6328125</ele>
        <time>2025-08-25T09:33:17Z</time>
      </trkpt>
      <trkpt lat="46.17713" lon="6.49211">
        <ele>808.6171875</ele>
        <time>2025-08-25T09:33:21Z</time>
      </trkpt>
      <trkpt lat="46.17708" lon="6.49198">
        <ele>807.34765625</ele>
        <time>2025-08-25T09:33:22Z</time>
      </trkpt>
      <trkpt lat="46.1769" lon="6.49159">
        <ele>804.671875</ele>
        <time>2025-08-25T09:33:25Z</time>
      </trkpt>
      <trkpt lat="46.17685" lon="6.49149">
        <ele>803.58984375</ele>
        <time>2025-08-25T09:33:26Z</time>
      </trkpt>
      <trkpt lat="46.17654" lon="6.49086">
        <ele>795.671875</ele>
        <time>2025-08-25T09:33:33Z</time>
      </trkpt>
      <trkpt lat="46.17647" lon="6.49069">
        <ele>793.43359375</ele>
        <time>2025-08-25T09:33:35Z</time>
      </trkpt>
      <trkpt lat="46.17646" lon="6.49061">
        <ele>792.71484375</ele>
        <time>2025-08-25T09:33:36Z</time>
      </trkpt>
      <trkpt lat="46.17646" lon="6.49054">
        <ele>792.390625</ele>
        <time>2025-08-25T09:33:37Z</time>
      </trkpt>
      <trkpt lat="46.17646" lon="6.49048">
        <ele>792.46875</ele>
        <time>2025-08-25T09:33:38Z</time>
      </trkpt>
      <trkpt lat="46.17648" lon="6.49043">
        <ele>792.78515625</ele>
        <time>2025-08-25T09:33:39Z</time>
      </trkpt>
      <trkpt lat="46.17649" lon="6.49026">
        <ele>793.27734375</ele>
        <time>2025-08-25T09:33:43Z</time>
      </trkpt>
      <trkpt lat="46.17648" lon="6.49025">
        <ele>792.98828125</ele>
        <time>2025-08-25T09:33:44Z</time>
      </trkpt>
      <trkpt lat="46.17647" lon="6.49026">
        <ele>792.6171875</ele>
        <time>2025-08-25T09:33:45Z</time>
      </trkpt>
      <trkpt lat="46.17645" lon="6.49029">
        <ele>792.16796875</ele>
        <time>2025-08-25T09:33:46Z</time>
      </trkpt>
      <trkpt lat="46.17643" lon="6.49032">
        <ele>791.43359375</ele>
        <time>2025-08-25T09:33:47Z</time>
      </trkpt>
      <trkpt lat="46.17635" lon="6.49041">
        <ele>789.23046875</ele>
        <time>2025-08-25T09:33:49Z</time>
      </trkpt>
      <trkpt lat="46.17631" lon="6.49046">
        <ele>787.97265625</ele>
        <time>2025-08-25T09:33:50Z</time>
      </trkpt>
      <trkpt lat="46.17626" lon="6.49051">
        <ele>786.63671875</ele>
        <time>2025-08-25T09:33:51Z</time>
      </trkpt>
      <trkpt lat="46.17621" lon="6.49055">
        <ele>785.21484375</ele>
        <time>2025-08-25T09:33:52Z</time>
      </trkpt>
      <trkpt lat="46.17616" lon="6.49058">
        <ele>783.75</ele>
        <time>2025-08-25T09:33:53Z</time>
      </trkpt>
      <trkpt lat="46.17611" lon="6.4906">
        <ele>782.390625</ele>
        <time>2025-08-25T09:33:54Z</time>
      </trkpt>
      <trkpt lat="46.17607" lon="6.49063">
        <ele>781.17578125</ele>
        <time>2025-08-25T09:33:55Z</time>
      </trkpt>
      <trkpt lat="46.17603" lon="6.49069">
        <ele>780.05078125</ele>
        <time>2025-08-25T09:33:56Z</time>
      </trkpt>
      <trkpt lat="46.1759" lon="6.49097">
        <ele>775.15625</ele>
        <time>2025-08-25T09:34:00Z</time>
      </trkpt>
      <trkpt lat="46.17581" lon="6.49124">
        <ele>771.8984375</ele>
        <time>2025-08-25T09:34:03Z</time>
      </trkpt>
      <trkpt lat="46.17579" lon="6.49134">
        <ele>771.171875</ele>
        <time>2025-08-25T09:34:04Z</time>
      </trkpt>
      <trkpt lat="46.17578" lon="6.49145">
        <ele>770.43359375</ele>
        <time>2025-08-25T09:34:05Z</time>
      </trkpt>
      <trkpt lat="46.17576" lon="6.49177">
        <ele>768.4453125</ele>
        <time>2025-08-25T09:34:08Z</time>
      </trkpt>
      <trkpt lat="46.17575" lon="6.49198">
        <ele>766.90234375</ele>
        <time>2025-08-25T09:34:10Z</time>
      </trkpt>
      <trkpt lat="46.17576" lon="6.49208">
        <ele>766.10546875</ele>
        <time>2025-08-25T09:34:11Z</time>
      </trkpt>
      <trkpt lat="46.17579" lon="6.49228">
        <ele>765.1328125</ele>
        <time>2025-08-25T09:34:13Z</time>
      </trkpt>
      <trkpt lat="46.17581" lon="6.49239">
        <ele>764.87890625</ele>
        <time>2025-08-25T09:34:14Z</time>
      </trkpt>
      <trkpt lat="46.17584" lon="6.4925">
        <ele>764.9921875</ele>
        <time>2025-08-25T09:34:15Z</time>
      </trkpt>
      <trkpt lat="46.17594" lon="6.4929">
        <ele>765.26953125</ele>
        <time>2025-08-25T09:34:19Z</time>
      </trkpt>
      <trkpt lat="46.17596" lon="6.49296">
        <ele>765.18359375</ele>
        <time>2025-08-25T09:34:20Z</time>
      </trkpt>
      <trkpt lat="46.17598" lon="6.49303">
        <ele>764.95703125</ele>
        <time>2025-08-25T09:34:21Z</time>
      </trkpt>
      <trkpt lat="46.17599" lon="6.49309">
        <ele>764.73828125</ele>
        <time>2025-08-25T09:34:22Z</time>
      </trkpt>
      <trkpt lat="46.17601" lon="6.49314">
        <ele>764.59765625</ele>
        <time>2025-08-25T09:34:23Z</time>
      </trkpt>
      <trkpt lat="46.17604" lon="6.4932">
        <ele>764.5859375</ele>
        <time>2025-08-25T09:34:24Z</time>
      </trkpt>
      <trkpt lat="46.17607" lon="6.49326">
        <ele>764.91015625</ele>
        <time>2025-08-25T09:34:25Z</time>
      </trkpt>
      <trkpt lat="46.17611" lon="6.49332">
        <ele>765.359375</ele>
        <time>2025-08-25T09:34:26Z</time>
      </trkpt>
      <trkpt lat="46.17633" lon="6.49368">
        <ele>764.92578125</ele>
        <time>2025-08-25T09:34:32Z</time>
      </trkpt>
      <trkpt lat="46.17637" lon="6.49376">
        <ele>765.06640625</ele>
        <time>2025-08-25T09:34:33Z</time>
      </trkpt>
      <trkpt lat="46.17641" lon="6.49383">
        <ele>765.22265625</ele>
        <time>2025-08-25T09:34:34Z</time>
      </trkpt>
      <trkpt lat="46.17654" lon="6.49401">
        <ele>766.1640625</ele>
        <time>2025-08-25T09:34:37Z</time>
      </trkpt>
      <trkpt lat="46.17665" lon="6.49419">
        <ele>766.5703125</ele>
        <time>2025-08-25T09:34:41Z</time>
      </trkpt>
      <trkpt lat="46.17675" lon="6.49442">
        <ele>766.07421875</ele>
        <time>2025-08-25T09:34:46Z</time>
      </trkpt>
      <trkpt lat="46.17676" lon="6.49447">
        <ele>765.88671875</ele>
        <time>2025-08-25T09:34:47Z</time>
      </trkpt>
      <trkpt lat="46.17676" lon="6.49475">
        <ele>764.46875</ele>
        <time>2025-08-25T09:34:51Z</time>
      </trkpt>
      <trkpt lat="46.17677" lon="6.49482">
        <ele>764.2265625</ele>
        <time>2025-08-25T09:34:52Z</time>
      </trkpt>
      <trkpt lat="46.17678" lon="6.49489">
        <ele>763.93359375</ele>
        <time>2025-08-25T09:34:53Z</time>
      </trkpt>
      <trkpt lat="46.17681" lon="6.49513">
        <ele>763.3828125</ele>
        <time>2025-08-25T09:34:56Z</time>
      </trkpt>
      <trkpt lat="46.1768" lon="6.49551">
        <ele>762.5859375</ele>
        <time>2025-08-25T09:35:00Z</time>
      </trkpt>
      <trkpt lat="46.17676" lon="6.49582">
        <ele>765.2890625</ele>
        <time>2025-08-25T09:35:03Z</time>
      </trkpt>
      <trkpt lat="46.17675" lon="6.49591">
        <ele>766.43359375</ele>
        <time>2025-08-25T09:35:04Z</time>
      </trkpt>
      <trkpt lat="46.17675" lon="6.49616">
        <ele>769.5</ele>
        <time>2025-08-25T09:35:11Z</time>
      </trkpt>
      <trkpt lat="46.17679" lon="6.49615">
        <ele>768.96484375</ele>
        <time>2025-08-25T09:35:37Z</time>
      </trkpt>
      <trkpt lat="46.17677" lon="6.49618">
        <ele>769.453125</ele>
        <time>2025-08-25T09:36:06Z</time>
      </trkpt>
      <trkpt lat="46.17674" lon="6.49619">
        <ele>769.9453125</ele>
        <time>2025-08-25T09:36:17Z</time>
      </trkpt>
      <trkpt lat="46.17674" lon="6.49618">
        <ele>769.7421875</ele>
        <time>2025-08-25T09:36:43Z</time>
      </trkpt>
      <trkpt lat="46.17675" lon="6.49622">
        <ele>770.09765625</ele>
        <time>2025-08-25T09:37:24Z</time>
      </trkpt>
      <trkpt lat="46.17675" lon="6.49621">
        <ele>769.95703125</ele>
        <time>2025-08-25T09:38:04Z</time>
      </trkpt>
      <trkpt lat="46.17674" lon="6.49624">
        <ele>770.5</ele>
        <time>2025-08-25T09:38:17Z</time>
      </trkpt>
      <trkpt lat="46.17674" lon="6.49626">
        <ele>770.7734375</ele>
        <time>2025-08-25T09:38:18Z</time>
      </trkpt>
      <trkpt lat="46.17673" lon="6.49629">
        <ele>771.13671875</ele>
        <time>2025-08-25T09:38:19Z</time>
      </trkpt>
      <trkpt lat="46.17672" lon="6.49632">
        <ele>771.55078125</ele>
        <time>2025-08-25T09:38:20Z</time>
      </trkpt>
      <trkpt lat="46.1767" lon="6.49634">
        <ele>771.9609375</ele>
        <time>2025-08-25T09:38:21Z</time>
      </trkpt>
      <trkpt lat="46.17669" lon="6.49636">
        <ele>772.3828125</ele>
        <time>2025-08-25T09:38:22Z</time>
      </trkpt>
      <trkpt lat="46.17667" lon="6.49639">
        <ele>772.87109375</ele>
        <time>2025-08-25T09:38:23Z</time>
      </trkpt>
      <trkpt lat="46.17665" lon="6.49642">
        <ele>773.3515625</ele>
        <time>2025-08-25T09:38:24Z</time>
      </trkpt>
      <trkpt lat="46.17663" lon="6.49644">
        <ele>773.796875</ele>
        <time>2025-08-25T09:38:25Z</time>
      </trkpt>
      <trkpt lat="46.17661" lon="6.49646">
        <ele>774.22265625</ele>
        <time>2025-08-25T09:38:26Z</time>
      </trkpt>
      <trkpt lat="46.1766" lon="6.49648">
        <ele>774.65625</ele>
        <time>2025-08-25T09:38:27Z</time>
      </trkpt>
      <trkpt lat="46.17658" lon="6.49651">
        <ele>775.125</ele>
        <time>2025-08-25T09:38:28Z</time>
      </trkpt>
      <trkpt lat="46.17656" lon="6.49653">
        <ele>775.59765625</ele>
        <time>2025-08-25T09:38:29Z</time>
      </trkpt>
      <trkpt lat="46.17638" lon="6.49689">
        <ele>779.51171875</ele>
        <time>2025-08-25T09:38:41Z</time>
      </trkpt>
      <trkpt lat="46.17636" lon="6.4969">
        <ele>779.7265625</ele>
        <time>2025-08-25T09:38:42Z</time>
      </trkpt>
      <trkpt lat="46.17635" lon="6.49691">
        <ele>779.8828125</ele>
        <time>2025-08-25T09:38:43Z</time>
      </trkpt>
      <trkpt lat="46.17613" lon="6.49685">
        <ele>784.51171875</ele>
        <time>2025-08-25T09:38:53Z</time>
      </trkpt>
      <trkpt lat="46.17607" lon="6.49677">
        <ele>785.34765625</ele>
        <time>2025-08-25T09:38:57Z</time>
      </trkpt>
      <trkpt lat="46.17609" lon="6.49649">
        <ele>783.01171875</ele>
        <time>2025-08-25T09:39:08Z</time>
      </trkpt>
      <trkpt lat="46.17597" lon="6.49625">
        <ele>783.52734375</ele>
        <time>2025-08-25T09:39:17Z</time>
      </trkpt>
      <trkpt lat="46.17575" lon="6.49612">
        <ele>786.67578125</ele>
        <time>2025-08-25T09:39:28Z</time>
      </trkpt>
      <trkpt lat="46.17557" lon="6.49594">
        <ele>787.6015625</ele>
        <time>2025-08-25T09:39:38Z</time>
      </trkpt>
      <trkpt lat="46.17539" lon="6.49589">
        <ele>790.12890625</ele>
        <time>2025-08-25T09:39:48Z</time>
      </trkpt>
      <trkpt lat="46.17509" lon="6.49599">
        <ele>794.5546875</ele>
        <time>2025-08-25T09:40:00Z</time>
      </trkpt>
      <trkpt lat="46.17483" lon="6.49619">
        <ele>799.00390625</ele>
        <time>2025-08-25T09:40:13Z</time>
      </trkpt>
      <trkpt lat="46.17503" lon="6.49655">
        <ele>800.73046875</ele>
        <time>2025-08-25T09:40:25Z</time>
      </trkpt>
      <trkpt lat="46.17537" lon="6.49688">
        <ele>801.59765625</ele>
        <time>2025-08-25T09:40:40Z</time>
      </trkpt>
      <trkpt lat="46.17544" lon="6.49753">
        <ele>808.609375</ele>
        <time>2025-08-25T09:40:55Z</time>
      </trkpt>
      <trkpt lat="46.17541" lon="6.49803">
        <ele>813.45703125</ele>
        <time>2025-08-25T09:41:07Z</time>
      </trkpt>
      <trkpt lat="46.17538" lon="6.49841">
        <ele>815.08984375</ele>
        <time>2025-08-25T09:41:17Z</time>
      </trkpt>
      <trkpt lat="46.17546" lon="6.4988">
        <ele>815.1875</ele>
        <time>2025-08-25T09:41:26Z</time>
      </trkpt>
      <trkpt lat="46.17548" lon="6.49923">
        <ele>815.38671875</ele>
        <time>2025-08-25T09:41:37Z</time>
      </trkpt>
      <trkpt lat="46.17539" lon="6.49955">
        <ele>818.87109375</ele>
        <time>2025-08-25T09:41:47Z</time>
      </trkpt>
      <trkpt lat="46.17519" lon="6.4998">
        <ele>824.12109375</ele>
        <time>2025-08-25T09:41:58Z</time>
      </trkpt>
      <trkpt lat="46.1749" lon="6.49981">
        <ele>828.48828125</ele>
        <time>2025-08-25T09:42:10Z</time>
      </trkpt>
      <trkpt lat="46.17465" lon="6.49959">
        <ele>830.65234375</ele>
        <time>2025-08-25T09:42:21Z</time>
      </trkpt>
      <trkpt lat="46.1744" lon="6.49944">
        <ele>832.84765625</ele>
        <time>2025-08-25T09:42:31Z</time>
      </trkpt>
      <trkpt lat="46.17414" lon="6.49943">
        <ele>834.375</ele>
        <time>2025-08-25T09:42:41Z</time>
      </trkpt>
      <trkpt lat="46.17387" lon="6.49963">
        <ele>837.56640625</ele>
        <time>2025-08-25T09:42:53Z</time>
      </trkpt>
      <trkpt lat="46.17374" lon="6.49981">
        <ele>839.3359375</ele>
        <time>2025-08-25T09:43:00Z</time>
      </trkpt>
      <trkpt lat="46.17348" lon="6.50007">
        <ele>842.7734375</ele>
        <time>2025-08-25T09:43:12Z</time>
      </trkpt>
      <trkpt lat="46.17312" lon="6.50046">
        <ele>848.24609375</ele>
        <time>2025-08-25T09:43:29Z</time>
      </trkpt>
      <trkpt lat="46.17283" lon="6.50076">
        <ele>852.5234375</ele>
        <time>2025-08-25T09:43:42Z</time>
      </trkpt>
      <trkpt lat="46.17247" lon="6.501">
        <ele>856.45703125</ele>
        <time>2025-08-25T09:43:56Z</time>
      </trkpt>
      <trkpt lat="46.17211" lon="6.50098">
        <ele>857.5078125</ele>
        <time>2025-08-25T09:44:08Z</time>
      </trkpt>
      <trkpt lat="46.17162" lon="6.50116">
        <ele>861.16015625</ele>
        <time>2025-08-25T09:44:24Z</time>
      </trkpt>
      <trkpt lat="46.17131" lon="6.5012">
        <ele>862.1328125</ele>
        <time>2025-08-25T09:44:35Z</time>
      </trkpt>
      <trkpt lat="46.17129" lon="6.50127">
        <ele>862.7265625</ele>
        <time>2025-08-25T09:44:45Z</time>
      </trkpt>
      <trkpt lat="46.1713" lon="6.50131">
        <ele>862.99609375</ele>
        <time>2025-08-25T09:44:46Z</time>
      </trkpt>
      <trkpt lat="46.17132" lon="6.50134">
        <ele>863.26171875</ele>
        <time>2025-08-25T09:44:47Z</time>
      </trkpt>
      <trkpt lat="46.17136" lon="6.50136">
        <ele>863.41796875</ele>
        <time>2025-08-25T09:44:48Z</time>
      </trkpt>
      <trkpt lat="46.1714" lon="6.50138">
        <ele>863.5703125</ele>
        <time>2025-08-25T09:44:49Z</time>
      </trkpt>
      <trkpt lat="46.17144" lon="6.5014">
        <ele>863.78125</ele>
        <time>2025-08-25T09:44:50Z</time>
      </trkpt>
      <trkpt lat="46.17148" lon="6.50143">
        <ele>864.015625</ele>
        <time>2025-08-25T09:44:51Z</time>
      </trkpt>
      <trkpt lat="46.17151" lon="6.50147">
        <ele>864.265625</ele>
        <time>2025-08-25T09:44:52Z</time>
      </trkpt>
      <trkpt lat="46.17158" lon="6.50155">
        <ele>864.71875</ele>
        <time>2025-08-25T09:44:54Z</time>
      </trkpt>
      <trkpt lat="46.17161" lon="6.5016">
        <ele>865.015625</ele>
        <time>2025-08-25T09:44:55Z</time>
      </trkpt>
      <trkpt lat="46.17164" lon="6.50164">
        <ele>865.49609375</ele>
        <time>2025-08-25T09:44:56Z</time>
      </trkpt>
      <trkpt lat="46.17165" lon="6.50169">
        <ele>866</ele>
        <time>2025-08-25T09:44:57Z</time>
      </trkpt>
      <trkpt lat="46.17167" lon="6.50175">
        <ele>866.55078125</ele>
        <time>2025-08-25T09:44:58Z</time>
      </trkpt>
      <trkpt lat="46.17167" lon="6.50181">
        <ele>867.12109375</ele>
        <time>2025-08-25T09:44:59Z</time>
      </trkpt>
      <trkpt lat="46.17166" lon="6.50187">
        <ele>867.71875</ele>
        <time>2025-08-25T09:45:00Z</time>
      </trkpt>
      <trkpt lat="46.17165" lon="6.50193">
        <ele>868.3828125</ele>
        <time>2025-08-25T09:45:01Z</time>
      </trkpt>
      <trkpt lat="46.17162" lon="6.50198">
        <ele>869.03125</ele>
        <time>2025-08-25T09:45:02Z</time>
      </trkpt>
      <trkpt lat="46.1716" lon="6.50203">
        <ele>869.66015625</ele>
        <time>2025-08-25T09:45:03Z</time>
      </trkpt>
      <trkpt lat="46.17157" lon="6.50208">
        <ele>870.26953125</ele>
        <time>2025-08-25T09:45:04Z</time>
      </trkpt>
      <trkpt lat="46.17154" lon="6.50212">
        <ele>870.87109375</ele>
        <time>2025-08-25T09:45:05Z</time>
      </trkpt>
      <trkpt lat="46.17146" lon="6.50226">
        <ele>872.29296875</ele>
        <time>2025-08-25T09:45:08Z</time>
      </trkpt>
      <trkpt lat="46.17134" lon="6.50243">
        <ele>873.93359375</ele>
        <time>2025-08-25T09:45:12Z</time>
      </trkpt>
      <trkpt lat="46.17129" lon="6.50284">
        <ele>878.078125</ele>
        <time>2025-08-25T09:45:20Z</time>
      </trkpt>
      <trkpt lat="46.17149" lon="6.50322">
        <ele>880.96484375</ele>
        <time>2025-08-25T09:45:29Z</time>
      </trkpt>
      <trkpt lat="46.17166" lon="6.50344">
        <ele>882.8125</ele>
        <time>2025-08-25T09:45:36Z</time>
      </trkpt>
      <trkpt lat="46.17166" lon="6.50348">
        <ele>883.28125</ele>
        <time>2025-08-25T09:45:37Z</time>
      </trkpt>
      <trkpt lat="46.17164" lon="6.5035">
        <ele>883.6015625</ele>
        <time>2025-08-25T09:45:38Z</time>
      </trkpt>
      <trkpt lat="46.17162" lon="6.50351">
        <ele>883.75</ele>
        <time>2025-08-25T09:45:39Z</time>
      </trkpt>
      <trkpt lat="46.17158" lon="6.50351">
        <ele>883.7734375</ele>
        <time>2025-08-25T09:45:40Z</time>
      </trkpt>
      <trkpt lat="46.17155" lon="6.50351">
        <ele>883.84375</ele>
        <time>2025-08-25T09:45:41Z</time>
      </trkpt>
      <trkpt lat="46.17113" lon="6.50356">
        <ele>886.59375</ele>
        <time>2025-08-25T09:45:53Z</time>
      </trkpt>
      <trkpt lat="46.17083" lon="6.5037">
        <ele>890.23828125</ele>
        <time>2025-08-25T09:46:02Z</time>
      </trkpt>
      <trkpt lat="46.1704" lon="6.50363">
        <ele>893.859375</ele>
        <time>2025-08-25T09:46:14Z</time>
      </trkpt>
      <trkpt lat="46.17001" lon="6.50351">
        <ele>897.41796875</ele>
        <time>2025-08-25T09:46:24Z</time>
      </trkpt>
      <trkpt lat="46.16998" lon="6.50349">
        <ele>897.62890625</ele>
        <time>2025-08-25T09:46:25Z</time>
      </trkpt>
      <trkpt lat="46.1695" lon="6.50332">
        <ele>900.27734375</ele>
        <time>2025-08-25T09:46:37Z</time>
      </trkpt>
      <trkpt lat="46.16917" lon="6.50338">
        <ele>905.21484375</ele>
        <time>2025-08-25T09:46:45Z</time>
      </trkpt>
      <trkpt lat="46.16913" lon="6.50338">
        <ele>905.671875</ele>
        <time>2025-08-25T09:46:46Z</time>
      </trkpt>
      <trkpt lat="46.16909" lon="6.50337">
        <ele>906.0078125</ele>
        <time>2025-08-25T09:46:47Z</time>
      </trkpt>
      <trkpt lat="46.16886" lon="6.50322">
        <ele>906.6796875</ele>
        <time>2025-08-25T09:46:54Z</time>
      </trkpt>
      <trkpt lat="46.16867" lon="6.50323">
        <ele>909.1328125</ele>
        <time>2025-08-25T09:47:01Z</time>
      </trkpt>
      <trkpt lat="46.16865" lon="6.50326">
        <ele>909.7421875</ele>
        <time>2025-08-25T09:47:02Z</time>
      </trkpt>
      <trkpt lat="46.16865" lon="6.5033">
        <ele>910.3671875</ele>
        <time>2025-08-25T09:47:03Z</time>
      </trkpt>
      <trkpt lat="46.16865" lon="6.50334">
        <ele>910.8984375</ele>
        <time>2025-08-25T09:47:04Z</time>
      </trkpt>
      <trkpt lat="46.16866" lon="6.50338">
        <ele>911.3828125</ele>
        <time>2025-08-25T09:47:05Z</time>
      </trkpt>
      <trkpt lat="46.16867" lon="6.50342">
        <ele>911.81640625</ele>
        <time>2025-08-25T09:47:06Z</time>
      </trkpt>
      <trkpt lat="46.16869" lon="6.50345">
        <ele>912.078125</ele>
        <time>2025-08-25T09:47:07Z</time>
      </trkpt>
      <trkpt lat="46.16872" lon="6.50348">
        <ele>912.18359375</ele>
        <time>2025-08-25T09:47:08Z</time>
      </trkpt>
      <trkpt lat="46.16875" lon="6.5035">
        <ele>912.2265625</ele>
        <time>2025-08-25T09:47:09Z</time>
      </trkpt>
      <trkpt lat="46.16915" lon="6.50381">
        <ele>914.203125</ele>
        <time>2025-08-25T09:47:22Z</time>
      </trkpt>
      <trkpt lat="46.16934" lon="6.50418">
        <ele>917.96875</ele>
        <time>2025-08-25T09:47:30Z</time>
      </trkpt>
      <trkpt lat="46.1696" lon="6.50473">
        <ele>918.07421875</ele>
        <time>2025-08-25T09:47:43Z</time>
      </trkpt>
      <trkpt lat="46.16984" lon="6.50526">
        <ele>922.171875</ele>
        <time>2025-08-25T09:47:55Z</time>
      </trkpt>
      <trkpt lat="46.17012" lon="6.50576">
        <ele>928.85546875</ele>
        <time>2025-08-25T09:48:06Z</time>
      </trkpt>
      <trkpt lat="46.17036" lon="6.50591">
        <ele>932.33203125</ele>
        <time>2025-08-25T09:48:13Z</time>
      </trkpt>
      <trkpt lat="46.17071" lon="6.5059">
        <ele>932.4765625</ele>
        <time>2025-08-25T09:48:22Z</time>
      </trkpt>
      <trkpt lat="46.17105" lon="6.50585">
        <ele>931.40625</ele>
        <time>2025-08-25T09:48:31Z</time>
      </trkpt>
      <trkpt lat="46.17109" lon="6.50586">
        <ele>931.37109375</ele>
        <time>2025-08-25T09:48:32Z</time>
      </trkpt>
      <trkpt lat="46.17144" lon="6.50611">
        <ele>935.9765625</ele>
        <time>2025-08-25T09:48:42Z</time>
      </trkpt>
      <trkpt lat="46.17164" lon="6.50637">
        <ele>938.0234375</ele>
        <time>2025-08-25T09:48:49Z</time>
      </trkpt>
      <trkpt lat="46.17176" lon="6.50657">
        <ele>938.6484375</ele>
        <time>2025-08-25T09:48:54Z</time>
      </trkpt>
      <trkpt lat="46.17176" lon="6.50712">
        <ele>944.6953125</ele>
        <time>2025-08-25T09:49:05Z</time>
      </trkpt>
      <trkpt lat="46.17187" lon="6.5076">
        <ele>946.88671875</ele>
        <time>2025-08-25T09:49:16Z</time>
      </trkpt>
      <trkpt lat="46.1721" lon="6.50801">
        <ele>947.01171875</ele>
        <time>2025-08-25T09:49:27Z</time>
      </trkpt>
      <trkpt lat="46.1724" lon="6.50853">
        <ele>948.21484375</ele>
        <time>2025-08-25T09:49:40Z</time>
      </trkpt>
      <trkpt lat="46.1724" lon="6.50906">
        <ele>951.14453125</ele>
        <time>2025-08-25T09:49:51Z</time>
      </trkpt>
      <trkpt lat="46.17216" lon="6.50947">
        <ele>956.68359375</ele>
        <time>2025-08-25T09:50:02Z</time>
      </trkpt>
      <trkpt lat="46.17187" lon="6.50957">
        <ele>961.390625</ele>
        <time>2025-08-25T09:50:11Z</time>
      </trkpt>
      <trkpt lat="46.17157" lon="6.50952">
        <ele>965.3984375</ele>
        <time>2025-08-25T09:50:20Z</time>
      </trkpt>
      <trkpt lat="46.17137" lon="6.50963">
        <ele>969.92578125</ele>
        <time>2025-08-25T09:50:28Z</time>
      </trkpt>
      <trkpt lat="46.17135" lon="6.50965">
        <ele>970.29296875</ele>
        <time>2025-08-25T09:50:29Z</time>
      </trkpt>
      <trkpt lat="46.17128" lon="6.50995">
        <ele>972.6328125</ele>
        <time>2025-08-25T09:50:41Z</time>
      </trkpt>
      <trkpt lat="46.17119" lon="6.51026">
        <ele>975.05078125</ele>
        <time>2025-08-25T09:50:52Z</time>
      </trkpt>
      <trkpt lat="46.17108" lon="6.51053">
        <ele>976.94921875</ele>
        <time>2025-08-25T09:51:01Z</time>
      </trkpt>
      <trkpt lat="46.17083" lon="6.51089">
        <ele>980.7734375</ele>
        <time>2025-08-25T09:51:15Z</time>
      </trkpt>
      <trkpt lat="46.17062" lon="6.51125">
        <ele>985.96875</ele>
        <time>2025-08-25T09:51:27Z</time>
      </trkpt>
      <trkpt lat="46.17061" lon="6.51128">
        <ele>986.65625</ele>
        <time>2025-08-25T09:51:28Z</time>
      </trkpt>
      <trkpt lat="46.17045" lon="6.51157">
        <ele>992.76171875</ele>
        <time>2025-08-25T09:51:38Z</time>
      </trkpt>
      <trkpt lat="46.17041" lon="6.51168">
        <ele>993.6875</ele>
        <time>2025-08-25T09:51:43Z</time>
      </trkpt>
      <trkpt lat="46.17042" lon="6.5117">
        <ele>993.36328125</ele>
        <time>2025-08-25T09:51:44Z</time>
      </trkpt>
      <trkpt lat="46.17044" lon="6.51185">
        <ele>991.34765625</ele>
        <time>2025-08-25T09:51:50Z</time>
      </trkpt>
      <trkpt lat="46.17043" lon="6.51188">
        <ele>991.4765625</ele>
        <time>2025-08-25T09:51:51Z</time>
      </trkpt>
      <trkpt lat="46.17042" lon="6.51191">
        <ele>991.62890625</ele>
        <time>2025-08-25T09:51:52Z</time>
      </trkpt>
      <trkpt lat="46.17041" lon="6.51195">
        <ele>991.89453125</ele>
        <time>2025-08-25T09:51:53Z</time>
      </trkpt>
      <trkpt lat="46.1704" lon="6.51198">
        <ele>991.99609375</ele>
        <time>2025-08-25T09:51:54Z</time>
      </trkpt>
      <trkpt lat="46.1704" lon="6.51202">
        <ele>992.125</ele>
        <time>2025-08-25T09:51:55Z</time>
      </trkpt>
      <trkpt lat="46.17038" lon="6.51205">
        <ele>992.546875</ele>
        <time>2025-08-25T09:51:56Z</time>
      </trkpt>
      <trkpt lat="46.17037" lon="6.51208">
        <ele>992.91015625</ele>
        <time>2025-08-25T09:51:57Z</time>
      </trkpt>
      <trkpt lat="46.17036" lon="6.51212">
        <ele>993.3828125</ele>
        <time>2025-08-25T09:51:58Z</time>
      </trkpt>
      <trkpt lat="46.17034" lon="6.51215">
        <ele>993.90625</ele>
        <time>2025-08-25T09:51:59Z</time>
      </trkpt>
      <trkpt lat="46.17032" lon="6.51219">
        <ele>994.28125</ele>
        <time>2025-08-25T09:52:00Z</time>
      </trkpt>
      <trkpt lat="46.17031" lon="6.51223">
        <ele>994.4921875</ele>
        <time>2025-08-25T09:52:01Z</time>
      </trkpt>
      <trkpt lat="46.1703" lon="6.51225">
        <ele>994.47265625</ele>
        <time>2025-08-25T09:52:02Z</time>
      </trkpt>
      <trkpt lat="46.17004" lon="6.51263">
        <ele>1001.99609375</ele>
        <time>2025-08-25T09:52:12Z</time>
      </trkpt>
      <trkpt lat="46.16993" lon="6.51305">
        <ele>1001.93359375</ele>
        <time>2025-08-25T09:52:23Z</time>
      </trkpt>
      <trkpt lat="46.16993" lon="6.51309">
        <ele>1001.42578125</ele>
        <time>2025-08-25T09:52:24Z</time>
      </trkpt>
      <trkpt lat="46.16993" lon="6.51313">
        <ele>1001.09375</ele>
        <time>2025-08-25T09:52:25Z</time>
      </trkpt>
      <trkpt lat="46.16993" lon="6.51316">
        <ele>1000.640625</ele>
        <time>2025-08-25T09:52:26Z</time>
      </trkpt>
      <trkpt lat="46.1699" lon="6.51357">
        <ele>999.08203125</ele>
        <time>2025-08-25T09:52:36Z</time>
      </trkpt>
      <trkpt lat="46.16993" lon="6.51396">
        <ele>997.69921875</ele>
        <time>2025-08-25T09:52:48Z</time>
      </trkpt>
      <trkpt lat="46.16987" lon="6.51404">
        <ele>1000.03125</ele>
        <time>2025-08-25T09:53:13Z</time>
      </trkpt>
      <trkpt lat="46.1699" lon="6.51408">
        <ele>998.8203125</ele>
        <time>2025-08-25T09:53:50Z</time>
      </trkpt>
      <trkpt lat="46.16989" lon="6.51412">
        <ele>999.546875</ele>
        <time>2025-08-25T09:54:11Z</time>
      </trkpt>
      <trkpt lat="46.16988" lon="6.51417">
        <ele>999.75390625</ele>
        <time>2025-08-25T09:54:33Z</time>
      </trkpt>
      <trkpt lat="46.16987" lon="6.51422">
        <ele>1000.296875</ele>
        <time>2025-08-25T09:54:46Z</time>
      </trkpt>
      <trkpt lat="46.16988" lon="6.51426">
        <ele>1000.2109375</ele>
        <time>2025-08-25T09:54:47Z</time>
      </trkpt>
      <trkpt lat="46.16988" lon="6.51431">
        <ele>1000.16015625</ele>
        <time>2025-08-25T09:54:48Z</time>
      </trkpt>
      <trkpt lat="46.16989" lon="6.51435">
        <ele>999.859375</ele>
        <time>2025-08-25T09:54:49Z</time>
      </trkpt>
      <trkpt lat="46.16992" lon="6.51438">
        <ele>999.0859375</ele>
        <time>2025-08-25T09:54:50Z</time>
      </trkpt>
      <trkpt lat="46.16997" lon="6.5144">
        <ele>998.3671875</ele>
        <time>2025-08-25T09:54:51Z</time>
      </trkpt>
      <trkpt lat="46.17004" lon="6.51444">
        <ele>997.609375</ele>
        <time>2025-08-25T09:54:52Z</time>
      </trkpt>
      <trkpt lat="46.1701" lon="6.51443">
        <ele>996.5703125</ele>
        <time>2025-08-25T09:54:53Z</time>
      </trkpt>
      <trkpt lat="46.17014" lon="6.5144">
        <ele>995.23046875</ele>
        <time>2025-08-25T09:54:54Z</time>
      </trkpt>
      <trkpt lat="46.17017" lon="6.51436">
        <ele>993.65625</ele>
        <time>2025-08-25T09:54:55Z</time>
      </trkpt>
      <trkpt lat="46.17019" lon="6.51432">
        <ele>992.4296875</ele>
        <time>2025-08-25T09:54:56Z</time>
      </trkpt>
      <trkpt lat="46.17022" lon="6.51428">
        <ele>991.98828125</ele>
        <time>2025-08-25T09:54:57Z</time>
      </trkpt>
      <trkpt lat="46.17023" lon="6.51424">
        <ele>991.91015625</ele>
        <time>2025-08-25T09:54:58Z</time>
      </trkpt>
      <trkpt lat="46.1704" lon="6.51396">
        <ele>991.8359375</ele>
        <time>2025-08-25T09:55:07Z</time>
      </trkpt>
      <trkpt lat="46.17049" lon="6.5138">
        <ele>991.34375</ele>
        <time>2025-08-25T09:55:14Z</time>
      </trkpt>
      <trkpt lat="46.17055" lon="6.51373">
        <ele>991.79296875</ele>
        <time>2025-08-25T09:55:18Z</time>
      </trkpt>
      <trkpt lat="46.17065" lon="6.51361">
        <ele>992.359375</ele>
        <time>2025-08-25T09:55:24Z</time>
      </trkpt>
      <trkpt lat="46.17066" lon="6.5136">
        <ele>992.48828125</ele>
        <time>2025-08-25T09:55:25Z</time>
      </trkpt>
      <trkpt lat="46.17069" lon="6.51353">
        <ele>991.87890625</ele>
        <time>2025-08-25T09:55:35Z</time>
      </trkpt>
      <trkpt lat="46.17071" lon="6.51353">
        <ele>992.04296875</ele>
        <time>2025-08-25T09:55:36Z</time>
      </trkpt>
      <trkpt lat="46.17075" lon="6.5135">
        <ele>992.30078125</ele>
        <time>2025-08-25T09:55:38Z</time>
      </trkpt>
      <trkpt lat="46.17086" lon="6.5134">
        <ele>994.13671875</ele>
        <time>2025-08-25T09:55:42Z</time>
      </trkpt>
      <trkpt lat="46.17094" lon="6.51323">
        <ele>992.67578125</ele>
        <time>2025-08-25T09:55:46Z</time>
      </trkpt>
      <trkpt lat="46.17095" lon="6.51309">
        <ele>988.6875</ele>
        <time>2025-08-25T09:55:49Z</time>
      </trkpt>
      <trkpt lat="46.17092" lon="6.51294">
        <ele>983.76953125</ele>
        <time>2025-08-25T09:55:52Z</time>
      </trkpt>
      <trkpt lat="46.17091" lon="6.51289">
        <ele>982.28515625</ele>
        <time>2025-08-25T09:55:53Z</time>
      </trkpt>
      <trkpt lat="46.17096" lon="6.51277">
        <ele>979.71484375</ele>
        <time>2025-08-25T09:55:57Z</time>
      </trkpt>
      <trkpt lat="46.17114" lon="6.51276">
        <ele>979.98828125</ele>
        <time>2025-08-25T09:56:03Z</time>
      </trkpt>
      <trkpt lat="46.17125" lon="6.5128">
        <ele>981.8828125</ele>
        <time>2025-08-25T09:56:07Z</time>
      </trkpt>
      <trkpt lat="46.17128" lon="6.51281">
        <ele>982.37890625</ele>
        <time>2025-08-25T09:56:08Z</time>
      </trkpt>
      <trkpt lat="46.17146" lon="6.51283">
        <ele>982.05859375</ele>
        <time>2025-08-25T09:56:12Z</time>
      </trkpt>
      <trkpt lat="46.17164" lon="6.51268">
        <ele>974.99609375</ele>
        <time>2025-08-25T09:56:17Z</time>
      </trkpt>
      <trkpt lat="46.17167" lon="6.51263">
        <ele>973.23046875</ele>
        <time>2025-08-25T09:56:18Z</time>
      </trkpt>
      <trkpt lat="46.17181" lon="6.5125">
        <ele>967.87890625</ele>
        <time>2025-08-25T09:56:23Z</time>
      </trkpt>
      <trkpt lat="46.1719" lon="6.51245">
        <ele>965.91796875</ele>
        <time>2025-08-25T09:56:25Z</time>
      </trkpt>
      <trkpt lat="46.17215" lon="6.51226">
        <ele>957.48046875</ele>
        <time>2025-08-25T09:56:32Z</time>
      </trkpt>
      <trkpt lat="46.17219" lon="6.51215">
        <ele>953.25390625</ele>
        <time>2025-08-25T09:56:34Z</time>
      </trkpt>
      <trkpt lat="46.17222" lon="6.512">
        <ele>949.4609375</ele>
        <time>2025-08-25T09:56:37Z</time>
      </trkpt>
      <trkpt lat="46.17226" lon="6.51183">
        <ele>945.46484375</ele>
        <time>2025-08-25T09:56:41Z</time>
      </trkpt>
      <trkpt lat="46.17233" lon="6.51182">
        <ele>944.66015625</ele>
        <time>2025-08-25T09:56:51Z</time>
      </trkpt>
      <trkpt lat="46.17245" lon="6.51184">
        <ele>944.41796875</ele>
        <time>2025-08-25T09:56:57Z</time>
      </trkpt>
      <trkpt lat="46.17264" lon="6.51175">
        <ele>942.08203125</ele>
        <time>2025-08-25T09:57:03Z</time>
      </trkpt>
      <trkpt lat="46.17297" lon="6.51168">
        <ele>940.6484375</ele>
        <time>2025-08-25T09:57:10Z</time>
      </trkpt>
      <trkpt lat="46.17311" lon="6.5117">
        <ele>941.484375</ele>
        <time>2025-08-25T09:57:13Z</time>
      </trkpt>
      <trkpt lat="46.17335" lon="6.51172">
        <ele>942.62890625</ele>
        <time>2025-08-25T09:57:18Z</time>
      </trkpt>
      <trkpt lat="46.17361" lon="6.51162">
        <ele>940.56640625</ele>
        <time>2025-08-25T09:57:25Z</time>
      </trkpt>
      <trkpt lat="46.17381" lon="6.51163">
        <ele>941.96484375</ele>
        <time>2025-08-25T09:57:30Z</time>
      </trkpt>
      <trkpt lat="46.17385" lon="6.51165">
        <ele>943.16796875</ele>
        <time>2025-08-25T09:57:32Z</time>
      </trkpt>
      <trkpt lat="46.17397" lon="6.51163">
        <ele>943.80859375</ele>
        <time>2025-08-25T09:57:36Z</time>
      </trkpt>
      <trkpt lat="46.17435" lon="6.51146">
        <ele>943.8515625</ele>
        <time>2025-08-25T09:57:46Z</time>
      </trkpt>
      <trkpt lat="46.17472" lon="6.5112">
        <ele>941.58203125</ele>
        <time>2025-08-25T09:57:58Z</time>
      </trkpt>
      <trkpt lat="46.17493" lon="6.51102">
        <ele>939.7734375</ele>
        <time>2025-08-25T09:58:08Z</time>
      </trkpt>
      <trkpt lat="46.17496" lon="6.51099">
        <ele>939.578125</ele>
        <time>2025-08-25T09:58:23Z</time>
      </trkpt>
      <trkpt lat="46.17489" lon="6.51104">
        <ele>939.34375</ele>
        <time>2025-08-25T09:58:35Z</time>
      </trkpt>
      <trkpt lat="46.17482" lon="6.51104">
        <ele>937.9296875</ele>
        <time>2025-08-25T09:58:50Z</time>
      </trkpt>
      <trkpt lat="46.17473" lon="6.51105">
        <ele>936.44140625</ele>
        <time>2025-08-25T09:59:02Z</time>
      </trkpt>
      <trkpt lat="46.17465" lon="6.51105">
        <ele>934.88671875</ele>
        <time>2025-08-25T09:59:15Z</time>
      </trkpt>
      <trkpt lat="46.17463" lon="6.51107">
        <ele>935.01953125</ele>
        <time>2025-08-25T09:59:23Z</time>
      </trkpt>
      <trkpt lat="46.17455" lon="6.51105">
        <ele>932.8828125</ele>
        <time>2025-08-25T09:59:28Z</time>
      </trkpt>
      <trkpt lat="46.17451" lon="6.51105">
        <ele>932.16015625</ele>
        <time>2025-08-25T09:59:32Z</time>
      </trkpt>
      <trkpt lat="46.17449" lon="6.51092">
        <ele>928.171875</ele>
        <time>2025-08-25T09:59:49Z</time>
      </trkpt>
      <trkpt lat="46.17447" lon="6.51084">
        <ele>925.8125</ele>
        <time>2025-08-25T10:00:02Z</time>
      </trkpt>
      <trkpt lat="46.17447" lon="6.51083">
        <ele>925.5703125</ele>
        <time>2025-08-25T10:00:03Z</time>
      </trkpt>
      <trkpt lat="46.17443" lon="6.51075">
        <ele>922.65234375</ele>
        <time>2025-08-25T10:00:16Z</time>
      </trkpt>
      <trkpt lat="46.17442" lon="6.51064">
        <ele>920.140625</ele>
        <time>2025-08-25T10:00:31Z</time>
      </trkpt>
      <trkpt lat="46.17441" lon="6.51058">
        <ele>918.7890625</ele>
        <time>2025-08-25T10:00:42Z</time>
      </trkpt>
      <trkpt lat="46.1744" lon="6.51057">
        <ele>918.56640625</ele>
        <time>2025-08-25T10:00:49Z</time>
      </trkpt>
      <trkpt lat="46.17442" lon="6.5105">
        <ele>917.28515625</ele>
        <time>2025-08-25T10:00:52Z</time>
      </trkpt>
      <trkpt lat="46.17442" lon="6.51044">
        <ele>916.1171875</ele>
        <time>2025-08-25T10:00:56Z</time>
      </trkpt>
      <trkpt lat="46.17441" lon="6.51034">
        <ele>914.0859375</ele>
        <time>2025-08-25T10:01:01Z</time>
      </trkpt>
      <trkpt lat="46.17434" lon="6.50995">
        <ele>907.28125</ele>
        <time>2025-08-25T10:01:14Z</time>
      </trkpt>
      <trkpt lat="46.17437" lon="6.50989">
        <ele>906.734375</ele>
        <time>2025-08-25T10:01:25Z</time>
      </trkpt>
      <trkpt lat="46.17431" lon="6.50971">
        <ele>904.09375</ele>
        <time>2025-08-25T10:01:29Z</time>
      </trkpt>
      <trkpt lat="46.17431" lon="6.50943">
        <ele>900.7265625</ele>
        <time>2025-08-25T10:01:35Z</time>
      </trkpt>
      <trkpt lat="46.17433" lon="6.5093">
        <ele>899.3671875</ele>
        <time>2025-08-25T10:01:37Z</time>
      </trkpt>
      <trkpt lat="46.17435" lon="6.50924">
        <ele>898.73046875</ele>
        <time>2025-08-25T10:01:38Z</time>
      </trkpt>
      <trkpt lat="46.17436" lon="6.50912">
        <ele>897.38671875</ele>
        <time>2025-08-25T10:01:40Z</time>
      </trkpt>
      <trkpt lat="46.17444" lon="6.50886">
        <ele>895.4375</ele>
        <time>2025-08-25T10:01:44Z</time>
      </trkpt>
      <trkpt lat="46.1745" lon="6.50868">
        <ele>893.859375</ele>
        <time>2025-08-25T10:01:47Z</time>
      </trkpt>
      <trkpt lat="46.17459" lon="6.50848">
        <ele>891.1953125</ele>
        <time>2025-08-25T10:01:51Z</time>
      </trkpt>
      <trkpt lat="46.17474" lon="6.50831">
        <ele>890.015625</ele>
        <time>2025-08-25T10:01:55Z</time>
      </trkpt>
      <trkpt lat="46.17483" lon="6.50824">
        <ele>889.6953125</ele>
        <time>2025-08-25T10:01:57Z</time>
      </trkpt>
      <trkpt lat="46.17486" lon="6.50821">
        <ele>889.36328125</ele>
        <time>2025-08-25T10:01:58Z</time>
      </trkpt>
      <trkpt lat="46.17494" lon="6.50805">
        <ele>886.99609375</ele>
        <time>2025-08-25T10:02:01Z</time>
      </trkpt>
      <trkpt lat="46.17498" lon="6.50798">
        <ele>885.9453125</ele>
        <time>2025-08-25T10:02:02Z</time>
      </trkpt>
      <trkpt lat="46.17504" lon="6.50783">
        <ele>883.625</ele>
        <time>2025-08-25T10:02:04Z</time>
      </trkpt>
      <trkpt lat="46.17523" lon="6.50754">
        <ele>880.265625</ele>
        <time>2025-08-25T10:02:10Z</time>
      </trkpt>
      <trkpt lat="46.17526" lon="6.50747">
        <ele>879.27734375</ele>
        <time>2025-08-25T10:02:11Z</time>
      </trkpt>
      <trkpt lat="46.17527" lon="6.5074">
        <ele>878.08984375</ele>
        <time>2025-08-25T10:02:12Z</time>
      </trkpt>
      <trkpt lat="46.1753" lon="6.50725">
        <ele>876.16796875</ele>
        <time>2025-08-25T10:02:14Z</time>
      </trkpt>
      <trkpt lat="46.17532" lon="6.50719">
        <ele>875.41015625</ele>
        <time>2025-08-25T10:02:15Z</time>
      </trkpt>
      <trkpt lat="46.17534" lon="6.50712">
        <ele>874.5859375</ele>
        <time>2025-08-25T10:02:16Z</time>
      </trkpt>
      <trkpt lat="46.17536" lon="6.50704">
        <ele>873.6328125</ele>
        <time>2025-08-25T10:02:17Z</time>
      </trkpt>
      <trkpt lat="46.17538" lon="6.50697">
        <ele>872.609375</ele>
        <time>2025-08-25T10:02:18Z</time>
      </trkpt>
      <trkpt lat="46.17539" lon="6.5069">
        <ele>871.55859375</ele>
        <time>2025-08-25T10:02:19Z</time>
      </trkpt>
      <trkpt lat="46.17542" lon="6.50677">
        <ele>870.37890625</ele>
        <time>2025-08-25T10:02:26Z</time>
      </trkpt>
      <trkpt lat="46.17542" lon="6.50676">
        <ele>870.1796875</ele>
        <time>2025-08-25T10:02:53Z</time>
      </trkpt>
      <trkpt lat="46.17543" lon="6.50671">
        <ele>869.78515625</ele>
        <time>2025-08-25T10:03:18Z</time>
      </trkpt>
      <trkpt lat="46.17544" lon="6.50667">
        <ele>869.44140625</ele>
        <time>2025-08-25T10:03:38Z</time>
      </trkpt>
      <trkpt lat="46.17542" lon="6.50665">
        <ele>869.046875</ele>
        <time>2025-08-25T10:03:39Z</time>
      </trkpt>
      <trkpt lat="46.1754" lon="6.50664">
        <ele>868.76171875</ele>
        <time>2025-08-25T10:03:40Z</time>
      </trkpt>
      <trkpt lat="46.17539" lon="6.50666">
        <ele>868.75</ele>
        <time>2025-08-25T10:03:41Z</time>
      </trkpt>
      <trkpt lat="46.17538" lon="6.50668">
        <ele>868.98046875</ele>
        <time>2025-08-25T10:03:42Z</time>
      </trkpt>
      <trkpt lat="46.17538" lon="6.5067">
        <ele>869.20703125</ele>
        <time>2025-08-25T10:03:43Z</time>
      </trkpt>
      <trkpt lat="46.17538" lon="6.50672">
        <ele>869.4140625</ele>
        <time>2025-08-25T10:03:44Z</time>
      </trkpt>
      <trkpt lat="46.17538" lon="6.50674">
        <ele>869.59765625</ele>
        <time>2025-08-25T10:03:45Z</time>
      </trkpt>
      <trkpt lat="46.17537" lon="6.50679">
        <ele>869.953125</ele>
        <time>2025-08-25T10:03:47Z</time>
      </trkpt>
      <trkpt lat="46.17539" lon="6.50686">
        <ele>870.95703125</ele>
        <time>2025-08-25T10:03:51Z</time>
      </trkpt>
      <trkpt lat="46.1754" lon="6.50691">
        <ele>871.8828125</ele>
        <time>2025-08-25T10:03:53Z</time>
      </trkpt>
      <trkpt lat="46.1754" lon="6.50694">
        <ele>872.4140625</ele>
        <time>2025-08-25T10:03:54Z</time>
      </trkpt>
      <trkpt lat="46.17539" lon="6.50698">
        <ele>872.890625</ele>
        <time>2025-08-25T10:03:55Z</time>
      </trkpt>
      <trkpt lat="46.17538" lon="6.50701">
        <ele>873.30078125</ele>
        <time>2025-08-25T10:03:56Z</time>
      </trkpt>
      <trkpt lat="46.17536" lon="6.50704">
        <ele>873.65234375</ele>
        <time>2025-08-25T10:03:57Z</time>
      </trkpt>
      <trkpt lat="46.17517" lon="6.50756">
        <ele>879.55859375</ele>
        <time>2025-08-25T10:04:08Z</time>
      </trkpt>
      <trkpt lat="46.17482" lon="6.5077">
        <ele>880.09375</ele>
        <time>2025-08-25T10:04:20Z</time>
      </trkpt>
      <trkpt lat="46.1746" lon="6.5076">
        <ele>882.1328125</ele>
        <time>2025-08-25T10:04:26Z</time>
      </trkpt>
      <trkpt lat="46.17457" lon="6.50756">
        <ele>882.515625</ele>
        <time>2025-08-25T10:04:27Z</time>
      </trkpt>
      <trkpt lat="46.17455" lon="6.50752">
        <ele>882.84765625</ele>
        <time>2025-08-25T10:04:28Z</time>
      </trkpt>
      <trkpt lat="46.17453" lon="6.50747">
        <ele>883.0546875</ele>
        <time>2025-08-25T10:04:29Z</time>
      </trkpt>
      <trkpt lat="46.17452" lon="6.50742">
        <ele>883.2265625</ele>
        <time>2025-08-25T10:04:30Z</time>
      </trkpt>
      <trkpt lat="46.17449" lon="6.50696">
        <ele>883.1171875</ele>
        <time>2025-08-25T10:04:41Z</time>
      </trkpt>
      <trkpt lat="46.17434" lon="6.50632">
        <ele>883.62890625</ele>
        <time>2025-08-25T10:04:53Z</time>
      </trkpt>
      <trkpt lat="46.17429" lon="6.50622">
        <ele>883.625</ele>
        <time>2025-08-25T10:04:55Z</time>
      </trkpt>
      <trkpt lat="46.17425" lon="6.50617">
        <ele>883.9140625</ele>
        <time>2025-08-25T10:04:56Z</time>
      </trkpt>
      <trkpt lat="46.17422" lon="6.50614">
        <ele>884.41015625</ele>
        <time>2025-08-25T10:04:57Z</time>
      </trkpt>
      <trkpt lat="46.17417" lon="6.50612">
        <ele>885.015625</ele>
        <time>2025-08-25T10:04:58Z</time>
      </trkpt>
      <trkpt lat="46.17413" lon="6.5061">
        <ele>885.7109375</ele>
        <time>2025-08-25T10:04:59Z</time>
      </trkpt>
      <trkpt lat="46.17409" lon="6.50608">
        <ele>886.359375</ele>
        <time>2025-08-25T10:05:00Z</time>
      </trkpt>
      <trkpt lat="46.17392" lon="6.50597">
        <ele>888.44921875</ele>
        <time>2025-08-25T10:05:05Z</time>
      </trkpt>
      <trkpt lat="46.17388" lon="6.50594">
        <ele>888.7734375</ele>
        <time>2025-08-25T10:05:06Z</time>
      </trkpt>
      <trkpt lat="46.17386" lon="6.5059">
        <ele>889</ele>
        <time>2025-08-25T10:05:07Z</time>
      </trkpt>
      <trkpt lat="46.17383" lon="6.50586">
        <ele>889.23046875</ele>
        <time>2025-08-25T10:05:08Z</time>
      </trkpt>
      <trkpt lat="46.17381" lon="6.50582">
        <ele>889.4765625</ele>
        <time>2025-08-25T10:05:09Z</time>
      </trkpt>
      <trkpt lat="46.17379" lon="6.50577">
        <ele>889.5625</ele>
        <time>2025-08-25T10:05:10Z</time>
      </trkpt>
      <trkpt lat="46.17377" lon="6.50573">
        <ele>889.54296875</ele>
        <time>2025-08-25T10:05:11Z</time>
      </trkpt>
      <trkpt lat="46.17374" lon="6.50566">
        <ele>889.27734375</ele>
        <time>2025-08-25T10:05:13Z</time>
      </trkpt>
      <trkpt lat="46.17375" lon="6.50563">
        <ele>888.8359375</ele>
        <time>2025-08-25T10:05:16Z</time>
      </trkpt>
      <trkpt lat="46.17381" lon="6.50562">
        <ele>887.52734375</ele>
        <time>2025-08-25T10:05:18Z</time>
      </trkpt>
      <trkpt lat="46.17385" lon="6.50562">
        <ele>886.375</ele>
        <time>2025-08-25T10:05:19Z</time>
      </trkpt>
      <trkpt lat="46.17398" lon="6.50565">
        <ele>883.64453125</ele>
        <time>2025-08-25T10:05:22Z</time>
      </trkpt>
      <trkpt lat="46.17409" lon="6.5057">
        <ele>881.25</ele>
        <time>2025-08-25T10:05:25Z</time>
      </trkpt>
      <trkpt lat="46.17419" lon="6.50572">
        <ele>879.328125</ele>
        <time>2025-08-25T10:05:28Z</time>
      </trkpt>
      <trkpt lat="46.17424" lon="6.50571">
        <ele>878</ele>
        <time>2025-08-25T10:05:41Z</time>
      </trkpt>
      <trkpt lat="46.17424" lon="6.50554">
        <ele>875.83984375</ele>
        <time>2025-08-25T10:05:53Z</time>
      </trkpt>
      <trkpt lat="46.17423" lon="6.50551">
        <ele>875.74609375</ele>
        <time>2025-08-25T10:05:57Z</time>
      </trkpt>
      <trkpt lat="46.17421" lon="6.50541">
        <ele>875.234375</ele>
        <time>2025-08-25T10:06:03Z</time>
      </trkpt>
      <trkpt lat="46.1743" lon="6.50528">
        <ele>871.56640625</ele>
        <time>2025-08-25T10:06:09Z</time>
      </trkpt>
      <trkpt lat="46.17434" lon="6.50521">
        <ele>869.734375</ele>
        <time>2025-08-25T10:06:11Z</time>
      </trkpt>
      <trkpt lat="46.17445" lon="6.505">
        <ele>863.85546875</ele>
        <time>2025-08-25T10:06:17Z</time>
      </trkpt>
      <trkpt lat="46.17446" lon="6.50498">
        <ele>863.3828125</ele>
        <time>2025-08-25T10:06:18Z</time>
      </trkpt>
      <trkpt lat="46.1745" lon="6.50482">
        <ele>860.67578125</ele>
        <time>2025-08-25T10:06:23Z</time>
      </trkpt>
      <trkpt lat="46.17451" lon="6.50476">
        <ele>859.92578125</ele>
        <time>2025-08-25T10:06:24Z</time>
      </trkpt>
      <trkpt lat="46.1745" lon="6.50466">
        <ele>859.15234375</ele>
        <time>2025-08-25T10:06:27Z</time>
      </trkpt>
      <trkpt lat="46.17451" lon="6.50459">
        <ele>858.45703125</ele>
        <time>2025-08-25T10:06:29Z</time>
      </trkpt>
      <trkpt lat="46.17454" lon="6.5045">
        <ele>856.81640625</ele>
        <time>2025-08-25T10:06:32Z</time>
      </trkpt>
      <trkpt lat="46.17456" lon="6.50448">
        <ele>856.109375</ele>
        <time>2025-08-25T10:06:33Z</time>
      </trkpt>
      <trkpt lat="46.17458" lon="6.50446">
        <ele>855.3515625</ele>
        <time>2025-08-25T10:06:34Z</time>
      </trkpt>
      <trkpt lat="46.17464" lon="6.50433">
        <ele>852.6953125</ele>
        <time>2025-08-25T10:06:37Z</time>
      </trkpt>
      <trkpt lat="46.17474" lon="6.50397">
        <ele>848.01171875</ele>
        <time>2025-08-25T10:06:44Z</time>
      </trkpt>
      <trkpt lat="46.17476" lon="6.50381">
        <ele>847.15234375</ele>
        <time>2025-08-25T10:06:48Z</time>
      </trkpt>
      <trkpt lat="46.17484" lon="6.5037">
        <ele>844.8203125</ele>
        <time>2025-08-25T10:06:53Z</time>
      </trkpt>
      <trkpt lat="46.17488" lon="6.50364">
        <ele>843.890625</ele>
        <time>2025-08-25T10:06:56Z</time>
      </trkpt>
      <trkpt lat="46.17495" lon="6.50354">
        <ele>842.44140625</ele>
        <time>2025-08-25T10:06:59Z</time>
      </trkpt>
      <trkpt lat="46.17502" lon="6.50332">
        <ele>841.16796875</ele>
        <time>2025-08-25T10:07:11Z</time>
      </trkpt>
      <trkpt lat="46.17502" lon="6.50322">
        <ele>841.3359375</ele>
        <time>2025-08-25T10:07:18Z</time>
      </trkpt>
      <trkpt lat="46.17501" lon="6.50311">
        <ele>841.68359375</ele>
        <time>2025-08-25T10:07:23Z</time>
      </trkpt>
      <trkpt lat="46.17506" lon="6.50288">
        <ele>840.5859375</ele>
        <time>2025-08-25T10:07:33Z</time>
      </trkpt>
      <trkpt lat="46.17508" lon="6.5027">
        <ele>840.09765625</ele>
        <time>2025-08-25T10:07:42Z</time>
      </trkpt>
      <trkpt lat="46.17508" lon="6.50266">
        <ele>839.953125</ele>
        <time>2025-08-25T10:07:44Z</time>
      </trkpt>
      <trkpt lat="46.17515" lon="6.50247">
        <ele>838.34375</ele>
        <time>2025-08-25T10:07:50Z</time>
      </trkpt>
      <trkpt lat="46.17521" lon="6.50233">
        <ele>836.84375</ele>
        <time>2025-08-25T10:07:53Z</time>
      </trkpt>
      <trkpt lat="46.1753" lon="6.50203">
        <ele>833.78125</ele>
        <time>2025-08-25T10:08:00Z</time>
      </trkpt>
      <trkpt lat="46.17535" lon="6.50159">
        <ele>830.21875</ele>
        <time>2025-08-25T10:08:11Z</time>
      </trkpt>
      <trkpt lat="46.17536" lon="6.50147">
        <ele>829.1015625</ele>
        <time>2025-08-25T10:08:14Z</time>
      </trkpt>
      <trkpt lat="46.17545" lon="6.50127">
        <ele>826.25</ele>
        <time>2025-08-25T10:08:21Z</time>
      </trkpt>
      <trkpt lat="46.17547" lon="6.50125">
        <ele>825.81640625</ele>
        <time>2025-08-25T10:08:22Z</time>
      </trkpt>
      <trkpt lat="46.17558" lon="6.50105">
        <ele>822.1015625</ele>
        <time>2025-08-25T10:08:26Z</time>
      </trkpt>
      <trkpt lat="46.17561" lon="6.50097">
        <ele>820.921875</ele>
        <time>2025-08-25T10:08:27Z</time>
      </trkpt>
      <trkpt lat="46.17568" lon="6.50082">
        <ele>818.3671875</ele>
        <time>2025-08-25T10:08:30Z</time>
      </trkpt>
      <trkpt lat="46.17576" lon="6.50054">
        <ele>815.95703125</ele>
        <time>2025-08-25T10:08:39Z</time>
      </trkpt>
      <trkpt lat="46.17581" lon="6.50036">
        <ele>814.9296875</ele>
        <time>2025-08-25T10:08:43Z</time>
      </trkpt>
      <trkpt lat="46.17584" lon="6.50014">
        <ele>814.171875</ele>
        <time>2025-08-25T10:08:46Z</time>
      </trkpt>
      <trkpt lat="46.17588" lon="6.49994">
        <ele>812.734375</ele>
        <time>2025-08-25T10:08:49Z</time>
      </trkpt>
      <trkpt lat="46.17599" lon="6.49959">
        <ele>808.546875</ele>
        <time>2025-08-25T10:08:56Z</time>
      </trkpt>
      <trkpt lat="46.17604" lon="6.49951">
        <ele>807.4609375</ele>
        <time>2025-08-25T10:09:00Z</time>
      </trkpt>
      <trkpt lat="46.17606" lon="6.49942">
        <ele>806.71484375</ele>
        <time>2025-08-25T10:09:03Z</time>
      </trkpt>
      <trkpt lat="46.17611" lon="6.49921">
        <ele>805.1484375</ele>
        <time>2025-08-25T10:09:07Z</time>
      </trkpt>
      <trkpt lat="46.17613" lon="6.49901">
        <ele>803.6015625</ele>
        <time>2025-08-25T10:09:18Z</time>
      </trkpt>
      <trkpt lat="46.1762" lon="6.49885">
        <ele>800.7421875</ele>
        <time>2025-08-25T10:09:30Z</time>
      </trkpt>
      <trkpt lat="46.1762" lon="6.49872">
        <ele>799.37890625</ele>
        <time>2025-08-25T10:09:33Z</time>
      </trkpt>
      <trkpt lat="46.17623" lon="6.49858">
        <ele>797.23046875</ele>
        <time>2025-08-25T10:09:37Z</time>
      </trkpt>
      <trkpt lat="46.17629" lon="6.49856">
        <ele>795.58984375</ele>
        <time>2025-08-25T10:09:41Z</time>
      </trkpt>
      <trkpt lat="46.17634" lon="6.49849">
        <ele>793.90625</ele>
        <time>2025-08-25T10:09:54Z</time>
      </trkpt>
      <trkpt lat="46.17635" lon="6.49844">
        <ele>793.05859375</ele>
        <time>2025-08-25T10:10:00Z</time>
      </trkpt>
      <trkpt lat="46.17632" lon="6.49824">
        <ele>790.56640625</ele>
        <time>2025-08-25T10:10:06Z</time>
      </trkpt>
      <trkpt lat="46.17628" lon="6.49807">
        <ele>789.20703125</ele>
        <time>2025-08-25T10:10:09Z</time>
      </trkpt>
      <trkpt lat="46.17625" lon="6.49776">
        <ele>786.51953125</ele>
        <time>2025-08-25T10:10:13Z</time>
      </trkpt>
      <trkpt lat="46.17623" lon="6.49739">
        <ele>784.09375</ele>
        <time>2025-08-25T10:10:17Z</time>
      </trkpt>
      <trkpt lat="46.17627" lon="6.49704">
        <ele>781.67578125</ele>
        <time>2025-08-25T10:10:24Z</time>
      </trkpt>
      <trkpt lat="46.17631" lon="6.49702">
        <ele>780.5234375</ele>
        <time>2025-08-25T10:10:26Z</time>
      </trkpt>
      <trkpt lat="46.17654" lon="6.49697">
        <ele>778.9921875</ele>
        <time>2025-08-25T10:10:35Z</time>
      </trkpt>
      <trkpt lat="46.17662" lon="6.49694">
        <ele>778.3984375</ele>
        <time>2025-08-25T10:10:39Z</time>
      </trkpt>
      <trkpt lat="46.17677" lon="6.49688">
        <ele>777.43359375</ele>
        <time>2025-08-25T10:10:45Z</time>
      </trkpt>
      <trkpt lat="46.17688" lon="6.49693">
        <ele>777.62890625</ele>
        <time>2025-08-25T10:10:51Z</time>
      </trkpt>
      <trkpt lat="46.17691" lon="6.49697">
        <ele>778.23828125</ele>
        <time>2025-08-25T10:10:53Z</time>
      </trkpt>
      <trkpt lat="46.17699" lon="6.49711">
        <ele>780.30078125</ele>
        <time>2025-08-25T10:10:59Z</time>
      </trkpt>
      <trkpt lat="46.177" lon="6.49713">
        <ele>780.6328125</ele>
        <time>2025-08-25T10:11:00Z</time>
      </trkpt>
      <trkpt lat="46.17699" lon="6.49725">
        <ele>781.36328125</ele>
        <time>2025-08-25T10:11:05Z</time>
      </trkpt>
      <trkpt lat="46.17695" lon="6.49739">
        <ele>781.35546875</ele>
        <time>2025-08-25T10:11:11Z</time>
      </trkpt>
      <trkpt lat="46.17694" lon="6.49742">
        <ele>781.26171875</ele>
        <time>2025-08-25T10:11:12Z</time>
      </trkpt>
      <trkpt lat="46.17689" lon="6.49762">
        <ele>781.88671875</ele>
        <time>2025-08-25T10:11:21Z</time>
      </trkpt>
      <trkpt lat="46.1769" lon="6.49775">
        <ele>783.015625</ele>
        <time>2025-08-25T10:11:36Z</time>
      </trkpt>
      <trkpt lat="46.17692" lon="6.4978">
        <ele>783.71484375</ele>
        <time>2025-08-25T10:12:08Z</time>
      </trkpt>
      <trkpt lat="46.17694" lon="6.4978">
        <ele>784.10546875</ele>
        <time>2025-08-25T10:12:50Z</time>
      </trkpt>
      <trkpt lat="46.17694" lon="6.4978">
        <ele>784.12890625</ele>
        <time>2025-08-25T10:12:51Z</time>
      </trkpt>
      <trkpt lat="46.17696" lon="6.49786">
        <ele>785.01171875</ele>
        <time>2025-08-25T10:12:55Z</time>
      </trkpt>
      <trkpt lat="46.17706" lon="6.49809">
        <ele>789.2109375</ele>
        <time>2025-08-25T10:13:04Z</time>
      </trkpt>
      <trkpt lat="46.17707" lon="6.49819">
        <ele>790.6875</ele>
        <time>2025-08-25T10:13:07Z</time>
      </trkpt>
      <trkpt lat="46.1771" lon="6.49853">
        <ele>794.97265625</ele>
        <time>2025-08-25T10:13:16Z</time>
      </trkpt>
      <trkpt lat="46.1771" lon="6.4986">
        <ele>795.59765625</ele>
        <time>2025-08-25T10:13:18Z</time>
      </trkpt>
      <trkpt lat="46.17713" lon="6.49895">
        <ele>798.76171875</ele>
        <time>2025-08-25T10:13:28Z</time>
      </trkpt>
      <trkpt lat="46.17721" lon="6.49936">
        <ele>803.5625</ele>
        <time>2025-08-25T10:13:40Z</time>
      </trkpt>
      <trkpt lat="46.17732" lon="6.49964">
        <ele>808.375</ele>
        <time>2025-08-25T10:13:49Z</time>
      </trkpt>
      <trkpt lat="46.17737" lon="6.49977">
        <ele>810.61328125</ele>
        <time>2025-08-25T10:13:53Z</time>
      </trkpt>
      <trkpt lat="46.17736" lon="6.50007">
        <ele>814.234375</ele>
        <time>2025-08-25T10:14:03Z</time>
      </trkpt>
      <trkpt lat="46.17735" lon="6.50014">
        <ele>815.1015625</ele>
        <time>2025-08-25T10:14:05Z</time>
      </trkpt>
      <trkpt lat="46.17736" lon="6.50062">
        <ele>821.70703125</ele>
        <time>2025-08-25T10:14:16Z</time>
      </trkpt>
      <trkpt lat="46.17737" lon="6.5007">
        <ele>822.71875</ele>
        <time>2025-08-25T10:14:18Z</time>
      </trkpt>
      <trkpt lat="46.17738" lon="6.50085">
        <ele>824.49609375</ele>
        <time>2025-08-25T10:14:22Z</time>
      </trkpt>
      <trkpt lat="46.17739" lon="6.50088">
        <ele>824.95703125</ele>
        <time>2025-08-25T10:14:23Z</time>
      </trkpt>
      <trkpt lat="46.17747" lon="6.50108">
        <ele>827.4453125</ele>
        <time>2025-08-25T10:14:30Z</time>
      </trkpt>
      <trkpt lat="46.17763" lon="6.50139">
        <ele>830.5078125</ele>
        <time>2025-08-25T10:14:40Z</time>
      </trkpt>
      <trkpt lat="46.17768" lon="6.50144">
        <ele>831.21875</ele>
        <time>2025-08-25T10:14:43Z</time>
      </trkpt>
      <trkpt lat="46.17791" lon="6.50179">
        <ele>834.984375</ele>
        <time>2025-08-25T10:14:54Z</time>
      </trkpt>
      <trkpt lat="46.17794" lon="6.502">
        <ele>836.8203125</ele>
        <time>2025-08-25T10:15:00Z</time>
      </trkpt>
      <trkpt lat="46.17796" lon="6.50249">
        <ele>841.578125</ele>
        <time>2025-08-25T10:15:13Z</time>
      </trkpt>
      <trkpt lat="46.17805" lon="6.50266">
        <ele>843.80859375</ele>
        <time>2025-08-25T10:15:19Z</time>
      </trkpt>
      <trkpt lat="46.17825" lon="6.50248">
        <ele>842.5859375</ele>
        <time>2025-08-25T10:15:29Z</time>
      </trkpt>
      <trkpt lat="46.17842" lon="6.50196">
        <ele>838.0078125</ele>
        <time>2025-08-25T10:15:40Z</time>
      </trkpt>
      <trkpt lat="46.17844" lon="6.5019">
        <ele>837.57421875</ele>
        <time>2025-08-25T10:15:42Z</time>
      </trkpt>
      <trkpt lat="46.17843" lon="6.50187">
        <ele>837.2578125</ele>
        <time>2025-08-25T10:15:43Z</time>
      </trkpt>
      <trkpt lat="46.17841" lon="6.50186">
        <ele>837.0078125</ele>
        <time>2025-08-25T10:15:44Z</time>
      </trkpt>
      <trkpt lat="46.17838" lon="6.50188">
        <ele>836.98046875</ele>
        <time>2025-08-25T10:15:45Z</time>
      </trkpt>
      <trkpt lat="46.17836" lon="6.50191">
        <ele>837.140625</ele>
        <time>2025-08-25T10:15:46Z</time>
      </trkpt>
      <trkpt lat="46.17835" lon="6.50195">
        <ele>837.43359375</ele>
        <time>2025-08-25T10:15:47Z</time>
      </trkpt>
      <trkpt lat="46.17835" lon="6.50199">
        <ele>837.82421875</ele>
        <time>2025-08-25T10:15:48Z</time>
      </trkpt>
      <trkpt lat="46.17834" lon="6.50204">
        <ele>838.25390625</ele>
        <time>2025-08-25T10:15:49Z</time>
      </trkpt>
      <trkpt lat="46.17811" lon="6.50272">
        <ele>844.62109375</ele>
        <time>2025-08-25T10:16:03Z</time>
      </trkpt>
      <trkpt lat="46.17796" lon="6.50289">
        <ele>845.91015625</ele>
        <time>2025-08-25T10:16:09Z</time>
      </trkpt>
      <trkpt lat="46.17796" lon="6.50291">
        <ele>846.19921875</ele>
        <time>2025-08-25T10:16:10Z</time>
      </trkpt>
      <trkpt lat="46.17796" lon="6.50294">
        <ele>846.50390625</ele>
        <time>2025-08-25T10:16:11Z</time>
      </trkpt>
      <trkpt lat="46.17796" lon="6.50297">
        <ele>846.8671875</ele>
        <time>2025-08-25T10:16:12Z</time>
      </trkpt>
      <trkpt lat="46.17796" lon="6.50301">
        <ele>847.22265625</ele>
        <time>2025-08-25T10:16:13Z</time>
      </trkpt>
      <trkpt lat="46.17796" lon="6.50304">
        <ele>847.55078125</ele>
        <time>2025-08-25T10:16:14Z</time>
      </trkpt>
      <trkpt lat="46.17796" lon="6.50307">
        <ele>847.8671875</ele>
        <time>2025-08-25T10:16:15Z</time>
      </trkpt>
      <trkpt lat="46.17791" lon="6.50338">
        <ele>850.8984375</ele>
        <time>2025-08-25T10:16:27Z</time>
      </trkpt>
      <trkpt lat="46.17789" lon="6.50345">
        <ele>851.51953125</ele>
        <time>2025-08-25T10:16:29Z</time>
      </trkpt>
      <trkpt lat="46.17794" lon="6.50374">
        <ele>854.93359375</ele>
        <time>2025-08-25T10:16:38Z</time>
      </trkpt>
      <trkpt lat="46.17796" lon="6.50385">
        <ele>856.1171875</ele>
        <time>2025-08-25T10:16:41Z</time>
      </trkpt>
      <trkpt lat="46.17805" lon="6.50411">
        <ele>858.78125</ele>
        <time>2025-08-25T10:16:49Z</time>
      </trkpt>
      <trkpt lat="46.17809" lon="6.5042">
        <ele>860.28125</ele>
        <time>2025-08-25T10:16:52Z</time>
      </trkpt>
      <trkpt lat="46.17812" lon="6.50429">
        <ele>861.49609375</ele>
        <time>2025-08-25T10:16:55Z</time>
      </trkpt>
      <trkpt lat="46.17817" lon="6.50441">
        <ele>863.140625</ele>
        <time>2025-08-25T10:16:59Z</time>
      </trkpt>
      <trkpt lat="46.17819" lon="6.50447">
        <ele>863.7890625</ele>
        <time>2025-08-25T10:17:01Z</time>
      </trkpt>
      <trkpt lat="46.1782" lon="6.50459">
        <ele>865.234375</ele>
        <time>2025-08-25T10:17:05Z</time>
      </trkpt>
      <trkpt lat="46.1782" lon="6.50498">
        <ele>870.40625</ele>
        <time>2025-08-25T10:17:18Z</time>
      </trkpt>
      <trkpt lat="46.17817" lon="6.50508">
        <ele>871.546875</ele>
        <time>2025-08-25T10:17:22Z</time>
      </trkpt>
      <trkpt lat="46.17816" lon="6.50523">
        <ele>873.3125</ele>
        <time>2025-08-25T10:17:27Z</time>
      </trkpt>
      <trkpt lat="46.17812" lon="6.50539">
        <ele>875.625</ele>
        <time>2025-08-25T10:17:31Z</time>
      </trkpt>
      <trkpt lat="46.17815" lon="6.50548">
        <ele>876.76953125</ele>
        <time>2025-08-25T10:17:34Z</time>
      </trkpt>
      <trkpt lat="46.17817" lon="6.50551">
        <ele>877.15234375</ele>
        <time>2025-08-25T10:17:35Z</time>
      </trkpt>
      <trkpt lat="46.17819" lon="6.50553">
        <ele>877.37890625</ele>
        <time>2025-08-25T10:17:36Z</time>
      </trkpt>
      <trkpt lat="46.17822" lon="6.50554">
        <ele>877.34375</ele>
        <time>2025-08-25T10:17:37Z</time>
      </trkpt>
      <trkpt lat="46.17826" lon="6.50554">
        <ele>877.109375</ele>
        <time>2025-08-25T10:17:38Z</time>
      </trkpt>
      <trkpt lat="46.17828" lon="6.50554">
        <ele>877.06640625</ele>
        <time>2025-08-25T10:17:39Z</time>
      </trkpt>
      <trkpt lat="46.17871" lon="6.50544">
        <ele>876.13671875</ele>
        <time>2025-08-25T10:17:54Z</time>
      </trkpt>
      <trkpt lat="46.17911" lon="6.50522">
        <ele>877.296875</ele>
        <time>2025-08-25T10:18:08Z</time>
      </trkpt>
      <trkpt lat="46.17953" lon="6.50506">
        <ele>878.96484375</ele>
        <time>2025-08-25T10:18:20Z</time>
      </trkpt>
      <trkpt lat="46.18019" lon="6.50484">
        <ele>879.06640625</ele>
        <time>2025-08-25T10:18:37Z</time>
      </trkpt>
      <trkpt lat="46.18045" lon="6.50484">
        <ele>879.37890625</ele>
        <time>2025-08-25T10:18:44Z</time>
      </trkpt>
      <trkpt lat="46.18053" lon="6.50487">
        <ele>879.61328125</ele>
        <time>2025-08-25T10:18:46Z</time>
      </trkpt>
      <trkpt lat="46.18071" lon="6.5049">
        <ele>879.828125</ele>
        <time>2025-08-25T10:18:50Z</time>
      </trkpt>
      <trkpt lat="46.18138" lon="6.50515">
        <ele>879.421875</ele>
        <time>2025-08-25T10:19:07Z</time>
      </trkpt>
      <trkpt lat="46.18197" lon="6.50529">
        <ele>880.81640625</ele>
        <time>2025-08-25T10:19:22Z</time>
      </trkpt>
      <trkpt lat="46.18218" lon="6.50527">
        <ele>881.76953125</ele>
        <time>2025-08-25T10:19:28Z</time>
      </trkpt>
      <trkpt lat="46.18218" lon="6.50525">
        <ele>881.6484375</ele>
        <time>2025-08-25T10:19:29Z</time>
      </trkpt>
      <trkpt lat="46.18213" lon="6.50522">
        <ele>881.078125</ele>
        <time>2025-08-25T10:19:32Z</time>
      </trkpt>
      <trkpt lat="46.1821" lon="6.50522">
        <ele>880.93359375</ele>
        <time>2025-08-25T10:19:33Z</time>
      </trkpt>
      <trkpt lat="46.18204" lon="6.5052">
        <ele>880.59765625</ele>
        <time>2025-08-25T10:19:35Z</time>
      </trkpt>
      <trkpt lat="46.18203" lon="6.50517">
        <ele>880.375</ele>
        <time>2025-08-25T10:19:36Z</time>
      </trkpt>
      <trkpt lat="46.18203" lon="6.50515">
        <ele>880.1953125</ele>
        <time>2025-08-25T10:19:37Z</time>
      </trkpt>
      <trkpt lat="46.18205" lon="6.50513">
        <ele>880.10546875</ele>
        <time>2025-08-25T10:19:38Z</time>
      </trkpt>
      <trkpt lat="46.18207" lon="6.50511">
        <ele>880.0703125</ele>
        <time>2025-08-25T10:19:39Z</time>
      </trkpt>
      <trkpt lat="46.18209" lon="6.50509">
        <ele>880.015625</ele>
        <time>2025-08-25T10:19:40Z</time>
      </trkpt>
      <trkpt lat="46.18211" lon="6.50507">
        <ele>879.91796875</ele>
        <time>2025-08-25T10:19:41Z</time>
      </trkpt>
      <trkpt lat="46.18214" lon="6.50504">
        <ele>879.8203125</ele>
        <time>2025-08-25T10:19:42Z</time>
      </trkpt>
      <trkpt lat="46.18253" lon="6.50459">
        <ele>879.015625</ele>
        <time>2025-08-25T10:19:55Z</time>
      </trkpt>
      <trkpt lat="46.18263" lon="6.50451">
        <ele>878.7578125</ele>
        <time>2025-08-25T10:19:57Z</time>
      </trkpt>
      <trkpt lat="46.18268" lon="6.50448">
        <ele>878.734375</ele>
        <time>2025-08-25T10:19:58Z</time>
      </trkpt>
      <trkpt lat="46.18274" lon="6.50446">
        <ele>878.671875</ele>
        <time>2025-08-25T10:19:59Z</time>
      </trkpt>
      <trkpt lat="46.1828" lon="6.50446">
        <ele>878.66015625</ele>
        <time>2025-08-25T10:20:00Z</time>
      </trkpt>
      <trkpt lat="46.18286" lon="6.50448">
        <ele>878.78125</ele>
        <time>2025-08-25T10:20:01Z</time>
      </trkpt>
      <trkpt lat="46.18292" lon="6.50451">
        <ele>879.00390625</ele>
        <time>2025-08-25T10:20:02Z</time>
      </trkpt>
      <trkpt lat="46.18298" lon="6.50454">
        <ele>879.24609375</ele>
        <time>2025-08-25T10:20:03Z</time>
      </trkpt>
      <trkpt lat="46.18304" lon="6.50457">
        <ele>879.48828125</ele>
        <time>2025-08-25T10:20:04Z</time>
      </trkpt>
      <trkpt lat="46.1831" lon="6.50458">
        <ele>879.62890625</ele>
        <time>2025-08-25T10:20:05Z</time>
      </trkpt>
      <trkpt lat="46.18314" lon="6.50458">
        <ele>879.6640625</ele>
        <time>2025-08-25T10:20:06Z</time>
      </trkpt>
      <trkpt lat="46.18318" lon="6.50455">
        <ele>879.57421875</ele>
        <time>2025-08-25T10:20:07Z</time>
      </trkpt>
      <trkpt lat="46.1832" lon="6.50451">
        <ele>879.4140625</ele>
        <time>2025-08-25T10:20:08Z</time>
      </trkpt>
      <trkpt lat="46.18322" lon="6.50446">
        <ele>879.2578125</ele>
        <time>2025-08-25T10:20:09Z</time>
      </trkpt>
      <trkpt lat="46.18324" lon="6.50441">
        <ele>879.125</ele>
        <time>2025-08-25T10:20:10Z</time>
      </trkpt>
      <trkpt lat="46.18325" lon="6.50438">
        <ele>879.0234375</ele>
        <time>2025-08-25T10:20:11Z</time>
      </trkpt>
      <trkpt lat="46.18326" lon="6.50434">
        <ele>878.84765625</ele>
        <time>2025-08-25T10:20:12Z</time>
      </trkpt>
      <trkpt lat="46.18326" lon="6.5043">
        <ele>878.63671875</ele>
        <time>2025-08-25T10:20:13Z</time>
      </trkpt>
      <trkpt lat="46.18327" lon="6.50426">
        <ele>878.3828125</ele>
        <time>2025-08-25T10:20:14Z</time>
      </trkpt>
      <trkpt lat="46.18327" lon="6.50422">
        <ele>878.08203125</ele>
        <time>2025-08-25T10:20:15Z</time>
      </trkpt>
      <trkpt lat="46.18327" lon="6.50417">
        <ele>877.74609375</ele>
        <time>2025-08-25T10:20:16Z</time>
      </trkpt>
      <trkpt lat="46.18326" lon="6.50377">
        <ele>874.60546875</ele>
        <time>2025-08-25T10:20:26Z</time>
      </trkpt>
      <trkpt lat="46.18323" lon="6.50364">
        <ele>872.96875</ele>
        <time>2025-08-25T10:20:29Z</time>
      </trkpt>
      <trkpt lat="46.18322" lon="6.50358">
        <ele>872.2734375</ele>
        <time>2025-08-25T10:20:31Z</time>
      </trkpt>
      <trkpt lat="46.18323" lon="6.50359">
        <ele>872.3828125</ele>
        <time>2025-08-25T10:20:35Z</time>
      </trkpt>
      <trkpt lat="46.18321" lon="6.50356">
        <ele>871.94921875</ele>
        <time>2025-08-25T10:20:37Z</time>
      </trkpt>
      <trkpt lat="46.18315" lon="6.5036">
        <ele>871.88671875</ele>
        <time>2025-08-25T10:20:41Z</time>
      </trkpt>
      <trkpt lat="46.18317" lon="6.50369">
        <ele>873.0078125</ele>
        <time>2025-08-25T10:20:46Z</time>
      </trkpt>
      <trkpt lat="46.18316" lon="6.50369">
        <ele>873.03515625</ele>
        <time>2025-08-25T10:21:03Z</time>
      </trkpt>
      <trkpt lat="46.18318" lon="6.50373">
        <ele>873.546875</ele>
        <time>2025-08-25T10:21:19Z</time>
      </trkpt>
      <trkpt lat="46.18319" lon="6.50383">
        <ele>874.65625</ele>
        <time>2025-08-25T10:21:31Z</time>
      </trkpt>
      <trkpt lat="46.18324" lon="6.50388">
        <ele>875.40234375</ele>
        <time>2025-08-25T10:21:48Z</time>
      </trkpt>
      <trkpt lat="46.18321" lon="6.504">
        <ele>876.15625</ele>
        <time>2025-08-25T10:21:53Z</time>
      </trkpt>
      <trkpt lat="46.18322" lon="6.50432">
        <ele>878.52734375</ele>
        <time>2025-08-25T10:22:06Z</time>
      </trkpt>
      <trkpt lat="46.18323" lon="6.50444">
        <ele>879.1953125</ele>
        <time>2025-08-25T10:22:11Z</time>
      </trkpt>
      <trkpt lat="46.18301" lon="6.50454">
        <ele>879.296875</ele>
        <time>2025-08-25T10:22:23Z</time>
      </trkpt>
      <trkpt lat="46.1826" lon="6.50452">
        <ele>878.72265625</ele>
        <time>2025-08-25T10:22:37Z</time>
      </trkpt>
      <trkpt lat="46.18249" lon="6.50463">
        <ele>879.09765625</ele>
        <time>2025-08-25T10:22:41Z</time>
      </trkpt>
      <trkpt lat="46.18217" lon="6.505">
        <ele>879.7578125</ele>
        <time>2025-08-25T10:22:55Z</time>
      </trkpt>
      <trkpt lat="46.18193" lon="6.50524">
        <ele>880.4296875</ele>
        <time>2025-08-25T10:23:05Z</time>
      </trkpt>
      <trkpt lat="46.18193" lon="6.50527">
        <ele>880.56640625</ele>
        <time>2025-08-25T10:23:06Z</time>
      </trkpt>
      <trkpt lat="46.18195" lon="6.50529">
        <ele>880.73046875</ele>
        <time>2025-08-25T10:23:07Z</time>
      </trkpt>
      <trkpt lat="46.18198" lon="6.50529">
        <ele>880.8515625</ele>
        <time>2025-08-25T10:23:08Z</time>
      </trkpt>
      <trkpt lat="46.18201" lon="6.50528">
        <ele>880.94921875</ele>
        <time>2025-08-25T10:23:09Z</time>
      </trkpt>
      <trkpt lat="46.18223" lon="6.50528">
        <ele>882.12109375</ele>
        <time>2025-08-25T10:23:15Z</time>
      </trkpt>
      <trkpt lat="46.18296" lon="6.50549">
        <ele>885.109375</ele>
        <time>2025-08-25T10:23:31Z</time>
      </trkpt>
      <trkpt lat="46.18307" lon="6.50553">
        <ele>886.17578125</ele>
        <time>2025-08-25T10:23:33Z</time>
      </trkpt>
      <trkpt lat="46.18313" lon="6.50553">
        <ele>886.640625</ele>
        <time>2025-08-25T10:23:34Z</time>
      </trkpt>
      <trkpt lat="46.18319" lon="6.50552">
        <ele>886.99609375</ele>
        <time>2025-08-25T10:23:35Z</time>
      </trkpt>
      <trkpt lat="46.18324" lon="6.50551">
        <ele>887.2265625</ele>
        <time>2025-08-25T10:23:36Z</time>
      </trkpt>
      <trkpt lat="46.1833" lon="6.50548">
        <ele>887.65625</ele>
        <time>2025-08-25T10:23:37Z</time>
      </trkpt>
      <trkpt lat="46.18335" lon="6.50544">
        <ele>888.11328125</ele>
        <time>2025-08-25T10:23:38Z</time>
      </trkpt>
      <trkpt lat="46.18339" lon="6.5054">
        <ele>888.5</ele>
        <time>2025-08-25T10:23:39Z</time>
      </trkpt>
      <trkpt lat="46.18344" lon="6.50535">
        <ele>888.74609375</ele>
        <time>2025-08-25T10:23:40Z</time>
      </trkpt>
      <trkpt lat="46.18347" lon="6.5053">
        <ele>888.85546875</ele>
        <time>2025-08-25T10:23:41Z</time>
      </trkpt>
      <trkpt lat="46.1835" lon="6.50524">
        <ele>888.90625</ele>
        <time>2025-08-25T10:23:42Z</time>
      </trkpt>
      <trkpt lat="46.18353" lon="6.50519">
        <ele>888.8359375</ele>
        <time>2025-08-25T10:23:43Z</time>
      </trkpt>
      <trkpt lat="46.18354" lon="6.50513">
        <ele>888.62109375</ele>
        <time>2025-08-25T10:23:44Z</time>
      </trkpt>
      <trkpt lat="46.18365" lon="6.50456">
        <ele>884.84375</ele>
        <time>2025-08-25T10:23:54Z</time>
      </trkpt>
      <trkpt lat="46.18366" lon="6.50444">
        <ele>884.11328125</ele>
        <time>2025-08-25T10:23:56Z</time>
      </trkpt>
      <trkpt lat="46.18386" lon="6.50389">
        <ele>883.40625</ele>
        <time>2025-08-25T10:24:07Z</time>
      </trkpt>
      <trkpt lat="46.18427" lon="6.50364">
        <ele>887.67578125</ele>
        <time>2025-08-25T10:24:19Z</time>
      </trkpt>
      <trkpt lat="46.18442" lon="6.50366">
        <ele>889.96484375</ele>
        <time>2025-08-25T10:24:23Z</time>
      </trkpt>
      <trkpt lat="46.1851" lon="6.50377">
        <ele>899.3515625</ele>
        <time>2025-08-25T10:24:38Z</time>
      </trkpt>
      <trkpt lat="46.18541" lon="6.50363">
        <ele>900.6484375</ele>
        <time>2025-08-25T10:24:44Z</time>
      </trkpt>
      <trkpt lat="46.18546" lon="6.50362">
        <ele>901.04296875</ele>
        <time>2025-08-25T10:24:45Z</time>
      </trkpt>
      <trkpt lat="46.18551" lon="6.50362">
        <ele>901.64453125</ele>
        <time>2025-08-25T10:24:46Z</time>
      </trkpt>
      <trkpt lat="46.1856" lon="6.50366">
        <ele>903.1328125</ele>
        <time>2025-08-25T10:24:48Z</time>
      </trkpt>
      <trkpt lat="46.18564" lon="6.50368">
        <ele>903.9453125</ele>
        <time>2025-08-25T10:24:49Z</time>
      </trkpt>
      <trkpt lat="46.18579" lon="6.5038">
        <ele>906.9921875</ele>
        <time>2025-08-25T10:24:53Z</time>
      </trkpt>
      <trkpt lat="46.18583" lon="6.50382">
        <ele>907.3359375</ele>
        <time>2025-08-25T10:24:54Z</time>
      </trkpt>
      <trkpt lat="46.18587" lon="6.50382">
        <ele>907.5625</ele>
        <time>2025-08-25T10:24:55Z</time>
      </trkpt>
      <trkpt lat="46.18592" lon="6.50382">
        <ele>907.69921875</ele>
        <time>2025-08-25T10:24:56Z</time>
      </trkpt>
      <trkpt lat="46.18596" lon="6.50381">
        <ele>907.70703125</ele>
        <time>2025-08-25T10:24:57Z</time>
      </trkpt>
      <trkpt lat="46.186" lon="6.50379">
        <ele>907.671875</ele>
        <time>2025-08-25T10:24:58Z</time>
      </trkpt>
      <trkpt lat="46.18605" lon="6.50377">
        <ele>907.70703125</ele>
        <time>2025-08-25T10:24:59Z</time>
      </trkpt>
      <trkpt lat="46.18609" lon="6.50375">
        <ele>907.73828125</ele>
        <time>2025-08-25T10:25:00Z</time>
      </trkpt>
      <trkpt lat="46.18613" lon="6.50372">
        <ele>907.7109375</ele>
        <time>2025-08-25T10:25:01Z</time>
      </trkpt>
      <trkpt lat="46.18617" lon="6.50368">
        <ele>907.640625</ele>
        <time>2025-08-25T10:25:02Z</time>
      </trkpt>
      <trkpt lat="46.18636" lon="6.50349">
        <ele>907.21484375</ele>
        <time>2025-08-25T10:25:07Z</time>
      </trkpt>
      <trkpt lat="46.18674" lon="6.50326">
        <ele>909.171875</ele>
        <time>2025-08-25T10:25:18Z</time>
      </trkpt>
      <trkpt lat="46.1873" lon="6.50343">
        <ele>912.5859375</ele>
        <time>2025-08-25T10:25:32Z</time>
      </trkpt>
      <trkpt lat="46.18777" lon="6.50351">
        <ele>915.2578125</ele>
        <time>2025-08-25T10:25:43Z</time>
      </trkpt>
      <trkpt lat="46.18781" lon="6.50351">
        <ele>915.3828125</ele>
        <time>2025-08-25T10:25:44Z</time>
      </trkpt>
      <trkpt lat="46.18818" lon="6.50344">
        <ele>915.65234375</ele>
        <time>2025-08-25T10:25:56Z</time>
      </trkpt>
      <trkpt lat="46.1883" lon="6.50341">
        <ele>915.65234375</ele>
        <time>2025-08-25T10:25:59Z</time>
      </trkpt>
      <trkpt lat="46.18885" lon="6.50316">
        <ele>914.7421875</ele>
        <time>2025-08-25T10:26:09Z</time>
      </trkpt>
      <trkpt lat="46.18892" lon="6.50313">
        <ele>914.7578125</ele>
        <time>2025-08-25T10:26:10Z</time>
      </trkpt>
      <trkpt lat="46.18954" lon="6.50299">
        <ele>914.0859375</ele>
        <time>2025-08-25T10:26:18Z</time>
      </trkpt>
      <trkpt lat="46.18962" lon="6.50299">
        <ele>914.04296875</ele>
        <time>2025-08-25T10:26:19Z</time>
      </trkpt>
      <trkpt lat="46.1897" lon="6.50299">
        <ele>914.15625</ele>
        <time>2025-08-25T10:26:20Z</time>
      </trkpt>
      <trkpt lat="46.18978" lon="6.50301">
        <ele>914.3984375</ele>
        <time>2025-08-25T10:26:21Z</time>
      </trkpt>
      <trkpt lat="46.18985" lon="6.50303">
        <ele>914.88671875</ele>
        <time>2025-08-25T10:26:22Z</time>
      </trkpt>
      <trkpt lat="46.18992" lon="6.50307">
        <ele>915.609375</ele>
        <time>2025-08-25T10:26:23Z</time>
      </trkpt>
      <trkpt lat="46.18999" lon="6.50312">
        <ele>916.1171875</ele>
        <time>2025-08-25T10:26:24Z</time>
      </trkpt>
      <trkpt lat="46.1905" lon="6.50343">
        <ele>918.6484375</ele>
        <time>2025-08-25T10:26:32Z</time>
      </trkpt>
      <trkpt lat="46.19057" lon="6.50344">
        <ele>918.36328125</ele>
        <time>2025-08-25T10:26:33Z</time>
      </trkpt>
      <trkpt lat="46.19063" lon="6.50345">
        <ele>917.92578125</ele>
        <time>2025-08-25T10:26:34Z</time>
      </trkpt>
      <trkpt lat="46.19094" lon="6.50349">
        <ele>915.3203125</ele>
        <time>2025-08-25T10:26:39Z</time>
      </trkpt>
      <trkpt lat="46.19153" lon="6.50382">
        <ele>913.70703125</ele>
        <time>2025-08-25T10:26:49Z</time>
      </trkpt>
      <trkpt lat="46.19159" lon="6.50386">
        <ele>913.515625</ele>
        <time>2025-08-25T10:26:50Z</time>
      </trkpt>
      <trkpt lat="46.19174" lon="6.50403">
        <ele>912.6953125</ele>
        <time>2025-08-25T10:26:53Z</time>
      </trkpt>
      <trkpt lat="46.19178" lon="6.50411">
        <ele>912.7890625</ele>
        <time>2025-08-25T10:26:54Z</time>
      </trkpt>
      <trkpt lat="46.19183" lon="6.50421">
        <ele>912.94140625</ele>
        <time>2025-08-25T10:26:55Z</time>
      </trkpt>
      <trkpt lat="46.19187" lon="6.50432">
        <ele>913.16015625</ele>
        <time>2025-08-25T10:26:56Z</time>
      </trkpt>
      <trkpt lat="46.1919" lon="6.50443">
        <ele>913.1796875</ele>
        <time>2025-08-25T10:26:57Z</time>
      </trkpt>
      <trkpt lat="46.19194" lon="6.50453">
        <ele>912.98046875</ele>
        <time>2025-08-25T10:26:58Z</time>
      </trkpt>
      <trkpt lat="46.19197" lon="6.50461">
        <ele>912.6171875</ele>
        <time>2025-08-25T10:26:59Z</time>
      </trkpt>
      <trkpt lat="46.192" lon="6.50466">
        <ele>911.6328125</ele>
        <time>2025-08-25T10:27:00Z</time>
      </trkpt>
      <trkpt lat="46.19204" lon="6.50467">
        <ele>910.51953125</ele>
        <time>2025-08-25T10:27:01Z</time>
      </trkpt>
      <trkpt lat="46.19207" lon="6.50463">
        <ele>909.72265625</ele>
        <time>2025-08-25T10:27:02Z</time>
      </trkpt>
      <trkpt lat="46.19209" lon="6.50457">
        <ele>908.97265625</ele>
        <time>2025-08-25T10:27:03Z</time>
      </trkpt>
      <trkpt lat="46.19208" lon="6.5045">
        <ele>908.80078125</ele>
        <time>2025-08-25T10:27:04Z</time>
      </trkpt>
      <trkpt lat="46.19207" lon="6.50442">
        <ele>908.87890625</ele>
        <time>2025-08-25T10:27:05Z</time>
      </trkpt>
      <trkpt lat="46.19205" lon="6.50433">
        <ele>908.87890625</ele>
        <time>2025-08-25T10:27:06Z</time>
      </trkpt>
      <trkpt lat="46.19202" lon="6.50424">
        <ele>908.6875</ele>
        <time>2025-08-25T10:27:07Z</time>
      </trkpt>
      <trkpt lat="46.192" lon="6.50415">
        <ele>908.44921875</ele>
        <time>2025-08-25T10:27:08Z</time>
      </trkpt>
      <trkpt lat="46.19198" lon="6.50405">
        <ele>907.984375</ele>
        <time>2025-08-25T10:27:09Z</time>
      </trkpt>
      <trkpt lat="46.19196" lon="6.50394">
        <ele>907.33203125</ele>
        <time>2025-08-25T10:27:10Z</time>
      </trkpt>
      <trkpt lat="46.19193" lon="6.50371">
        <ele>905.55078125</ele>
        <time>2025-08-25T10:27:12Z</time>
      </trkpt>
      <trkpt lat="46.19194" lon="6.50358">
        <ele>904.25390625</ele>
        <time>2025-08-25T10:27:13Z</time>
      </trkpt>
      <trkpt lat="46.19194" lon="6.50345">
        <ele>902.89453125</ele>
        <time>2025-08-25T10:27:14Z</time>
      </trkpt>
      <trkpt lat="46.192" lon="6.50288">
        <ele>897.6640625</ele>
        <time>2025-08-25T10:27:18Z</time>
      </trkpt>
      <trkpt lat="46.1921" lon="6.50242">
        <ele>894.19140625</ele>
        <time>2025-08-25T10:27:22Z</time>
      </trkpt>
      <trkpt lat="46.19215" lon="6.50234">
        <ele>893.58203125</ele>
        <time>2025-08-25T10:27:23Z</time>
      </trkpt>
      <trkpt lat="46.1922" lon="6.50226">
        <ele>892.8984375</ele>
        <time>2025-08-25T10:27:24Z</time>
      </trkpt>
      <trkpt lat="46.19227" lon="6.5022">
        <ele>892.16796875</ele>
        <time>2025-08-25T10:27:25Z</time>
      </trkpt>
      <trkpt lat="46.19234" lon="6.50213">
        <ele>891.3828125</ele>
        <time>2025-08-25T10:27:26Z</time>
      </trkpt>
      <trkpt lat="46.19241" lon="6.50205">
        <ele>890.34375</ele>
        <time>2025-08-25T10:27:27Z</time>
      </trkpt>
      <trkpt lat="46.19269" lon="6.50155">
        <ele>885.7109375</ele>
        <time>2025-08-25T10:27:32Z</time>
      </trkpt>
      <trkpt lat="46.19296" lon="6.501">
        <ele>881.8828125</ele>
        <time>2025-08-25T10:27:37Z</time>
      </trkpt>
      <trkpt lat="46.193" lon="6.50087">
        <ele>881.29296875</ele>
        <time>2025-08-25T10:27:38Z</time>
      </trkpt>
      <trkpt lat="46.19302" lon="6.50074">
        <ele>880.7265625</ele>
        <time>2025-08-25T10:27:39Z</time>
      </trkpt>
      <trkpt lat="46.19303" lon="6.5006">
        <ele>880.1875</ele>
        <time>2025-08-25T10:27:40Z</time>
      </trkpt>
      <trkpt lat="46.19303" lon="6.50046">
        <ele>879.69921875</ele>
        <time>2025-08-25T10:27:41Z</time>
      </trkpt>
      <trkpt lat="46.19302" lon="6.50033">
        <ele>879.2421875</ele>
        <time>2025-08-25T10:27:42Z</time>
      </trkpt>
      <trkpt lat="46.193" lon="6.50019">
        <ele>878.76171875</ele>
        <time>2025-08-25T10:27:43Z</time>
      </trkpt>
      <trkpt lat="46.19297" lon="6.50005">
        <ele>877.89453125</ele>
        <time>2025-08-25T10:27:44Z</time>
      </trkpt>
      <trkpt lat="46.19291" lon="6.49981">
        <ele>876.56640625</ele>
        <time>2025-08-25T10:27:46Z</time>
      </trkpt>
      <trkpt lat="46.19288" lon="6.49958">
        <ele>875.46484375</ele>
        <time>2025-08-25T10:27:48Z</time>
      </trkpt>
      <trkpt lat="46.19288" lon="6.49946">
        <ele>874.6171875</ele>
        <time>2025-08-25T10:27:49Z</time>
      </trkpt>
      <trkpt lat="46.19289" lon="6.49934">
        <ele>873.8828125</ele>
        <time>2025-08-25T10:27:50Z</time>
      </trkpt>
      <trkpt lat="46.1929" lon="6.49922">
        <ele>873.4609375</ele>
        <time>2025-08-25T10:27:51Z</time>
      </trkpt>
      <trkpt lat="46.19289" lon="6.4991">
        <ele>873.03125</ele>
        <time>2025-08-25T10:27:52Z</time>
      </trkpt>
      <trkpt lat="46.19288" lon="6.49899">
        <ele>872.21484375</ele>
        <time>2025-08-25T10:27:53Z</time>
      </trkpt>
      <trkpt lat="46.19285" lon="6.49887">
        <ele>871.37109375</ele>
        <time>2025-08-25T10:27:54Z</time>
      </trkpt>
      <trkpt lat="46.19274" lon="6.49834">
        <ele>869.15625</ele>
        <time>2025-08-25T10:28:00Z</time>
      </trkpt>
      <trkpt lat="46.19276" lon="6.49831">
        <ele>868.9453125</ele>
        <time>2025-08-25T10:28:01Z</time>
      </trkpt>
      <trkpt lat="46.19279" lon="6.49828">
        <ele>868.69140625</ele>
        <time>2025-08-25T10:28:02Z</time>
      </trkpt>
      <trkpt lat="46.19283" lon="6.49824">
        <ele>868.36328125</ele>
        <time>2025-08-25T10:28:03Z</time>
      </trkpt>
      <trkpt lat="46.19287" lon="6.4982">
        <ele>868.0234375</ele>
        <time>2025-08-25T10:28:04Z</time>
      </trkpt>
      <trkpt lat="46.19292" lon="6.49815">
        <ele>867.70703125</ele>
        <time>2025-08-25T10:28:05Z</time>
      </trkpt>
      <trkpt lat="46.19297" lon="6.49811">
        <ele>867.46484375</ele>
        <time>2025-08-25T10:28:06Z</time>
      </trkpt>
      <trkpt lat="46.19303" lon="6.49808">
        <ele>867.34765625</ele>
        <time>2025-08-25T10:28:07Z</time>
      </trkpt>
      <trkpt lat="46.19309" lon="6.49806">
        <ele>867.2734375</ele>
        <time>2025-08-25T10:28:08Z</time>
      </trkpt>
      <trkpt lat="46.19315" lon="6.49805">
        <ele>867.2421875</ele>
        <time>2025-08-25T10:28:09Z</time>
      </trkpt>
      <trkpt lat="46.19321" lon="6.49805">
        <ele>867.2421875</ele>
        <time>2025-08-25T10:28:10Z</time>
      </trkpt>
      <trkpt lat="46.19327" lon="6.49805">
        <ele>867.265625</ele>
        <time>2025-08-25T10:28:11Z</time>
      </trkpt>
      <trkpt lat="46.19333" lon="6.49805">
        <ele>867.3125</ele>
        <time>2025-08-25T10:28:12Z</time>
      </trkpt>
      <trkpt lat="46.1935" lon="6.49804">
        <ele>867.4140625</ele>
        <time>2025-08-25T10:28:15Z</time>
      </trkpt>
      <trkpt lat="46.19355" lon="6.49804">
        <ele>867.45703125</ele>
        <time>2025-08-25T10:28:16Z</time>
      </trkpt>
      <trkpt lat="46.19431" lon="6.49795">
        <ele>869.84765625</ele>
        <time>2025-08-25T10:28:30Z</time>
      </trkpt>
      <trkpt lat="46.19482" lon="6.49789">
        <ele>872.6875</ele>
        <time>2025-08-25T10:28:40Z</time>
      </trkpt>
      <trkpt lat="46.195" lon="6.49789">
        <ele>873.6640625</ele>
        <time>2025-08-25T10:28:44Z</time>
      </trkpt>
      <trkpt lat="46.19514" lon="6.49791">
        <ele>874.6484375</ele>
        <time>2025-08-25T10:28:47Z</time>
      </trkpt>
      <trkpt lat="46.19525" lon="6.49792">
        <ele>875.23046875</ele>
        <time>2025-08-25T10:28:50Z</time>
      </trkpt>
      <trkpt lat="46.19527" lon="6.49789">
        <ele>875.28125</ele>
        <time>2025-08-25T10:28:51Z</time>
      </trkpt>
      <trkpt lat="46.19527" lon="6.49771">
        <ele>875.31640625</ele>
        <time>2025-08-25T10:28:55Z</time>
      </trkpt>
      <trkpt lat="46.19526" lon="6.49765">
        <ele>875.2734375</ele>
        <time>2025-08-25T10:28:56Z</time>
      </trkpt>
      <trkpt lat="46.19523" lon="6.49752">
        <ele>875.1640625</ele>
        <time>2025-08-25T10:28:58Z</time>
      </trkpt>
      <trkpt lat="46.19521" lon="6.49747">
        <ele>875.06640625</ele>
        <time>2025-08-25T10:28:59Z</time>
      </trkpt>
      <trkpt lat="46.19517" lon="6.49742">
        <ele>874.97265625</ele>
        <time>2025-08-25T10:29:00Z</time>
      </trkpt>
      <trkpt lat="46.19514" lon="6.49738">
        <ele>874.9921875</ele>
        <time>2025-08-25T10:29:01Z</time>
      </trkpt>
      <trkpt lat="46.19513" lon="6.49734">
        <ele>875.05859375</ele>
        <time>2025-08-25T10:29:02Z</time>
      </trkpt>
      <trkpt lat="46.19513" lon="6.49729">
        <ele>875.203125</ele>
        <time>2025-08-25T10:29:03Z</time>
      </trkpt>
      <trkpt lat="46.19514" lon="6.49724">
        <ele>875.390625</ele>
        <time>2025-08-25T10:29:04Z</time>
      </trkpt>
      <trkpt lat="46.19515" lon="6.4972">
        <ele>875.57421875</ele>
        <time>2025-08-25T10:29:05Z</time>
      </trkpt>
      <trkpt lat="46.19515" lon="6.49717">
        <ele>875.71875</ele>
        <time>2025-08-25T10:29:06Z</time>
      </trkpt>
      <trkpt lat="46.19515" lon="6.49713">
        <ele>875.83203125</ele>
        <time>2025-08-25T10:29:07Z</time>
      </trkpt>
      <trkpt lat="46.19515" lon="6.49711">
        <ele>875.890625</ele>
        <time>2025-08-25T10:29:08Z</time>
      </trkpt>
      <trkpt lat="46.19513" lon="6.49708">
        <ele>875.89453125</ele>
        <time>2025-08-25T10:29:09Z</time>
      </trkpt>
      <trkpt lat="46.1951" lon="6.49706">
        <ele>875.83203125</ele>
        <time>2025-08-25T10:29:10Z</time>
      </trkpt>
      <trkpt lat="46.19508" lon="6.49704">
        <ele>875.7890625</ele>
        <time>2025-08-25T10:29:11Z</time>
      </trkpt>
      <trkpt lat="46.19505" lon="6.49702">
        <ele>875.7578125</ele>
        <time>2025-08-25T10:29:12Z</time>
      </trkpt>
      <trkpt lat="46.19487" lon="6.49684">
        <ele>875.859375</ele>
        <time>2025-08-25T10:29:19Z</time>
      </trkpt>
      <trkpt lat="46.1947" lon="6.49657">
        <ele>876.4765625</ele>
        <time>2025-08-25T10:29:27Z</time>
      </trkpt>
      <trkpt lat="46.19465" lon="6.49629">
        <ele>878.40625</ele>
        <time>2025-08-25T10:29:34Z</time>
      </trkpt>
      <trkpt lat="46.19464" lon="6.49617">
        <ele>879.703125</ele>
        <time>2025-08-25T10:29:38Z</time>
      </trkpt>
      <trkpt lat="46.19463" lon="6.49615">
        <ele>879.82421875</ele>
        <time>2025-08-25T10:29:39Z</time>
      </trkpt>
      <trkpt lat="46.19461" lon="6.49615">
        <ele>879.734375</ele>
        <time>2025-08-25T10:29:40Z</time>
      </trkpt>
      <trkpt lat="46.19459" lon="6.49617">
        <ele>879.4296875</ele>
        <time>2025-08-25T10:29:41Z</time>
      </trkpt>
      <trkpt lat="46.19458" lon="6.49621">
        <ele>878.98828125</ele>
        <time>2025-08-25T10:29:42Z</time>
      </trkpt>
      <trkpt lat="46.19458" lon="6.49625">
        <ele>878.55078125</ele>
        <time>2025-08-25T10:29:43Z</time>
      </trkpt>
      <trkpt lat="46.19459" lon="6.49629">
        <ele>878.13671875</ele>
        <time>2025-08-25T10:29:44Z</time>
      </trkpt>
      <trkpt lat="46.19461" lon="6.49639">
        <ele>877.3671875</ele>
        <time>2025-08-25T10:29:46Z</time>
      </trkpt>
      <trkpt lat="46.19445" lon="6.49648">
        <ele>875.828125</ele>
        <time>2025-08-25T10:29:52Z</time>
      </trkpt>
      <trkpt lat="46.1943" lon="6.49656">
        <ele>874.01171875</ele>
        <time>2025-08-25T10:30:03Z</time>
      </trkpt>
      <trkpt lat="46.19427" lon="6.49653">
        <ele>874.1640625</ele>
        <time>2025-08-25T10:30:18Z</time>
      </trkpt>
      <trkpt lat="46.19425" lon="6.49655">
        <ele>873.79296875</ele>
        <time>2025-08-25T10:30:31Z</time>
      </trkpt>
      <trkpt lat="46.19425" lon="6.49656">
        <ele>873.71875</ele>
        <time>2025-08-25T10:30:56Z</time>
      </trkpt>
      <trkpt lat="46.19423" lon="6.49659">
        <ele>873.20703125</ele>
        <time>2025-08-25T10:31:24Z</time>
      </trkpt>
      <trkpt lat="46.19424" lon="6.49659">
        <ele>873.20703125</ele>
        <time>2025-08-25T10:31:59Z</time>
      </trkpt>
      <trkpt lat="46.19423" lon="6.49664">
        <ele>872.9375</ele>
        <time>2025-08-25T10:32:19Z</time>
      </trkpt>
      <trkpt lat="46.19424" lon="6.49666">
        <ele>872.97265625</ele>
        <time>2025-08-25T10:32:47Z</time>
      </trkpt>
    </trkseg>
  </trk>
</gpx>